PWSweather.com
Personal Weather Stations
Station Observations
TMASSANO
Herbertsville, Brick, NJ 08724

HerbertsvilleBrick, NJ 08724

Lat: 40.098, Lon: -74.096

Elevation: 16

Station Type: WS 2800

Latest ConditionsUpdated 6:04:50 PM EDT Tuesday, May 3, 2016
Currently Today's Max Today's Min Today's Average
Temperature 49.8°F9.9°C 58.9°F14.9°C 49.3°F9.6°C 52.0°F11.1°C
Dew Point 49.0°F9.4°C 56.9°F13.8°C 48.4°F9.1°C 51.2°F10.7°C
Winds 3.2 mph E5.1 kmh E 18.6 mph ENE29.9 kmh ENE - 4.2 mph 6.8 kmh
Wind Gusts 7.3 mph11.7 kmh 18.6 mph29.9 kmh - -
Humidity 97% 99% 92% 97%
Pressure 29.83 in1010.2 mb 29.95 in1014.2 mb 29.81 in1009.5 mb -
Precipitation - 0.59 in15.0 mm - -
Hour Temp Dew Point Humidity Winds Wind Gusts Pressure Precip Precip Rate Daily Precip Total
06:04 PM 49.8°F9.9°C 49.0°F9.4°C 97% Calm Calm 7.3 mph11.7 kmh 29.83 in1010.2 mb 0.00 in0.0 mm 0.00 in0.0 mm 0.59 in15.0 mm
06:03 PM 49.8°F9.9°C 49.0°F9.4°C 97% 2.2 mph ESE3.5 kmh ESE 7.3 mph11.7 kmh 29.83 in1010.2 mb 0.00 in0.0 mm 0.00 in0.0 mm 0.59 in15.0 mm
06:02 PM 49.8°F9.9°C 49.0°F9.4°C 97% 3.7 mph ESE6.0 kmh ESE 7.3 mph11.7 kmh 29.83 in1010.2 mb 0.00 in0.0 mm 0.00 in0.0 mm 0.59 in15.0 mm
06:01 PM 49.8°F9.9°C 49.0°F9.4°C 97% 4.2 mph ESE6.8 kmh ESE 7.3 mph11.7 kmh 29.83 in1010.2 mb 0.00 in0.0 mm 0.00 in0.0 mm 0.59 in15.0 mm
06:00 PM 49.8°F9.9°C 49.0°F9.4°C 97% 5.8 mph ESE9.3 kmh ESE 7.3 mph11.7 kmh 29.83 in1010.2 mb 0.00 in0.0 mm 0.00 in0.0 mm 0.59 in15.0 mm
05:59 PM 49.8°F9.9°C 49.0°F9.4°C 97% 2.7 mph ENE4.3 kmh ENE 7.3 mph11.7 kmh 29.83 in1010.2 mb 0.00 in0.0 mm 0.00 in0.0 mm 0.59 in15.0 mm
05:58 PM 49.8°F9.9°C 49.0°F9.4°C 97% 3.7 mph ESE6.0 kmh ESE 7.3 mph11.7 kmh 29.83 in1010.2 mb 0.00 in0.0 mm 0.00 in0.0 mm 0.59 in15.0 mm
05:57 PM 49.8°F9.9°C 49.0°F9.4°C 97% 2.7 mph ENE4.3 kmh ENE 7.3 mph11.7 kmh 29.83 in1010.2 mb 0.00 in0.0 mm 0.00 in0.0 mm 0.59 in15.0 mm
05:56 PM 49.8°F9.9°C 49.0°F9.4°C 97% 2.7 mph NE4.3 kmh NE 6.8 mph10.9 kmh 29.83 in1010.2 mb 0.00 in0.0 mm 0.00 in0.0 mm 0.59 in15.0 mm
05:55 PM 49.8°F9.9°C 49.0°F9.4°C 97% 3.2 mph E5.1 kmh E 9.4 mph15.1 kmh 29.83 in1010.2 mb 0.00 in0.0 mm 0.00 in0.0 mm 0.59 in15.0 mm
05:54 PM 49.8°F9.9°C 49.0°F9.4°C 97% 2.7 mph NE4.3 kmh NE 9.4 mph15.1 kmh 29.83 in1010.2 mb 0.00 in0.0 mm 0.00 in0.0 mm 0.59 in15.0 mm
05:53 PM 49.8°F9.9°C 49.0°F9.4°C 97% 2.7 mph E4.3 kmh E 9.4 mph15.1 kmh 29.83 in1010.2 mb 0.00 in0.0 mm 0.00 in0.0 mm 0.59 in15.0 mm
05:52 PM 49.8°F9.9°C 49.0°F9.4°C 97% 6.3 mph NNE10.1 kmh NNE 9.4 mph15.1 kmh 29.83 in1010.2 mb 0.00 in0.0 mm 0.00 in0.0 mm 0.59 in15.0 mm
05:51 PM 49.8°F9.9°C 49.0°F9.4°C 97% 2.7 mph ESE4.3 kmh ESE 9.4 mph15.1 kmh 29.83 in1010.2 mb 0.00 in0.0 mm 0.00 in0.0 mm 0.59 in15.0 mm
05:50 PM 49.8°F9.9°C 49.0°F9.4°C 97% 3.7 mph SE6.0 kmh SE 9.4 mph15.1 kmh 29.82 in1009.8 mb 0.00 in0.0 mm 0.00 in0.0 mm 0.59 in15.0 mm
05:49 PM 49.8°F9.9°C 49.0°F9.4°C 97% 5.3 mph NE8.5 kmh NE 9.4 mph15.1 kmh 29.82 in1009.8 mb 0.00 in0.0 mm 0.00 in0.0 mm 0.59 in15.0 mm
05:48 PM 49.8°F9.9°C 49.0°F9.4°C 97% 2.7 mph E4.3 kmh E 9.4 mph15.1 kmh 29.82 in1009.8 mb 0.00 in0.0 mm 0.00 in0.0 mm 0.59 in15.0 mm
05:47 PM 49.8°F9.9°C 49.0°F9.4°C 97% 4.2 mph NE6.8 kmh NE 9.4 mph15.1 kmh 29.82 in1009.8 mb 0.00 in0.0 mm 0.00 in0.0 mm 0.59 in15.0 mm
05:46 PM 49.8°F9.9°C 49.0°F9.4°C 97% 6.3 mph NE10.1 kmh NE 9.4 mph15.1 kmh 29.82 in1009.8 mb 0.00 in0.0 mm 0.00 in0.0 mm 0.59 in15.0 mm
05:45 PM 50.0°F10.0°C 49.2°F9.6°C 97% 7.3 mph ENE11.7 kmh ENE 7.8 mph12.6 kmh 29.82 in1009.8 mb 0.01 in0.3 mm 0.00 in0.0 mm 0.59 in15.0 mm
05:44 PM 50.0°F10.0°C 49.2°F9.6°C 97% 5.8 mph E9.3 kmh E 7.3 mph11.7 kmh 29.82 in1009.8 mb 0.01 in0.3 mm 0.00 in0.0 mm 0.59 in15.0 mm
05:43 PM 50.0°F10.0°C 49.2°F9.6°C 97% 4.2 mph ESE6.8 kmh ESE 7.3 mph11.7 kmh 29.82 in1009.8 mb 0.01 in0.3 mm 0.00 in0.0 mm 0.59 in15.0 mm
05:42 PM 50.0°F10.0°C 49.2°F9.6°C 97% 6.8 mph ESE10.9 kmh ESE 7.3 mph11.7 kmh 29.82 in1009.8 mb 0.01 in0.3 mm 0.00 in0.0 mm 0.59 in15.0 mm
05:41 PM 50.0°F10.0°C 49.2°F9.6°C 97% 4.7 mph NE7.6 kmh NE 7.3 mph11.7 kmh 29.82 in1009.8 mb 0.01 in0.3 mm 0.00 in0.0 mm 0.59 in15.0 mm
05:40 PM 50.0°F10.0°C 49.2°F9.6°C 97% 5.8 mph ENE9.3 kmh ENE 7.3 mph11.7 kmh 29.82 in1009.8 mb 0.01 in0.3 mm 0.00 in0.0 mm 0.59 in15.0 mm
05:39 PM 50.0°F10.0°C 49.2°F9.6°C 97% 4.2 mph NNE6.8 kmh NNE 7.3 mph11.7 kmh 29.82 in1009.8 mb 0.01 in0.3 mm 0.00 in0.0 mm 0.59 in15.0 mm
05:38 PM 50.0°F10.0°C 49.2°F9.6°C 97% 2.7 mph E4.3 kmh E 7.3 mph11.7 kmh 29.82 in1009.8 mb 0.01 in0.3 mm 0.00 in0.0 mm 0.59 in15.0 mm
05:37 PM 50.0°F10.0°C 49.2°F9.6°C 97% 2.7 mph ESE4.3 kmh ESE 7.8 mph12.6 kmh 29.82 in1009.8 mb 0.01 in0.3 mm 0.00 in0.0 mm 0.59 in15.0 mm
05:36 PM 50.0°F10.0°C 49.2°F9.6°C 97% 3.2 mph E5.1 kmh E 7.8 mph12.6 kmh 29.82 in1009.8 mb 0.01 in0.3 mm 0.00 in0.0 mm 0.59 in15.0 mm
05:35 PM 50.0°F10.0°C 49.2°F9.6°C 97% 3.7 mph ESE6.0 kmh ESE 7.8 mph12.6 kmh 29.82 in1009.8 mb 0.01 in0.3 mm 0.00 in0.0 mm 0.59 in15.0 mm
05:34 PM 50.0°F10.0°C 49.2°F9.6°C 97% 5.8 mph ENE9.3 kmh ENE 7.8 mph12.6 kmh 29.82 in1009.8 mb 0.01 in0.3 mm 0.00 in0.0 mm 0.59 in15.0 mm
05:33 PM 50.0°F10.0°C 49.2°F9.6°C 97% 5.8 mph NE9.3 kmh NE 7.8 mph12.6 kmh 29.82 in1009.8 mb 0.01 in0.3 mm 0.00 in0.0 mm 0.59 in15.0 mm
05:32 PM 50.0°F10.0°C 49.2°F9.6°C 97% 3.7 mph SE6.0 kmh SE 8.9 mph14.3 kmh 29.82 in1009.8 mb 0.01 in0.3 mm 0.00 in0.0 mm 0.59 in15.0 mm
05:31 PM 50.0°F10.0°C 49.2°F9.6°C 97% 4.7 mph NE7.6 kmh NE 8.9 mph14.3 kmh 29.82 in1009.8 mb 0.01 in0.3 mm 0.00 in0.0 mm 0.59 in15.0 mm
05:30 PM 50.0°F10.0°C 49.2°F9.6°C 97% 3.2 mph ESE5.1 kmh ESE 8.9 mph14.3 kmh 29.82 in1009.8 mb 0.01 in0.3 mm 0.00 in0.0 mm 0.59 in15.0 mm
05:29 PM 50.0°F10.0°C 49.2°F9.6°C 97% 5.3 mph E8.5 kmh E 8.9 mph14.3 kmh 29.82 in1009.8 mb 0.01 in0.3 mm 0.00 in0.0 mm 0.59 in15.0 mm
05:28 PM 50.0°F10.0°C 49.2°F9.6°C 97% 3.7 mph E6.0 kmh E 9.9 mph15.9 kmh 29.82 in1009.8 mb 0.01 in0.3 mm 0.00 in0.0 mm 0.59 in15.0 mm
05:27 PM 50.2°F10.1°C 49.4°F9.7°C 97% 6.8 mph E10.9 kmh E 9.9 mph15.9 kmh 29.82 in1009.8 mb 0.01 in0.3 mm 0.00 in0.0 mm 0.59 in15.0 mm
05:26 PM 50.2°F10.1°C 49.4°F9.7°C 97% 4.2 mph ESE6.8 kmh ESE 9.9 mph15.9 kmh 29.82 in1009.8 mb 0.01 in0.3 mm 0.00 in0.0 mm 0.59 in15.0 mm
05:25 PM 50.2°F10.1°C 49.4°F9.7°C 97% 6.3 mph NE10.1 kmh NE 9.9 mph15.9 kmh 29.82 in1009.8 mb 0.01 in0.3 mm 0.00 in0.0 mm 0.59 in15.0 mm
05:24 PM 50.2°F10.1°C 49.4°F9.7°C 97% 1.7 mph NE2.7 kmh NE 9.9 mph15.9 kmh 29.82 in1009.8 mb 0.01 in0.3 mm 0.00 in0.0 mm 0.59 in15.0 mm
05:23 PM 50.2°F10.1°C 49.4°F9.7°C 97% 3.2 mph NE5.1 kmh NE 9.9 mph15.9 kmh 29.82 in1009.8 mb 0.01 in0.3 mm 0.00 in0.0 mm 0.59 in15.0 mm
05:22 PM 50.2°F10.1°C 49.4°F9.7°C 97% 8.9 mph NNE14.3 kmh NNE 9.9 mph15.9 kmh 29.82 in1009.8 mb 0.01 in0.3 mm 0.00 in0.0 mm 0.59 in15.0 mm
05:21 PM 50.2°F10.1°C 49.4°F9.7°C 97% 4.7 mph NNE7.6 kmh NNE 9.9 mph15.9 kmh 29.82 in1009.8 mb 0.01 in0.3 mm 0.00 in0.0 mm 0.59 in15.0 mm
05:20 PM 50.2°F10.1°C 49.4°F9.7°C 97% 4.7 mph NE7.6 kmh NE 9.9 mph15.9 kmh 29.82 in1009.8 mb 0.01 in0.3 mm 0.00 in0.0 mm 0.59 in15.0 mm
05:19 PM 50.2°F10.1°C 49.4°F9.7°C 97% 4.2 mph NNE6.8 kmh NNE 9.9 mph15.9 kmh 29.82 in1009.8 mb 0.01 in0.3 mm 0.00 in0.0 mm 0.59 in15.0 mm
05:18 PM 50.4°F10.2°C 49.6°F9.8°C 97% 3.2 mph ESE5.1 kmh ESE 8.3 mph13.4 kmh 29.82 in1009.8 mb 0.01 in0.3 mm 0.00 in0.0 mm 0.59 in15.0 mm
05:17 PM 50.4°F10.2°C 49.6°F9.8°C 97% 6.8 mph NE10.9 kmh NE 8.3 mph13.4 kmh 29.82 in1009.8 mb 0.01 in0.3 mm 0.00 in0.0 mm 0.59 in15.0 mm
05:16 PM 50.4°F10.2°C 49.6°F9.8°C 97% 4.2 mph NE6.8 kmh NE 8.3 mph13.4 kmh 29.82 in1009.8 mb 0.01 in0.3 mm 0.00 in0.0 mm 0.59 in15.0 mm
05:15 PM 50.4°F10.2°C 49.6°F9.8°C 97% 7.8 mph NE12.6 kmh NE 8.3 mph13.4 kmh 29.82 in1009.8 mb 0.01 in0.3 mm 0.00 in0.0 mm 0.59 in15.0 mm
05:14 PM 50.5°F10.3°C 49.7°F9.8°C 97% 5.3 mph NNE8.5 kmh NNE 6.3 mph10.1 kmh 29.82 in1009.8 mb 0.01 in0.3 mm 0.00 in0.0 mm 0.59 in15.0 mm
05:13 PM 50.5°F10.3°C 49.7°F9.8°C 97% 4.7 mph NNE7.6 kmh NNE 6.3 mph10.1 kmh 29.82 in1009.8 mb 0.01 in0.3 mm 0.00 in0.0 mm 0.59 in15.0 mm
05:12 PM 50.5°F10.3°C 49.7°F9.8°C 97% 3.7 mph NE6.0 kmh NE 6.3 mph10.1 kmh 29.82 in1009.8 mb 0.01 in0.3 mm 0.00 in0.0 mm 0.59 in15.0 mm
05:11 PM 50.5°F10.3°C 49.7°F9.8°C 97% 2.7 mph SE4.3 kmh SE 6.3 mph10.1 kmh 29.82 in1009.8 mb 0.01 in0.3 mm 0.00 in0.0 mm 0.59 in15.0 mm
05:10 PM 50.5°F10.3°C 49.7°F9.8°C 97% 4.2 mph E6.8 kmh E 7.8 mph12.6 kmh 29.82 in1009.8 mb 0.01 in0.3 mm 0.00 in0.0 mm 0.59 in15.0 mm
05:09 PM 50.5°F10.3°C 49.7°F9.8°C 97% 3.7 mph SE6.0 kmh SE 7.8 mph12.6 kmh 29.82 in1009.8 mb 0.01 in0.3 mm 0.00 in0.0 mm 0.59 in15.0 mm
05:08 PM 50.4°F10.2°C 49.6°F9.8°C 97% 2.7 mph SSE4.3 kmh SSE 7.8 mph12.6 kmh 29.82 in1009.8 mb 0.01 in0.3 mm 0.00 in0.0 mm 0.59 in15.0 mm
05:07 PM 50.4°F10.2°C 49.6°F9.8°C 97% 6.3 mph E10.1 kmh E 7.8 mph12.6 kmh 29.82 in1009.8 mb 0.01 in0.3 mm 0.00 in0.0 mm 0.59 in15.0 mm
05:06 PM 50.4°F10.2°C 49.6°F9.8°C 97% 5.3 mph ESE8.5 kmh ESE 7.8 mph12.6 kmh 29.82 in1009.8 mb 0.01 in0.3 mm 0.00 in0.0 mm 0.59 in15.0 mm
05:05 PM 50.4°F10.2°C 49.6°F9.8°C 97% 3.7 mph ENE6.0 kmh ENE 7.8 mph12.6 kmh 29.82 in1009.8 mb 0.01 in0.3 mm 0.00 in0.0 mm 0.59 in15.0 mm
05:04 PM 50.2°F10.1°C 49.4°F9.7°C 97% 4.2 mph SE6.8 kmh SE 9.4 mph15.1 kmh 29.82 in1009.8 mb 0.01 in0.3 mm 0.00 in0.0 mm 0.59 in15.0 mm
05:03 PM 50.2°F10.1°C 49.4°F9.7°C 97% 3.2 mph E5.1 kmh E 9.4 mph15.1 kmh 29.82 in1009.8 mb 0.01 in0.3 mm 0.00 in0.0 mm 0.59 in15.0 mm
05:02 PM 50.2°F10.1°C 49.4°F9.7°C 97% 4.7 mph ESE7.6 kmh ESE 9.4 mph15.1 kmh 29.82 in1009.8 mb 0.01 in0.3 mm 0.00 in0.0 mm 0.59 in15.0 mm
05:01 PM 50.2°F10.1°C 49.4°F9.7°C 97% 5.8 mph S9.3 kmh S 9.4 mph15.1 kmh 29.82 in1009.8 mb 0.01 in0.3 mm 0.00 in0.0 mm 0.59 in15.0 mm
05:00 PM 50.2°F10.1°C 49.4°F9.7°C 97% 2.7 mph ESE4.3 kmh ESE 9.4 mph15.1 kmh 29.82 in1009.8 mb 0.01 in0.3 mm 0.00 in0.0 mm 0.59 in15.0 mm
04:59 PM 50.0°F10.0°C 49.2°F9.6°C 97% 5.8 mph ESE9.3 kmh ESE 9.4 mph15.1 kmh 29.82 in1009.8 mb 0.01 in0.3 mm 0.00 in0.0 mm 0.59 in15.0 mm
04:58 PM 50.0°F10.0°C 49.2°F9.6°C 97% 6.8 mph ESE10.9 kmh ESE 9.4 mph15.1 kmh 29.82 in1009.8 mb 0.01 in0.3 mm 0.00 in0.0 mm 0.59 in15.0 mm
04:57 PM 49.8°F9.9°C 49.0°F9.4°C 97% 5.3 mph S8.5 kmh S 9.4 mph15.1 kmh 29.82 in1009.8 mb 0.01 in0.3 mm 0.00 in0.0 mm 0.59 in15.0 mm
04:56 PM 49.8°F9.9°C 49.0°F9.4°C 97% 5.8 mph NE9.3 kmh NE 11.4 mph18.3 kmh 29.82 in1009.8 mb 0.01 in0.3 mm 0.00 in0.0 mm 0.59 in15.0 mm
04:55 PM 49.8°F9.9°C 49.0°F9.4°C 97% 5.8 mph E9.3 kmh E 11.4 mph18.3 kmh 29.82 in1009.8 mb 0.01 in0.3 mm 0.00 in0.0 mm 0.59 in15.0 mm
04:54 PM 50.0°F10.0°C 49.2°F9.6°C 97% 6.3 mph NE10.1 kmh NE 11.4 mph18.3 kmh 29.82 in1009.8 mb 0.01 in0.3 mm 0.00 in0.0 mm 0.59 in15.0 mm
04:53 PM 50.0°F10.0°C 49.2°F9.6°C 97% 4.2 mph NNE6.8 kmh NNE 11.4 mph18.3 kmh 29.82 in1009.8 mb 0.01 in0.3 mm 0.00 in0.0 mm 0.59 in15.0 mm
04:52 PM 50.0°F10.0°C 49.2°F9.6°C 97% 7.3 mph NE11.7 kmh NE 11.4 mph18.3 kmh 29.82 in1009.8 mb 0.01 in0.3 mm 0.00 in0.0 mm 0.59 in15.0 mm
04:51 PM 50.0°F10.0°C 49.2°F9.6°C 97% 6.3 mph S10.1 kmh S 11.4 mph18.3 kmh 29.81 in1009.5 mb 0.01 in0.3 mm 0.00 in0.0 mm 0.59 in15.0 mm
04:50 PM 49.8°F9.9°C 49.0°F9.4°C 97% 6.8 mph SSE10.9 kmh SSE 11.4 mph18.3 kmh 29.81 in1009.5 mb 0.02 in0.5 mm 0.00 in0.0 mm 0.59 in15.0 mm
04:49 PM 49.8°F9.9°C 49.0°F9.4°C 97% 8.3 mph NNE13.4 kmh NNE 11.4 mph18.3 kmh 29.81 in1009.5 mb 0.02 in0.5 mm 0.00 in0.0 mm 0.59 in15.0 mm
04:48 PM 49.8°F9.9°C 49.0°F9.4°C 97% 3.7 mph SE6.0 kmh SE 11.4 mph18.3 kmh 29.81 in1009.5 mb 0.02 in0.5 mm 0.00 in0.0 mm 0.59 in15.0 mm
04:47 PM 49.8°F9.9°C 49.0°F9.4°C 97% 5.8 mph SSE9.3 kmh SSE 11.4 mph18.3 kmh 29.81 in1009.5 mb 0.02 in0.5 mm 0.00 in0.0 mm 0.59 in15.0 mm
04:46 PM 50.0°F10.0°C 49.2°F9.6°C 97% 8.9 mph NNE14.3 kmh NNE 9.4 mph15.1 kmh 29.81 in1009.5 mb 0.02 in0.5 mm 0.60 in15.2 mm 0.59 in15.0 mm
04:45 PM 50.0°F10.0°C 49.2°F9.6°C 97% 3.7 mph ESE6.0 kmh ESE 8.3 mph13.4 kmh 29.81 in1009.5 mb 0.01 in0.3 mm 0.00 in0.0 mm 0.58 in14.7 mm
04:44 PM 50.0°F10.0°C 49.2°F9.6°C 97% 2.2 mph NNE3.5 kmh NNE 8.3 mph13.4 kmh 29.81 in1009.5 mb 0.01 in0.3 mm 0.00 in0.0 mm 0.58 in14.7 mm
04:43 PM 50.0°F10.0°C 49.2°F9.6°C 97% 7.8 mph NE12.6 kmh NE 8.3 mph13.4 kmh 29.81 in1009.5 mb 0.01 in0.3 mm 0.00 in0.0 mm 0.58 in14.7 mm
04:42 PM 50.0°F10.0°C 49.2°F9.6°C 97% 6.3 mph ESE10.1 kmh ESE 8.3 mph13.4 kmh 29.81 in1009.5 mb 0.01 in0.3 mm 0.00 in0.0 mm 0.58 in14.7 mm
04:41 PM 49.8°F9.9°C 49.0°F9.4°C 97% 3.2 mph SE5.1 kmh SE 8.3 mph13.4 kmh 29.81 in1009.5 mb 0.01 in0.3 mm 0.00 in0.0 mm 0.58 in14.7 mm
04:40 PM 49.8°F9.9°C 49.0°F9.4°C 97% 3.2 mph SSE5.1 kmh SSE 8.3 mph13.4 kmh 29.81 in1009.5 mb 0.01 in0.3 mm 0.00 in0.0 mm 0.58 in14.7 mm
04:39 PM 49.8°F9.9°C 49.0°F9.4°C 97% 5.3 mph E8.5 kmh E 8.3 mph13.4 kmh 29.81 in1009.5 mb 0.01 in0.3 mm 0.00 in0.0 mm 0.58 in14.7 mm
04:38 PM 49.8°F9.9°C 49.0°F9.4°C 97% 4.2 mph E6.8 kmh E 8.3 mph13.4 kmh 29.81 in1009.5 mb 0.01 in0.3 mm 0.00 in0.0 mm 0.58 in14.7 mm
04:37 PM 49.8°F9.9°C 49.0°F9.4°C 97% 4.2 mph E6.8 kmh E 9.4 mph15.1 kmh 29.81 in1009.5 mb 0.01 in0.3 mm 0.00 in0.0 mm 0.58 in14.7 mm
04:36 PM 50.0°F10.0°C 49.2°F9.6°C 97% 7.8 mph ESE12.6 kmh ESE 9.4 mph15.1 kmh 29.81 in1009.5 mb 0.01 in0.3 mm 0.00 in0.0 mm 0.58 in14.7 mm
04:35 PM 49.8°F9.9°C 49.0°F9.4°C 97% 4.7 mph E7.6 kmh E 9.4 mph15.1 kmh 29.81 in1009.5 mb 0.01 in0.3 mm 0.00 in0.0 mm 0.58 in14.7 mm
04:34 PM 49.8°F9.9°C 49.0°F9.4°C 97% 4.2 mph E6.8 kmh E 9.4 mph15.1 kmh 29.81 in1009.5 mb 0.01 in0.3 mm 0.00 in0.0 mm 0.58 in14.7 mm
04:33 PM 49.6°F9.8°C 48.8°F9.3°C 97% 3.2 mph E5.1 kmh E 9.4 mph15.1 kmh 29.81 in1009.5 mb 0.01 in0.3 mm 0.00 in0.0 mm 0.58 in14.7 mm
04:32 PM 49.6°F9.8°C 48.8°F9.3°C 97% 3.2 mph E5.1 kmh E 9.4 mph15.1 kmh 29.81 in1009.5 mb 0.01 in0.3 mm 0.00 in0.0 mm 0.58 in14.7 mm
04:31 PM 49.6°F9.8°C 48.8°F9.3°C 97% 6.8 mph S10.9 kmh S 9.4 mph15.1 kmh 29.81 in1009.5 mb 0.01 in0.3 mm 0.00 in0.0 mm 0.58 in14.7 mm
04:30 PM 49.6°F9.8°C 48.8°F9.3°C 97% 5.8 mph E9.3 kmh E 9.4 mph15.1 kmh 29.81 in1009.5 mb 0.01 in0.3 mm 0.00 in0.0 mm 0.58 in14.7 mm
04:29 PM 49.6°F9.8°C 48.8°F9.3°C 97% 5.8 mph ESE9.3 kmh ESE 9.4 mph15.1 kmh 29.81 in1009.5 mb 0.01 in0.3 mm 0.00 in0.0 mm 0.58 in14.7 mm
04:28 PM 49.6°F9.8°C 48.8°F9.3°C 97% 4.7 mph ESE7.6 kmh ESE 9.4 mph15.1 kmh 29.81 in1009.5 mb 0.01 in0.3 mm 0.00 in0.0 mm 0.58 in14.7 mm
04:27 PM 49.6°F9.8°C 48.8°F9.3°C 97% 5.8 mph NE9.3 kmh NE 8.9 mph14.3 kmh 29.81 in1009.5 mb 0.01 in0.3 mm 0.00 in0.0 mm 0.58 in14.7 mm
04:26 PM 49.5°F9.7°C 48.7°F9.3°C 97% 5.3 mph E8.5 kmh E 8.9 mph14.3 kmh 29.83 in1010.2 mb 0.01 in0.3 mm 0.00 in0.0 mm 0.58 in14.7 mm
04:25 PM 49.5°F9.7°C 48.7°F9.3°C 97% 7.3 mph NE11.7 kmh NE 8.9 mph14.3 kmh 29.83 in1010.2 mb 0.01 in0.3 mm 0.00 in0.0 mm 0.58 in14.7 mm
04:24 PM 49.5°F9.7°C 48.7°F9.3°C 97% 7.3 mph ESE11.7 kmh ESE 8.9 mph14.3 kmh 29.83 in1010.2 mb 0.01 in0.3 mm 0.00 in0.0 mm 0.58 in14.7 mm
04:23 PM 49.5°F9.7°C 48.7°F9.3°C 97% 4.2 mph ESE6.8 kmh ESE 8.9 mph14.3 kmh 29.83 in1010.2 mb 0.01 in0.3 mm 0.00 in0.0 mm 0.58 in14.7 mm
04:22 PM 49.3°F9.6°C 48.5°F9.2°C 97% 3.7 mph E6.0 kmh E 8.9 mph14.3 kmh 29.83 in1010.2 mb 0.01 in0.3 mm 0.00 in0.0 mm 0.58 in14.7 mm
04:21 PM 49.3°F9.6°C 48.5°F9.2°C 97% 4.7 mph ESE7.6 kmh ESE 8.9 mph14.3 kmh 29.83 in1010.2 mb 0.01 in0.3 mm 0.00 in0.0 mm 0.58 in14.7 mm
04:20 PM 49.3°F9.6°C 48.5°F9.2°C 97% 4.7 mph E7.6 kmh E 8.9 mph14.3 kmh 29.83 in1010.2 mb 0.01 in0.3 mm 0.00 in0.0 mm 0.58 in14.7 mm
04:19 PM 49.3°F9.6°C 48.5°F9.2°C 97% 4.7 mph ESE7.6 kmh ESE 8.9 mph14.3 kmh 29.83 in1010.2 mb 0.01 in0.3 mm 0.00 in0.0 mm 0.58 in14.7 mm
04:18 PM 49.3°F9.6°C 48.5°F9.2°C 97% 4.7 mph ESE7.6 kmh ESE 8.9 mph14.3 kmh 29.83 in1010.2 mb 0.01 in0.3 mm 0.00 in0.0 mm 0.58 in14.7 mm
04:17 PM 49.3°F9.6°C 48.5°F9.2°C 97% 5.3 mph E8.5 kmh E 10.4 mph16.7 kmh 29.83 in1010.2 mb 0.01 in0.3 mm 0.00 in0.0 mm 0.58 in14.7 mm
04:16 PM 49.3°F9.6°C 48.5°F9.2°C 97% 5.8 mph NE9.3 kmh NE 10.4 mph16.7 kmh 29.83 in1010.2 mb 0.01 in0.3 mm 0.00 in0.0 mm 0.58 in14.7 mm
04:15 PM 49.3°F9.6°C 48.5°F9.2°C 97% 3.2 mph ESE5.1 kmh ESE 10.4 mph16.7 kmh 29.83 in1010.2 mb 0.01 in0.3 mm 0.00 in0.0 mm 0.58 in14.7 mm
04:14 PM 49.3°F9.6°C 48.5°F9.2°C 97% 8.3 mph ENE13.4 kmh ENE 10.4 mph16.7 kmh 29.83 in1010.2 mb 0.01 in0.3 mm 0.00 in0.0 mm 0.58 in14.7 mm
04:13 PM 49.3°F9.6°C 48.5°F9.2°C 97% 4.2 mph E6.8 kmh E 10.4 mph16.7 kmh 29.83 in1010.2 mb 0.01 in0.3 mm 0.00 in0.0 mm 0.58 in14.7 mm
04:12 PM 49.3°F9.6°C 48.5°F9.2°C 97% 5.3 mph ENE8.5 kmh ENE 10.4 mph16.7 kmh 29.83 in1010.2 mb 0.01 in0.3 mm 0.00 in0.0 mm 0.58 in14.7 mm
04:11 PM 49.5°F9.7°C 48.7°F9.3°C 97% 5.8 mph ESE9.3 kmh ESE 10.4 mph16.7 kmh 29.83 in1010.2 mb 0.01 in0.3 mm 0.00 in0.0 mm 0.58 in14.7 mm
04:10 PM 49.5°F9.7°C 48.7°F9.3°C 97% 3.7 mph ENE6.0 kmh ENE 10.4 mph16.7 kmh 29.83 in1010.2 mb 0.01 in0.3 mm 0.00 in0.0 mm 0.58 in14.7 mm
04:09 PM 49.5°F9.7°C 48.7°F9.3°C 97% 5.8 mph E9.3 kmh E 10.4 mph16.7 kmh 29.83 in1010.2 mb 0.01 in0.3 mm 0.00 in0.0 mm 0.58 in14.7 mm
04:08 PM 49.5°F9.7°C 48.7°F9.3°C 97% 5.3 mph E8.5 kmh E 10.4 mph16.7 kmh 29.83 in1010.2 mb 0.01 in0.3 mm 0.00 in0.0 mm 0.58 in14.7 mm
04:07 PM 49.6°F9.8°C 48.8°F9.3°C 97% 10.4 mph ESE16.7 kmh ESE 10.4 mph16.7 kmh 29.83 in1010.2 mb 0.01 in0.3 mm 0.00 in0.0 mm 0.58 in14.7 mm
04:06 PM 49.6°F9.8°C 48.8°F9.3°C 97% 5.3 mph NNE8.5 kmh NNE 6.8 mph10.9 kmh 29.83 in1010.2 mb 0.01 in0.3 mm 0.00 in0.0 mm 0.58 in14.7 mm
04:05 PM 49.6°F9.8°C 48.8°F9.3°C 97% 6.8 mph NW10.9 kmh NW 6.8 mph10.9 kmh 29.83 in1010.2 mb 0.01 in0.3 mm 0.00 in0.0 mm 0.58 in14.7 mm
04:04 PM 49.6°F9.8°C 48.8°F9.3°C 97% 4.2 mph E6.8 kmh E 6.8 mph10.9 kmh 29.83 in1010.2 mb 0.01 in0.3 mm 0.00 in0.0 mm 0.58 in14.7 mm
04:03 PM 49.6°F9.8°C 48.8°F9.3°C 97% 5.8 mph ENE9.3 kmh ENE 7.3 mph11.7 kmh 29.83 in1010.2 mb 0.01 in0.3 mm 0.00 in0.0 mm 0.58 in14.7 mm
04:02 PM 49.6°F9.8°C 48.8°F9.3°C 97% 6.3 mph SE10.1 kmh SE 8.9 mph14.3 kmh 29.82 in1009.8 mb 0.01 in0.3 mm 0.00 in0.0 mm 0.58 in14.7 mm
04:01 PM 49.6°F9.8°C 48.8°F9.3°C 97% Calm Calm 8.9 mph14.3 kmh 29.82 in1009.8 mb 0.01 in0.3 mm 0.00 in0.0 mm 0.58 in14.7 mm
04:00 PM 49.5°F9.7°C 48.7°F9.3°C 97% 3.2 mph NE5.1 kmh NE 8.9 mph14.3 kmh 29.82 in1009.8 mb 0.01 in0.3 mm 0.00 in0.0 mm 0.58 in14.7 mm
03:59 PM 49.5°F9.7°C 48.7°F9.3°C 97% 2.7 mph NE4.3 kmh NE 8.9 mph14.3 kmh 29.82 in1009.8 mb 0.01 in0.3 mm 0.00 in0.0 mm 0.58 in14.7 mm
03:58 PM 49.5°F9.7°C 48.7°F9.3°C 97% 4.2 mph E6.8 kmh E 8.9 mph14.3 kmh 29.82 in1009.8 mb 0.01 in0.3 mm 0.00 in0.0 mm 0.58 in14.7 mm
03:57 PM 49.5°F9.7°C 48.7°F9.3°C 97% 4.7 mph ENE7.6 kmh ENE 8.9 mph14.3 kmh 29.82 in1009.8 mb 0.01 in0.3 mm 0.00 in0.0 mm 0.58 in14.7 mm
03:56 PM 49.5°F9.7°C 48.7°F9.3°C 97% 5.8 mph NE9.3 kmh NE 8.9 mph14.3 kmh 29.82 in1009.8 mb 0.01 in0.3 mm 0.00 in0.0 mm 0.58 in14.7 mm
03:55 PM 49.5°F9.7°C 48.7°F9.3°C 97% 6.8 mph ESE10.9 kmh ESE 8.9 mph14.3 kmh 29.82 in1009.8 mb 0.01 in0.3 mm 0.00 in0.0 mm 0.58 in14.7 mm
03:54 PM 49.5°F9.7°C 48.7°F9.3°C 97% 4.2 mph ESE6.8 kmh ESE 8.9 mph14.3 kmh 29.82 in1009.8 mb 0.01 in0.3 mm 0.00 in0.0 mm 0.58 in14.7 mm
03:53 PM 49.5°F9.7°C 48.7°F9.3°C 97% 8.9 mph ENE14.3 kmh ENE 8.9 mph14.3 kmh 29.82 in1009.8 mb 0.01 in0.3 mm 0.00 in0.0 mm 0.58 in14.7 mm
03:52 PM 49.5°F9.7°C 48.7°F9.3°C 97% 4.7 mph ESE7.6 kmh ESE 8.9 mph14.3 kmh 29.82 in1009.8 mb 0.01 in0.3 mm 0.00 in0.0 mm 0.58 in14.7 mm
03:51 PM 49.5°F9.7°C 48.7°F9.3°C 97% 8.3 mph NNE13.4 kmh NNE 8.9 mph14.3 kmh 29.82 in1009.8 mb 0.01 in0.3 mm 0.60 in15.2 mm 0.58 in14.7 mm
03:50 PM 49.5°F9.7°C 48.7°F9.3°C 97% 7.8 mph ENE12.6 kmh ENE 8.9 mph14.3 kmh 29.82 in1009.8 mb 0.00 in0.0 mm 0.00 in0.0 mm 0.57 in14.5 mm
03:49 PM 49.5°F9.7°C 48.7°F9.3°C 97% 5.8 mph ENE9.3 kmh ENE 8.9 mph14.3 kmh 29.82 in1009.8 mb 0.00 in0.0 mm 0.00 in0.0 mm 0.57 in14.5 mm
03:48 PM 49.5°F9.7°C 48.4°F9.1°C 96% 4.2 mph NNE6.8 kmh NNE 8.9 mph14.3 kmh 29.82 in1009.8 mb 0.00 in0.0 mm 0.00 in0.0 mm 0.57 in14.5 mm
03:47 PM 49.5°F9.7°C 48.4°F9.1°C 96% 3.2 mph NE5.1 kmh NE 8.9 mph14.3 kmh 29.82 in1009.8 mb 0.00 in0.0 mm 0.00 in0.0 mm 0.57 in14.5 mm
03:46 PM 49.5°F9.7°C 48.4°F9.1°C 96% 8.3 mph NE13.4 kmh NE 8.9 mph14.3 kmh 29.82 in1009.8 mb 0.00 in0.0 mm 0.00 in0.0 mm 0.57 in14.5 mm
03:45 PM 49.6°F9.8°C 48.5°F9.2°C 96% 8.9 mph ENE14.3 kmh ENE 8.9 mph14.3 kmh 29.82 in1009.8 mb 0.00 in0.0 mm 0.00 in0.0 mm 0.57 in14.5 mm
03:44 PM 49.6°F9.8°C 48.5°F9.2°C 96% 5.3 mph E8.5 kmh E 8.9 mph14.3 kmh 29.82 in1009.8 mb 0.00 in0.0 mm 0.00 in0.0 mm 0.57 in14.5 mm
03:43 PM 49.6°F9.8°C 48.5°F9.2°C 96% 6.8 mph NE10.9 kmh NE 8.9 mph14.3 kmh 29.82 in1009.8 mb 0.00 in0.0 mm 0.00 in0.0 mm 0.57 in14.5 mm
03:42 PM 49.8°F9.9°C 48.7°F9.3°C 96% 6.8 mph ENE10.9 kmh ENE 8.3 mph13.4 kmh 29.82 in1009.8 mb 0.00 in0.0 mm 0.00 in0.0 mm 0.57 in14.5 mm
03:41 PM 49.8°F9.9°C 48.7°F9.3°C 96% 4.2 mph NNE6.8 kmh NNE 8.3 mph13.4 kmh 29.82 in1009.8 mb 0.00 in0.0 mm 0.00 in0.0 mm 0.57 in14.5 mm
03:40 PM 49.8°F9.9°C 48.7°F9.3°C 96% 2.7 mph ESE4.3 kmh ESE 8.3 mph13.4 kmh 29.82 in1009.8 mb 0.00 in0.0 mm 0.00 in0.0 mm 0.57 in14.5 mm
03:39 PM 49.8°F9.9°C 48.7°F9.3°C 96% 4.2 mph E6.8 kmh E 8.3 mph13.4 kmh 29.82 in1009.8 mb 0.00 in0.0 mm 0.00 in0.0 mm 0.57 in14.5 mm
03:38 PM 49.8°F9.9°C 48.7°F9.3°C 96% 4.7 mph NE7.6 kmh NE 8.3 mph13.4 kmh 29.82 in1009.8 mb 0.00 in0.0 mm 0.00 in0.0 mm 0.57 in14.5 mm
03:37 PM 49.8°F9.9°C 48.7°F9.3°C 96% 4.7 mph ENE7.6 kmh ENE 8.3 mph13.4 kmh 29.82 in1009.8 mb 0.00 in0.0 mm 0.00 in0.0 mm 0.57 in14.5 mm
03:36 PM 49.8°F9.9°C 48.7°F9.3°C 96% 4.7 mph ESE7.6 kmh ESE 8.3 mph13.4 kmh 29.82 in1009.8 mb 0.00 in0.0 mm 0.00 in0.0 mm 0.57 in14.5 mm
03:35 PM 49.8°F9.9°C 48.7°F9.3°C 96% 5.3 mph NE8.5 kmh NE 8.3 mph13.4 kmh 29.82 in1009.8 mb 0.00 in0.0 mm 0.00 in0.0 mm 0.57 in14.5 mm
03:34 PM 49.8°F9.9°C 48.7°F9.3°C 96% 4.2 mph NNE6.8 kmh NNE 8.3 mph13.4 kmh 29.82 in1009.8 mb 0.00 in0.0 mm 0.00 in0.0 mm 0.57 in14.5 mm
03:33 PM 49.8°F9.9°C 48.7°F9.3°C 96% 3.7 mph ENE6.0 kmh ENE 8.9 mph14.3 kmh 29.82 in1009.8 mb 0.00 in0.0 mm 0.00 in0.0 mm 0.57 in14.5 mm
03:32 PM 49.8°F9.9°C 48.7°F9.3°C 96% 4.7 mph NE7.6 kmh NE 10.4 mph16.7 kmh 29.82 in1009.8 mb 0.00 in0.0 mm 0.00 in0.0 mm 0.57 in14.5 mm
03:31 PM 49.8°F9.9°C 48.7°F9.3°C 96% 3.7 mph NNE6.0 kmh NNE 10.4 mph16.7 kmh 29.82 in1009.8 mb 0.00 in0.0 mm 0.00 in0.0 mm 0.57 in14.5 mm
03:30 PM 49.8°F9.9°C 48.7°F9.3°C 96% 4.2 mph E6.8 kmh E 10.4 mph16.7 kmh 29.82 in1009.8 mb 0.00 in0.0 mm 0.00 in0.0 mm 0.57 in14.5 mm
03:29 PM 49.8°F9.9°C 48.7°F9.3°C 96% 6.3 mph NE10.1 kmh NE 10.4 mph16.7 kmh 29.82 in1009.8 mb 0.00 in0.0 mm 0.00 in0.0 mm 0.57 in14.5 mm
03:28 PM 49.8°F9.9°C 48.7°F9.3°C 96% 4.2 mph S6.8 kmh S 10.4 mph16.7 kmh 29.82 in1009.8 mb 0.00 in0.0 mm 0.00 in0.0 mm 0.57 in14.5 mm
03:27 PM 49.8°F9.9°C 48.7°F9.3°C 96% 4.2 mph S6.8 kmh S 10.4 mph16.7 kmh 29.82 in1009.8 mb 0.00 in0.0 mm 0.00 in0.0 mm 0.57 in14.5 mm
03:26 PM 49.8°F9.9°C 48.7°F9.3°C 96% 4.7 mph ESE7.6 kmh ESE 11.4 mph18.3 kmh 29.82 in1009.8 mb 0.00 in0.0 mm 0.00 in0.0 mm 0.57 in14.5 mm
03:25 PM 49.8°F9.9°C 48.7°F9.3°C 96% 3.7 mph E6.0 kmh E 11.4 mph18.3 kmh 29.82 in1009.8 mb 0.00 in0.0 mm 0.00 in0.0 mm 0.57 in14.5 mm
03:24 PM 49.8°F9.9°C 48.7°F9.3°C 96% 6.3 mph E10.1 kmh E 11.4 mph18.3 kmh 29.82 in1009.8 mb 0.00 in0.0 mm 0.00 in0.0 mm 0.57 in14.5 mm
03:23 PM 49.8°F9.9°C 48.7°F9.3°C 96% 10.4 mph NE16.7 kmh NE 11.4 mph18.3 kmh 29.82 in1009.8 mb 0.01 in0.3 mm 0.00 in0.0 mm 0.57 in14.5 mm
03:22 PM 49.8°F9.9°C 48.7°F9.3°C 96% 8.9 mph ESE14.3 kmh ESE 11.4 mph18.3 kmh 29.82 in1009.8 mb 0.01 in0.3 mm 0.00 in0.0 mm 0.57 in14.5 mm
03:21 PM 49.8°F9.9°C 48.7°F9.3°C 96% 5.8 mph NNE9.3 kmh NNE 11.4 mph18.3 kmh 29.82 in1009.8 mb 0.01 in0.3 mm 0.00 in0.0 mm 0.57 in14.5 mm
03:20 PM 49.8°F9.9°C 48.7°F9.3°C 96% 5.3 mph NE8.5 kmh NE 11.4 mph18.3 kmh 29.82 in1009.8 mb 0.01 in0.3 mm 0.00 in0.0 mm 0.57 in14.5 mm
03:19 PM 49.8°F9.9°C 48.7°F9.3°C 96% 4.7 mph E7.6 kmh E 11.4 mph18.3 kmh 29.82 in1009.8 mb 0.01 in0.3 mm 0.00 in0.0 mm 0.57 in14.5 mm
03:18 PM 49.8°F9.9°C 48.7°F9.3°C 96% 2.7 mph ESE4.3 kmh ESE 11.4 mph18.3 kmh 29.82 in1009.8 mb 0.01 in0.3 mm 0.00 in0.0 mm 0.57 in14.5 mm
03:17 PM 49.8°F9.9°C 48.7°F9.3°C 96% 11.4 mph E18.3 kmh E 11.4 mph18.3 kmh 29.82 in1009.8 mb 0.01 in0.3 mm 0.00 in0.0 mm 0.57 in14.5 mm
03:16 PM 49.8°F9.9°C 48.7°F9.3°C 96% 7.8 mph ENE12.6 kmh ENE 10.4 mph16.7 kmh 29.82 in1009.8 mb 0.01 in0.3 mm 0.00 in0.0 mm 0.57 in14.5 mm
03:15 PM 49.8°F9.9°C 48.7°F9.3°C 96% 6.8 mph E10.9 kmh E 10.4 mph16.7 kmh 29.82 in1009.8 mb 0.01 in0.3 mm 0.00 in0.0 mm 0.57 in14.5 mm
03:14 PM 49.8°F9.9°C 48.7°F9.3°C 96% 5.3 mph ESE8.5 kmh ESE 10.4 mph16.7 kmh 29.82 in1009.8 mb 0.01 in0.3 mm 0.00 in0.0 mm 0.57 in14.5 mm
03:13 PM 50.0°F10.0°C 48.9°F9.4°C 96% 7.3 mph ESE11.7 kmh ESE 10.4 mph16.7 kmh 29.81 in1009.5 mb 0.01 in0.3 mm 0.00 in0.0 mm 0.57 in14.5 mm
03:12 PM 50.2°F10.1°C 49.1°F9.5°C 96% 5.3 mph E8.5 kmh E 8.9 mph14.3 kmh 29.81 in1009.5 mb 0.01 in0.3 mm 0.00 in0.0 mm 0.57 in14.5 mm
03:11 PM 50.4°F10.2°C 49.3°F9.6°C 96% 8.9 mph E14.3 kmh E 8.9 mph14.3 kmh 29.81 in1009.5 mb 0.01 in0.3 mm 0.00 in0.0 mm 0.57 in14.5 mm
03:10 PM 50.5°F10.3°C 49.4°F9.7°C 96% 7.8 mph ESE12.6 kmh ESE 8.3 mph13.4 kmh 29.81 in1009.5 mb 0.01 in0.3 mm 0.00 in0.0 mm 0.57 in14.5 mm
03:09 PM 50.5°F10.3°C 49.4°F9.7°C 96% 4.2 mph NE6.8 kmh NE 10.4 mph16.7 kmh 29.81 in1009.5 mb 0.01 in0.3 mm 0.00 in0.0 mm 0.57 in14.5 mm
03:08 PM 50.5°F10.3°C 49.4°F9.7°C 96% 5.3 mph NE8.5 kmh NE 10.4 mph16.7 kmh 29.81 in1009.5 mb 0.01 in0.3 mm 0.00 in0.0 mm 0.57 in14.5 mm
03:07 PM 50.5°F10.3°C 49.4°F9.7°C 96% 2.7 mph ESE4.3 kmh ESE 10.4 mph16.7 kmh 29.81 in1009.5 mb 0.01 in0.3 mm 0.00 in0.0 mm 0.57 in14.5 mm
03:06 PM 50.5°F10.3°C 49.4°F9.7°C 96% 5.8 mph NE9.3 kmh NE 13.0 mph20.9 kmh 29.81 in1009.5 mb 0.01 in0.3 mm 0.00 in0.0 mm 0.57 in14.5 mm
03:05 PM 50.5°F10.3°C 49.4°F9.7°C 96% 2.7 mph ENE4.3 kmh ENE 13.0 mph20.9 kmh 29.81 in1009.5 mb 0.01 in0.3 mm 0.00 in0.0 mm 0.57 in14.5 mm
03:04 PM 50.5°F10.3°C 49.4°F9.7°C 96% 3.7 mph ESE6.0 kmh ESE 13.0 mph20.9 kmh 29.81 in1009.5 mb 0.01 in0.3 mm 0.00 in0.0 mm 0.57 in14.5 mm
03:03 PM 50.4°F10.2°C 49.3°F9.6°C 96% 7.8 mph NE12.6 kmh NE 13.0 mph20.9 kmh 29.81 in1009.5 mb 0.01 in0.3 mm 0.00 in0.0 mm 0.57 in14.5 mm
03:02 PM 50.4°F10.2°C 49.3°F9.6°C 96% 3.2 mph ENE5.1 kmh ENE 13.0 mph20.9 kmh 29.81 in1009.5 mb 0.01 in0.3 mm 0.00 in0.0 mm 0.57 in14.5 mm
03:01 PM 50.4°F10.2°C 49.3°F9.6°C 96% 4.2 mph ENE6.8 kmh ENE 13.0 mph20.9 kmh 29.81 in1009.5 mb 0.01 in0.3 mm 0.00 in0.0 mm 0.57 in14.5 mm
03:00 PM 50.4°F10.2°C 49.3°F9.6°C 96% 8.3 mph ENE13.4 kmh ENE 13.0 mph20.9 kmh 29.81 in1009.5 mb 0.01 in0.3 mm 0.00 in0.0 mm 0.57 in14.5 mm
02:59 PM 50.4°F10.2°C 49.3°F9.6°C 96% 10.4 mph ESE16.7 kmh ESE 13.0 mph20.9 kmh 29.81 in1009.5 mb 0.01 in0.3 mm 0.00 in0.0 mm 0.57 in14.5 mm
02:58 PM 50.4°F10.2°C 49.3°F9.6°C 96% 8.3 mph NE13.4 kmh NE 13.0 mph20.9 kmh 29.81 in1009.5 mb 0.01 in0.3 mm 0.00 in0.0 mm 0.57 in14.5 mm
02:57 PM 50.4°F10.2°C 49.3°F9.6°C 96% 3.7 mph NE6.0 kmh NE 13.0 mph20.9 kmh 29.81 in1009.5 mb 0.01 in0.3 mm 0.00 in0.0 mm 0.57 in14.5 mm
02:56 PM 50.4°F10.2°C 49.3°F9.6°C 96% 10.4 mph NNE16.7 kmh NNE 10.4 mph16.7 kmh 29.81 in1009.5 mb 0.01 in0.3 mm 0.00 in0.0 mm 0.57 in14.5 mm
02:55 PM 50.4°F10.2°C 49.3°F9.6°C 96% 4.7 mph NNE7.6 kmh NNE 10.4 mph16.7 kmh 29.81 in1009.5 mb 0.01 in0.3 mm 0.00 in0.0 mm 0.57 in14.5 mm
02:54 PM 50.4°F10.2°C 49.3°F9.6°C 96% 4.7 mph NE7.6 kmh NE 10.4 mph16.7 kmh 29.81 in1009.5 mb 0.01 in0.3 mm 0.00 in0.0 mm 0.57 in14.5 mm
02:53 PM 50.4°F10.2°C 49.3°F9.6°C 96% 7.8 mph NE12.6 kmh NE 10.4 mph16.7 kmh 29.81 in1009.5 mb 0.01 in0.3 mm 0.00 in0.0 mm 0.57 in14.5 mm
02:52 PM 50.4°F10.2°C 49.3°F9.6°C 96% 4.7 mph NE7.6 kmh NE 10.4 mph16.7 kmh 29.81 in1009.5 mb 0.01 in0.3 mm 0.00 in0.0 mm 0.57 in14.5 mm
02:51 PM 50.5°F10.3°C 49.4°F9.7°C 96% 5.3 mph NE8.5 kmh NE 10.4 mph16.7 kmh 29.81 in1009.5 mb 0.01 in0.3 mm 0.00 in0.0 mm 0.57 in14.5 mm
02:50 PM 50.5°F10.3°C 49.4°F9.7°C 96% 8.3 mph E13.4 kmh E 10.4 mph16.7 kmh 29.82 in1009.8 mb 0.01 in0.3 mm 0.00 in0.0 mm 0.57 in14.5 mm
02:49 PM 50.5°F10.3°C 49.4°F9.7°C 96% 4.7 mph NE7.6 kmh NE 10.4 mph16.7 kmh 29.82 in1009.8 mb 0.01 in0.3 mm 0.00 in0.0 mm 0.57 in14.5 mm
02:48 PM 50.5°F10.3°C 49.4°F9.7°C 96% 10.4 mph ESE16.7 kmh ESE 10.4 mph16.7 kmh 29.82 in1009.8 mb 0.01 in0.3 mm 0.00 in0.0 mm 0.57 in14.5 mm
02:47 PM 50.5°F10.3°C 49.4°F9.7°C 96% 6.3 mph ESE10.1 kmh ESE 10.4 mph16.7 kmh 29.82 in1009.8 mb 0.01 in0.3 mm 0.00 in0.0 mm 0.57 in14.5 mm
02:46 PM 50.9°F10.5°C 49.8°F9.9°C 96% 8.9 mph NNE14.3 kmh NNE 10.4 mph16.7 kmh 29.82 in1009.8 mb 0.01 in0.3 mm 0.00 in0.0 mm 0.57 in14.5 mm
02:45 PM 50.9°F10.5°C 49.8°F9.9°C 96% 10.4 mph E16.7 kmh E 10.4 mph16.7 kmh 29.82 in1009.8 mb 0.01 in0.3 mm 0.00 in0.0 mm 0.57 in14.5 mm
02:44 PM 50.9°F10.5°C 49.8°F9.9°C 96% 4.2 mph ENE6.8 kmh ENE 8.3 mph13.4 kmh 29.82 in1009.8 mb 0.01 in0.3 mm 0.00 in0.0 mm 0.57 in14.5 mm
02:43 PM 50.9°F10.5°C 49.8°F9.9°C 96% 6.3 mph E10.1 kmh E 8.3 mph13.4 kmh 29.82 in1009.8 mb 0.01 in0.3 mm 0.00 in0.0 mm 0.57 in14.5 mm
02:42 PM 50.9°F10.5°C 49.8°F9.9°C 96% 2.7 mph NNE4.3 kmh NNE 9.4 mph15.1 kmh 29.82 in1009.8 mb 0.01 in0.3 mm 0.00 in0.0 mm 0.57 in14.5 mm
02:41 PM 50.9°F10.5°C 49.8°F9.9°C 96% 5.8 mph E9.3 kmh E 9.4 mph15.1 kmh 29.82 in1009.8 mb 0.01 in0.3 mm 0.00 in0.0 mm 0.57 in14.5 mm
02:40 PM 50.9°F10.5°C 49.8°F9.9°C 96% 4.2 mph ENE6.8 kmh ENE 9.4 mph15.1 kmh 29.82 in1009.8 mb 0.01 in0.3 mm 0.00 in0.0 mm 0.57 in14.5 mm
02:39 PM 50.9°F10.5°C 49.8°F9.9°C 96% 6.3 mph NE10.1 kmh NE 9.9 mph15.9 kmh 29.82 in1009.8 mb 0.01 in0.3 mm 0.00 in0.0 mm 0.57 in14.5 mm
02:38 PM 50.9°F10.5°C 49.8°F9.9°C 96% 4.7 mph NNE7.6 kmh NNE 9.9 mph15.9 kmh 29.81 in1009.5 mb 0.01 in0.3 mm 0.00 in0.0 mm 0.57 in14.5 mm
02:37 PM 50.9°F10.5°C 49.8°F9.9°C 96% 5.3 mph NNE8.5 kmh NNE 9.9 mph15.9 kmh 29.81 in1009.5 mb 0.01 in0.3 mm 0.00 in0.0 mm 0.57 in14.5 mm
02:36 PM 50.7°F10.4°C 49.6°F9.8°C 96% 3.2 mph ESE5.1 kmh ESE 9.9 mph15.9 kmh 29.81 in1009.5 mb 0.01 in0.3 mm 0.00 in0.0 mm 0.57 in14.5 mm
02:35 PM 50.7°F10.4°C 49.6°F9.8°C 96% 3.7 mph ESE6.0 kmh ESE 9.9 mph15.9 kmh 29.81 in1009.5 mb 0.01 in0.3 mm 0.00 in0.0 mm 0.57 in14.5 mm
02:34 PM 50.7°F10.4°C 49.6°F9.8°C 96% 6.8 mph E10.9 kmh E 9.9 mph15.9 kmh 29.81 in1009.5 mb 0.01 in0.3 mm 0.00 in0.0 mm 0.57 in14.5 mm
02:33 PM 50.7°F10.4°C 49.6°F9.8°C 96% 5.8 mph E9.3 kmh E 9.9 mph15.9 kmh 29.81 in1009.5 mb 0.01 in0.3 mm 0.00 in0.0 mm 0.57 in14.5 mm
02:32 PM 50.7°F10.4°C 49.6°F9.8°C 96% 9.4 mph NE15.1 kmh NE 9.9 mph15.9 kmh 29.81 in1009.5 mb 0.01 in0.3 mm 0.00 in0.0 mm 0.57 in14.5 mm
02:31 PM 50.7°F10.4°C 49.6°F9.8°C 96% 7.8 mph NE12.6 kmh NE 9.9 mph15.9 kmh 29.81 in1009.5 mb 0.01 in0.3 mm 0.00 in0.0 mm 0.57 in14.5 mm
02:30 PM 50.7°F10.4°C 49.6°F9.8°C 96% 3.7 mph ENE6.0 kmh ENE 9.9 mph15.9 kmh 29.81 in1009.5 mb 0.01 in0.3 mm 0.00 in0.0 mm 0.57 in14.5 mm
02:29 PM 50.9°F10.5°C 49.8°F9.9°C 96% 8.9 mph NE14.3 kmh NE 9.4 mph15.1 kmh 29.81 in1009.5 mb 0.01 in0.3 mm 0.00 in0.0 mm 0.57 in14.5 mm
02:28 PM 50.7°F10.4°C 49.6°F9.8°C 96% 3.2 mph ENE5.1 kmh ENE 9.4 mph15.1 kmh 29.81 in1009.5 mb 0.01 in0.3 mm 0.00 in0.0 mm 0.57 in14.5 mm
02:27 PM 50.7°F10.4°C 49.6°F9.8°C 96% 5.3 mph NE8.5 kmh NE 9.4 mph15.1 kmh 29.81 in1009.5 mb 0.01 in0.3 mm 0.00 in0.0 mm 0.57 in14.5 mm
02:26 PM 50.7°F10.4°C 49.6°F9.8°C 96% 8.3 mph NE13.4 kmh NE 9.4 mph15.1 kmh 29.83 in1010.2 mb 0.01 in0.3 mm 0.00 in0.0 mm 0.57 in14.5 mm
02:25 PM 50.7°F10.4°C 49.6°F9.8°C 96% 7.8 mph ENE12.6 kmh ENE 9.4 mph15.1 kmh 29.83 in1010.2 mb 0.01 in0.3 mm 0.00 in0.0 mm 0.57 in14.5 mm
02:24 PM 50.7°F10.4°C 49.6°F9.8°C 96% 6.3 mph ESE10.1 kmh ESE 10.9 mph17.5 kmh 29.83 in1010.2 mb 0.01 in0.3 mm 0.00 in0.0 mm 0.57 in14.5 mm
02:23 PM 50.7°F10.4°C 49.6°F9.8°C 96% 4.7 mph ESE7.6 kmh ESE 10.9 mph17.5 kmh 29.83 in1010.2 mb 0.01 in0.3 mm 0.60 in15.2 mm 0.57 in14.5 mm
02:22 PM 50.5°F10.3°C 49.4°F9.7°C 96% 5.3 mph ESE8.5 kmh ESE 10.9 mph17.5 kmh 29.83 in1010.2 mb 0.00 in0.0 mm 0.00 in0.0 mm 0.56 in14.2 mm
02:21 PM 50.5°F10.3°C 49.4°F9.7°C 96% 5.3 mph ESE8.5 kmh ESE 10.9 mph17.5 kmh 29.83 in1010.2 mb 0.00 in0.0 mm 0.00 in0.0 mm 0.56 in14.2 mm
02:20 PM 50.5°F10.3°C 49.4°F9.7°C 96% 5.8 mph ESE9.3 kmh ESE 10.9 mph17.5 kmh 29.83 in1010.2 mb 0.00 in0.0 mm 0.00 in0.0 mm 0.56 in14.2 mm
02:19 PM 50.5°F10.3°C 49.4°F9.7°C 96% 7.8 mph NE12.6 kmh NE 10.9 mph17.5 kmh 29.83 in1010.2 mb 0.00 in0.0 mm 0.00 in0.0 mm 0.56 in14.2 mm
02:18 PM 50.9°F10.5°C 49.8°F9.9°C 96% 9.4 mph NE15.1 kmh NE 10.9 mph17.5 kmh 29.83 in1010.2 mb 0.00 in0.0 mm 0.00 in0.0 mm 0.56 in14.2 mm
02:17 PM 50.9°F10.5°C 49.8°F9.9°C 96% 4.7 mph E7.6 kmh E 10.9 mph17.5 kmh 29.83 in1010.2 mb 0.00 in0.0 mm 0.00 in0.0 mm 0.56 in14.2 mm
02:16 PM 50.9°F10.5°C 49.8°F9.9°C 96% 5.8 mph NE9.3 kmh NE 10.9 mph17.5 kmh 29.83 in1010.2 mb 0.00 in0.0 mm 0.00 in0.0 mm 0.56 in14.2 mm
02:15 PM 50.9°F10.5°C 49.8°F9.9°C 96% 5.8 mph ESE9.3 kmh ESE 10.9 mph17.5 kmh 29.83 in1010.2 mb 0.00 in0.0 mm 0.00 in0.0 mm 0.56 in14.2 mm
02:14 PM 50.9°F10.5°C 49.8°F9.9°C 96% 4.7 mph ENE7.6 kmh ENE 8.9 mph14.3 kmh 29.83 in1010.2 mb 0.00 in0.0 mm 0.00 in0.0 mm 0.56 in14.2 mm
02:13 PM 50.9°F10.5°C 49.8°F9.9°C 96% 3.2 mph E5.1 kmh E 9.9 mph15.9 kmh 29.83 in1010.2 mb 0.00 in0.0 mm 0.00 in0.0 mm 0.56 in14.2 mm
02:12 PM 50.7°F10.4°C 49.6°F9.8°C 96% 4.7 mph ENE7.6 kmh ENE 9.9 mph15.9 kmh 29.83 in1010.2 mb 0.00 in0.0 mm 0.00 in0.0 mm 0.56 in14.2 mm
02:11 PM 50.7°F10.4°C 49.6°F9.8°C 96% 5.3 mph NE8.5 kmh NE 9.9 mph15.9 kmh 29.83 in1010.2 mb 0.00 in0.0 mm 0.00 in0.0 mm 0.56 in14.2 mm
02:10 PM 50.7°F10.4°C 49.6°F9.8°C 96% 3.7 mph ESE6.0 kmh ESE 9.9 mph15.9 kmh 29.83 in1010.2 mb 0.00 in0.0 mm 0.00 in0.0 mm 0.56 in14.2 mm
02:09 PM 50.7°F10.4°C 49.6°F9.8°C 96% 5.8 mph ESE9.3 kmh ESE 9.9 mph15.9 kmh 29.83 in1010.2 mb 0.00 in0.0 mm 0.00 in0.0 mm 0.56 in14.2 mm
02:08 PM 50.7°F10.4°C 49.6°F9.8°C 96% 4.7 mph E7.6 kmh E 9.9 mph15.9 kmh 29.83 in1010.2 mb 0.00 in0.0 mm 0.00 in0.0 mm 0.56 in14.2 mm
02:07 PM 50.7°F10.4°C 49.6°F9.8°C 96% 4.7 mph E7.6 kmh E 9.9 mph15.9 kmh 29.83 in1010.2 mb 0.00 in0.0 mm 0.00 in0.0 mm 0.56 in14.2 mm
02:06 PM 50.5°F10.3°C 49.4°F9.7°C 96% 3.7 mph NE6.0 kmh NE 9.9 mph15.9 kmh 29.83 in1010.2 mb 0.00 in0.0 mm 0.00 in0.0 mm 0.56 in14.2 mm
02:05 PM 50.7°F10.4°C 49.6°F9.8°C 96% 8.9 mph ENE14.3 kmh ENE 9.9 mph15.9 kmh 29.83 in1010.2 mb 0.00 in0.0 mm 0.00 in0.0 mm 0.56 in14.2 mm
02:04 PM 50.7°F10.4°C 49.6°F9.8°C 96% 6.8 mph ENE10.9 kmh ENE 9.9 mph15.9 kmh 29.83 in1010.2 mb 0.00 in0.0 mm 0.00 in0.0 mm 0.56 in14.2 mm
02:03 PM 50.7°F10.4°C 49.6°F9.8°C 96% 5.3 mph E8.5 kmh E 7.8 mph12.6 kmh 29.83 in1010.2 mb 0.00 in0.0 mm 0.00 in0.0 mm 0.56 in14.2 mm
02:02 PM 50.9°F10.5°C 49.8°F9.9°C 96% 6.8 mph ENE10.9 kmh ENE 7.8 mph12.6 kmh 29.83 in1010.2 mb 0.00 in0.0 mm 0.00 in0.0 mm 0.56 in14.2 mm
02:01 PM 50.9°F10.5°C 49.8°F9.9°C 96% 7.3 mph NNE11.7 kmh NNE 7.3 mph11.7 kmh 29.83 in1010.2 mb 0.00 in0.0 mm 0.00 in0.0 mm 0.56 in14.2 mm
02:00 PM 50.9°F10.5°C 49.8°F9.9°C 96% 6.3 mph NE10.1 kmh NE 7.3 mph11.7 kmh 29.83 in1010.2 mb 0.00 in0.0 mm 0.00 in0.0 mm 0.56 in14.2 mm
01:59 PM 50.9°F10.5°C 49.8°F9.9°C 96% 3.7 mph ENE6.0 kmh ENE 7.8 mph12.6 kmh 29.83 in1010.2 mb 0.00 in0.0 mm 0.00 in0.0 mm 0.56 in14.2 mm
01:58 PM 50.9°F10.5°C 49.8°F9.9°C 96% 4.2 mph ENE6.8 kmh ENE 7.8 mph12.6 kmh 29.83 in1010.2 mb 0.00 in0.0 mm 0.00 in0.0 mm 0.56 in14.2 mm
01:57 PM 50.9°F10.5°C 49.8°F9.9°C 96% 5.8 mph NE9.3 kmh NE 7.8 mph12.6 kmh 29.83 in1010.2 mb 0.00 in0.0 mm 0.00 in0.0 mm 0.56 in14.2 mm
01:56 PM 51.1°F10.6°C 50.0°F10.0°C 96% 6.3 mph NE10.1 kmh NE 8.9 mph14.3 kmh 29.83 in1010.2 mb 0.00 in0.0 mm 0.00 in0.0 mm 0.56 in14.2 mm
01:55 PM 51.1°F10.6°C 50.0°F10.0°C 96% 4.2 mph NNE6.8 kmh NNE 8.9 mph14.3 kmh 29.83 in1010.2 mb 0.00 in0.0 mm 0.00 in0.0 mm 0.56 in14.2 mm
01:54 PM 51.1°F10.6°C 50.0°F10.0°C 96% 4.7 mph ENE7.6 kmh ENE 8.9 mph14.3 kmh 29.83 in1010.2 mb 0.00 in0.0 mm 0.00 in0.0 mm 0.56 in14.2 mm
01:53 PM 51.1°F10.6°C 50.0°F10.0°C 96% 5.3 mph ENE8.5 kmh ENE 11.4 mph18.3 kmh 29.83 in1010.2 mb 0.00 in0.0 mm 0.00 in0.0 mm 0.56 in14.2 mm
01:52 PM 50.9°F10.5°C 49.8°F9.9°C 96% 3.7 mph E6.0 kmh E 11.4 mph18.3 kmh 29.83 in1010.2 mb 0.00 in0.0 mm 0.00 in0.0 mm 0.56 in14.2 mm
01:51 PM 50.9°F10.5°C 49.8°F9.9°C 96% 4.2 mph ESE6.8 kmh ESE 11.4 mph18.3 kmh 29.83 in1010.2 mb 0.00 in0.0 mm 0.00 in0.0 mm 0.56 in14.2 mm
01:50 PM 50.9°F10.5°C 49.8°F9.9°C 96% 3.7 mph E6.0 kmh E 11.4 mph18.3 kmh 29.82 in1009.8 mb 0.00 in0.0 mm 0.00 in0.0 mm 0.56 in14.2 mm
01:49 PM 50.9°F10.5°C 49.8°F9.9°C 96% 4.7 mph NNE7.6 kmh NNE 11.4 mph18.3 kmh 29.82 in1009.8 mb 0.00 in0.0 mm 0.00 in0.0 mm 0.56 in14.2 mm
01:48 PM 50.9°F10.5°C 49.8°F9.9°C 96% 4.2 mph N6.8 kmh N 11.4 mph18.3 kmh 29.82 in1009.8 mb 0.00 in0.0 mm 0.00 in0.0 mm 0.56 in14.2 mm
01:47 PM 50.9°F10.5°C 49.8°F9.9°C 96% 5.8 mph N9.3 kmh N 11.4 mph18.3 kmh 29.82 in1009.8 mb 0.00 in0.0 mm 0.00 in0.0 mm 0.56 in14.2 mm
01:46 PM 50.9°F10.5°C 49.8°F9.9°C 96% 8.9 mph NE14.3 kmh NE 11.4 mph18.3 kmh 29.82 in1009.8 mb 0.00 in0.0 mm 0.00 in0.0 mm 0.56 in14.2 mm
01:45 PM 50.9°F10.5°C 49.8°F9.9°C 96% 7.8 mph NNE12.6 kmh NNE 11.4 mph18.3 kmh 29.82 in1009.8 mb 0.00 in0.0 mm 0.00 in0.0 mm 0.56 in14.2 mm
01:44 PM 50.9°F10.5°C 49.8°F9.9°C 96% 4.7 mph NNE7.6 kmh NNE 11.4 mph18.3 kmh 29.82 in1009.8 mb 0.00 in0.0 mm 0.00 in0.0 mm 0.56 in14.2 mm
01:43 PM 51.1°F10.6°C 50.0°F10.0°C 96% 5.8 mph NNE9.3 kmh NNE 10.4 mph16.7 kmh 29.82 in1009.8 mb 0.00 in0.0 mm 0.00 in0.0 mm 0.56 in14.2 mm
01:42 PM 51.1°F10.6°C 50.0°F10.0°C 96% 8.9 mph S14.3 kmh S 10.4 mph16.7 kmh 29.82 in1009.8 mb 0.00 in0.0 mm 0.00 in0.0 mm 0.56 in14.2 mm
01:41 PM 51.3°F10.7°C 50.2°F10.1°C 96% 6.3 mph ESE10.1 kmh ESE 10.4 mph16.7 kmh 29.82 in1009.8 mb 0.00 in0.0 mm 0.00 in0.0 mm 0.56 in14.2 mm
01:40 PM 51.4°F10.8°C 50.3°F10.2°C 96% 6.3 mph NE10.1 kmh NE 8.3 mph13.4 kmh 29.82 in1009.8 mb 0.00 in0.0 mm 0.00 in0.0 mm 0.56 in14.2 mm
01:39 PM 51.6°F10.9°C 50.5°F10.3°C 96% 3.7 mph NE6.0 kmh NE 8.3 mph13.4 kmh 29.82 in1009.8 mb 0.00 in0.0 mm 0.00 in0.0 mm 0.56 in14.2 mm
01:38 PM 51.6°F10.9°C 50.5°F10.3°C 96% 3.2 mph N5.1 kmh N 8.3 mph13.4 kmh 29.82 in1009.8 mb 0.00 in0.0 mm 0.00 in0.0 mm 0.56 in14.2 mm
01:37 PM 51.6°F10.9°C 50.5°F10.3°C 96% 2.7 mph NE4.3 kmh NE 8.3 mph13.4 kmh 29.82 in1009.8 mb 0.00 in0.0 mm 0.00 in0.0 mm 0.56 in14.2 mm
01:36 PM 51.6°F10.9°C 50.5°F10.3°C 96% 2.2 mph NE3.5 kmh NE 9.4 mph15.1 kmh 29.82 in1009.8 mb 0.00 in0.0 mm 0.00 in0.0 mm 0.56 in14.2 mm
01:35 PM 51.6°F10.9°C 50.5°F10.3°C 96% 3.7 mph ENE6.0 kmh ENE 9.4 mph15.1 kmh 29.82 in1009.8 mb 0.00 in0.0 mm 0.00 in0.0 mm 0.56 in14.2 mm
01:34 PM 51.6°F10.9°C 50.5°F10.3°C 96% 8.3 mph NE13.4 kmh NE 9.4 mph15.1 kmh 29.82 in1009.8 mb 0.00 in0.0 mm 0.00 in0.0 mm 0.56 in14.2 mm
01:33 PM 51.4°F10.8°C 50.3°F10.2°C 96% 3.2 mph NE5.1 kmh NE 9.4 mph15.1 kmh 29.82 in1009.8 mb 0.00 in0.0 mm 0.00 in0.0 mm 0.56 in14.2 mm
01:32 PM 51.4°F10.8°C 50.3°F10.2°C 96% 4.7 mph NE7.6 kmh NE 9.4 mph15.1 kmh 29.82 in1009.8 mb 0.00 in0.0 mm 0.00 in0.0 mm 0.56 in14.2 mm
01:31 PM 51.4°F10.8°C 50.3°F10.2°C 96% 3.7 mph ESE6.0 kmh ESE 9.4 mph15.1 kmh 29.82 in1009.8 mb 0.00 in0.0 mm 0.00 in0.0 mm 0.56 in14.2 mm
01:30 PM 51.4°F10.8°C 50.0°F10.0°C 95% 5.3 mph E8.5 kmh E 9.4 mph15.1 kmh 29.82 in1009.8 mb 0.00 in0.0 mm 0.00 in0.0 mm 0.56 in14.2 mm
01:29 PM 51.4°F10.8°C 50.0°F10.0°C 95% 4.7 mph NE7.6 kmh NE 9.4 mph15.1 kmh 29.82 in1009.8 mb 0.00 in0.0 mm 0.00 in0.0 mm 0.56 in14.2 mm
01:28 PM 51.3°F10.7°C 49.9°F9.9°C 95% 3.2 mph ESE5.1 kmh ESE 9.9 mph15.9 kmh 29.82 in1009.8 mb 0.00 in0.0 mm 0.00 in0.0 mm 0.56 in14.2 mm
01:27 PM 51.4°F10.8°C 50.0°F10.0°C 95% 5.3 mph NE8.5 kmh NE 9.9 mph15.9 kmh 29.82 in1009.8 mb 0.00 in0.0 mm 0.00 in0.0 mm 0.56 in14.2 mm
01:26 PM 51.4°F10.8°C 50.0°F10.0°C 95% 6.3 mph E10.1 kmh E 9.9 mph15.9 kmh 29.82 in1009.8 mb 0.00 in0.0 mm 0.00 in0.0 mm 0.56 in14.2 mm
01:25 PM 51.4°F10.8°C 50.0°F10.0°C 95% 5.8 mph E9.3 kmh E 9.9 mph15.9 kmh 29.82 in1009.8 mb 0.00 in0.0 mm 0.00 in0.0 mm 0.56 in14.2 mm
01:24 PM 51.4°F10.8°C 50.0°F10.0°C 95% 8.9 mph ENE14.3 kmh ENE 9.9 mph15.9 kmh 29.82 in1009.8 mb 0.00 in0.0 mm 0.00 in0.0 mm 0.56 in14.2 mm
01:23 PM 51.6°F10.9°C 50.2°F10.1°C 95% 5.3 mph NE8.5 kmh NE 9.9 mph15.9 kmh 29.82 in1009.8 mb 0.00 in0.0 mm 0.00 in0.0 mm 0.56 in14.2 mm
01:22 PM 51.6°F10.9°C 50.2°F10.1°C 95% 2.2 mph NE3.5 kmh NE 9.9 mph15.9 kmh 29.82 in1009.8 mb 0.00 in0.0 mm 0.00 in0.0 mm 0.56 in14.2 mm
01:21 PM 51.6°F10.9°C 50.2°F10.1°C 95% 3.7 mph NE6.0 kmh NE 9.9 mph15.9 kmh 29.82 in1009.8 mb 0.00 in0.0 mm 0.00 in0.0 mm 0.56 in14.2 mm
01:20 PM 51.6°F10.9°C 50.2°F10.1°C 95% 4.2 mph E6.8 kmh E 9.9 mph15.9 kmh 29.82 in1009.8 mb 0.00 in0.0 mm 0.00 in0.0 mm 0.56 in14.2 mm
01:19 PM 51.6°F10.9°C 50.2°F10.1°C 95% 5.8 mph ESE9.3 kmh ESE 9.9 mph15.9 kmh 29.82 in1009.8 mb 0.00 in0.0 mm 0.00 in0.0 mm 0.56 in14.2 mm
01:18 PM 51.6°F10.9°C 50.2°F10.1°C 95% 8.3 mph ENE13.4 kmh ENE 8.3 mph13.4 kmh 29.82 in1009.8 mb 0.00 in0.0 mm 0.00 in0.0 mm 0.56 in14.2 mm
01:17 PM 51.6°F10.9°C 50.2°F10.1°C 95% 7.8 mph NNE12.6 kmh NNE 11.4 mph18.3 kmh 29.82 in1009.8 mb 0.00 in0.0 mm 0.00 in0.0 mm 0.56 in14.2 mm
01:16 PM 51.8°F11.0°C 50.4°F10.2°C 95% 6.3 mph E10.1 kmh E 11.4 mph18.3 kmh 29.82 in1009.8 mb 0.00 in0.0 mm 0.00 in0.0 mm 0.56 in14.2 mm
01:15 PM 51.8°F11.0°C 50.4°F10.2°C 95% 6.3 mph ESE10.1 kmh ESE 11.4 mph18.3 kmh 29.82 in1009.8 mb 0.00 in0.0 mm 0.00 in0.0 mm 0.56 in14.2 mm
01:14 PM 51.8°F11.0°C 50.4°F10.2°C 95% 4.7 mph E7.6 kmh E 11.4 mph18.3 kmh 29.83 in1010.2 mb 0.00 in0.0 mm 0.00 in0.0 mm 0.56 in14.2 mm
01:13 PM 51.8°F11.0°C 50.1°F10.1°C 94% 3.2 mph E5.1 kmh E 11.4 mph18.3 kmh 29.83 in1010.2 mb 0.00 in0.0 mm 0.00 in0.0 mm 0.56 in14.2 mm
01:12 PM 51.8°F11.0°C 50.1°F10.1°C 94% 4.2 mph E6.8 kmh E 11.4 mph18.3 kmh 29.83 in1010.2 mb 0.00 in0.0 mm 0.00 in0.0 mm 0.56 in14.2 mm
01:11 PM 51.8°F11.0°C 50.1°F10.1°C 94% 4.2 mph ESE6.8 kmh ESE 11.4 mph18.3 kmh 29.83 in1010.2 mb 0.00 in0.0 mm 0.00 in0.0 mm 0.56 in14.2 mm
01:10 PM 51.8°F11.0°C 50.1°F10.1°C 94% 3.2 mph ENE5.1 kmh ENE 11.4 mph18.3 kmh 29.83 in1010.2 mb 0.00 in0.0 mm 0.00 in0.0 mm 0.56 in14.2 mm
01:09 PM 51.8°F11.0°C 50.1°F10.1°C 94% 8.3 mph NE13.4 kmh NE 11.4 mph18.3 kmh 29.83 in1010.2 mb 0.00 in0.0 mm 0.00 in0.0 mm 0.56 in14.2 mm
01:08 PM 51.8°F11.0°C 50.1°F10.1°C 94% 5.3 mph NNE8.5 kmh NNE 11.4 mph18.3 kmh 29.83 in1010.2 mb 0.00 in0.0 mm 0.00 in0.0 mm 0.56 in14.2 mm
01:07 PM 51.8°F11.0°C 50.1°F10.1°C 94% 3.7 mph ESE6.0 kmh ESE 10.9 mph17.5 kmh 29.83 in1010.2 mb 0.00 in0.0 mm 0.00 in0.0 mm 0.56 in14.2 mm
01:06 PM 51.8°F11.0°C 50.1°F10.1°C 94% 3.7 mph NNE6.0 kmh NNE 13.5 mph21.7 kmh 29.83 in1010.2 mb 0.00 in0.0 mm 0.00 in0.0 mm 0.56 in14.2 mm
01:05 PM 51.8°F11.0°C 50.1°F10.1°C 94% 4.2 mph ESE6.8 kmh ESE 13.5 mph21.7 kmh 29.83 in1010.2 mb 0.00 in0.0 mm 0.00 in0.0 mm 0.56 in14.2 mm
01:04 PM 51.8°F11.0°C 50.1°F10.1°C 94% 3.7 mph NE6.0 kmh NE 13.5 mph21.7 kmh 29.83 in1010.2 mb 0.00 in0.0 mm 0.00 in0.0 mm 0.56 in14.2 mm
01:03 PM 52.0°F11.1°C 50.3°F10.2°C 94% 5.8 mph E9.3 kmh E 13.5 mph21.7 kmh 29.83 in1010.2 mb 0.00 in0.0 mm 0.00 in0.0 mm 0.56 in14.2 mm
01:02 PM 52.0°F11.1°C 50.3°F10.2°C 94% 4.7 mph NNE7.6 kmh NNE 13.5 mph21.7 kmh 29.82 in1009.8 mb 0.00 in0.0 mm 0.00 in0.0 mm 0.56 in14.2 mm
01:01 PM 52.0°F11.1°C 50.3°F10.2°C 94% 7.3 mph ESE11.7 kmh ESE 13.5 mph21.7 kmh 29.82 in1009.8 mb 0.00 in0.0 mm 0.00 in0.0 mm 0.56 in14.2 mm
01:00 PM 52.2°F11.2°C 50.5°F10.3°C 94% 7.3 mph NE11.7 kmh NE 13.5 mph21.7 kmh 29.82 in1009.8 mb 0.00 in0.0 mm 0.00 in0.0 mm 0.56 in14.2 mm
12:59 PM 52.2°F11.2°C 50.5°F10.3°C 94% 4.7 mph E7.6 kmh E 13.5 mph21.7 kmh 29.82 in1009.8 mb 0.00 in0.0 mm 0.00 in0.0 mm 0.56 in14.2 mm
12:58 PM 52.2°F11.2°C 50.2°F10.1°C 93% 3.2 mph NNE5.1 kmh NNE 13.5 mph21.7 kmh 29.82 in1009.8 mb 0.00 in0.0 mm 0.00 in0.0 mm 0.56 in14.2 mm
12:57 PM 52.2°F11.2°C 50.2°F10.1°C 93% 10.9 mph ENE17.5 kmh ENE 13.5 mph21.7 kmh 29.82 in1009.8 mb 0.00 in0.0 mm 0.00 in0.0 mm 0.56 in14.2 mm
12:56 PM 52.3°F11.3°C 50.3°F10.2°C 93% 4.2 mph ENE6.8 kmh ENE 8.9 mph14.3 kmh 29.82 in1009.8 mb 0.00 in0.0 mm 0.00 in0.0 mm 0.56 in14.2 mm
12:55 PM 52.3°F11.3°C 50.3°F10.2°C 93% 5.3 mph NNE8.5 kmh NNE 8.9 mph14.3 kmh 29.82 in1009.8 mb 0.00 in0.0 mm 0.00 in0.0 mm 0.56 in14.2 mm
12:54 PM 52.3°F11.3°C 50.3°F10.2°C 93% 6.8 mph NE10.9 kmh NE 8.9 mph14.3 kmh 29.82 in1009.8 mb 0.00 in0.0 mm 0.00 in0.0 mm 0.56 in14.2 mm
12:53 PM 52.3°F11.3°C 50.3°F10.2°C 93% 3.7 mph NE6.0 kmh NE 8.9 mph14.3 kmh 29.82 in1009.8 mb 0.00 in0.0 mm 0.00 in0.0 mm 0.56 in14.2 mm
12:52 PM 52.2°F11.2°C 50.2°F10.1°C 93% 3.7 mph E6.0 kmh E 8.9 mph14.3 kmh 29.82 in1009.8 mb 0.00 in0.0 mm 0.00 in0.0 mm 0.56 in14.2 mm
12:51 PM 52.2°F11.2°C 50.2°F10.1°C 93% 5.8 mph ESE9.3 kmh ESE 8.9 mph14.3 kmh 29.83 in1010.2 mb 0.00 in0.0 mm 0.00 in0.0 mm 0.56 in14.2 mm
12:50 PM 52.2°F11.2°C 50.2°F10.1°C 93% 3.2 mph NE5.1 kmh NE 8.9 mph14.3 kmh 29.83 in1010.2 mb 0.00 in0.0 mm 0.00 in0.0 mm 0.56 in14.2 mm
12:49 PM 52.2°F11.2°C 49.9°F9.9°C 92% 7.3 mph NE11.7 kmh NE 10.4 mph16.7 kmh 29.83 in1010.2 mb 0.00 in0.0 mm 0.00 in0.0 mm 0.56 in14.2 mm
12:48 PM 52.3°F11.3°C 50.0°F10.0°C 92% 6.8 mph NNE10.9 kmh NNE 10.4 mph16.7 kmh 29.83 in1010.2 mb 0.00 in0.0 mm 0.00 in0.0 mm 0.56 in14.2 mm
12:47 PM 52.5°F11.4°C 50.2°F10.1°C 92% 5.3 mph NE8.5 kmh NE 10.4 mph16.7 kmh 29.83 in1010.2 mb 0.00 in0.0 mm 0.00 in0.0 mm 0.56 in14.2 mm
12:46 PM 52.5°F11.4°C 50.2°F10.1°C 92% 7.3 mph E11.7 kmh E 11.9 mph19.2 kmh 29.83 in1010.2 mb 0.00 in0.0 mm 0.00 in0.0 mm 0.56 in14.2 mm
12:45 PM 52.5°F11.4°C 50.2°F10.1°C 92% 8.3 mph ENE13.4 kmh ENE 11.9 mph19.2 kmh 29.83 in1010.2 mb 0.00 in0.0 mm 0.00 in0.0 mm 0.56 in14.2 mm
12:44 PM 52.5°F11.4°C 50.2°F10.1°C 92% 4.7 mph ESE7.6 kmh ESE 11.9 mph19.2 kmh 29.83 in1010.2 mb 0.00 in0.0 mm 0.00 in0.0 mm 0.56 in14.2 mm
12:43 PM 52.5°F11.4°C 50.2°F10.1°C 92% 1.1 mph NE1.8 kmh NE 11.9 mph19.2 kmh 29.83 in1010.2 mb 0.00 in0.0 mm 0.00 in0.0 mm 0.56 in14.2 mm
12:42 PM 52.5°F11.4°C 50.2°F10.1°C 92% 5.3 mph NE8.5 kmh NE 11.9 mph19.2 kmh 29.83 in1010.2 mb 0.00 in0.0 mm 0.00 in0.0 mm 0.56 in14.2 mm
12:41 PM 52.5°F11.4°C 50.2°F10.1°C 92% 3.7 mph NNE6.0 kmh NNE 11.9 mph19.2 kmh 29.83 in1010.2 mb 0.00 in0.0 mm 0.00 in0.0 mm 0.56 in14.2 mm
12:40 PM 52.5°F11.4°C 50.2°F10.1°C 92% 4.2 mph E6.8 kmh E 11.9 mph19.2 kmh 29.83 in1010.2 mb 0.00 in0.0 mm 0.00 in0.0 mm 0.56 in14.2 mm
12:39 PM 52.5°F11.4°C 50.2°F10.1°C 92% 9.9 mph NNE15.9 kmh NNE 11.9 mph19.2 kmh 29.83 in1010.2 mb 0.00 in0.0 mm 0.00 in0.0 mm 0.56 in14.2 mm
12:38 PM 52.5°F11.4°C 50.2°F10.1°C 92% 4.7 mph ESE7.6 kmh ESE 11.9 mph19.2 kmh 29.83 in1010.2 mb 0.00 in0.0 mm 0.00 in0.0 mm 0.56 in14.2 mm
12:37 PM 52.5°F11.4°C 50.2°F10.1°C 92% 5.3 mph N8.5 kmh N 8.3 mph13.4 kmh 29.83 in1010.2 mb 0.00 in0.0 mm 0.00 in0.0 mm 0.56 in14.2 mm
12:36 PM 52.5°F11.4°C 50.2°F10.1°C 92% 3.7 mph ESE6.0 kmh ESE 8.3 mph13.4 kmh 29.83 in1010.2 mb 0.00 in0.0 mm 0.00 in0.0 mm 0.56 in14.2 mm
12:35 PM 52.5°F11.4°C 50.2°F10.1°C 92% 4.7 mph ENE7.6 kmh ENE 8.3 mph13.4 kmh 29.83 in1010.2 mb 0.00 in0.0 mm 0.00 in0.0 mm 0.56 in14.2 mm
12:34 PM 52.7°F11.5°C 50.4°F10.2°C 92% 6.3 mph ESE10.1 kmh ESE 7.8 mph12.6 kmh 29.83 in1010.2 mb 0.00 in0.0 mm 0.00 in0.0 mm 0.56 in14.2 mm
12:33 PM 52.7°F11.5°C 50.4°F10.2°C 92% 7.8 mph E12.6 kmh E 7.8 mph12.6 kmh 29.83 in1010.2 mb 0.00 in0.0 mm 0.00 in0.0 mm 0.56 in14.2 mm
12:32 PM 52.7°F11.5°C 50.4°F10.2°C 92% 5.3 mph ENE8.5 kmh ENE 7.8 mph12.6 kmh 29.83 in1010.2 mb 0.00 in0.0 mm 0.00 in0.0 mm 0.56 in14.2 mm
12:31 PM 52.7°F11.5°C 50.4°F10.2°C 92% 5.3 mph ESE8.5 kmh ESE 7.8 mph12.6 kmh 29.83 in1010.2 mb 0.00 in0.0 mm 0.00 in0.0 mm 0.56 in14.2 mm
12:30 PM 52.9°F11.6°C 50.6°F10.3°C 92% 7.3 mph E11.7 kmh E 7.8 mph12.6 kmh 29.83 in1010.2 mb 0.00 in0.0 mm 0.00 in0.0 mm 0.56 in14.2 mm
12:29 PM 53.1°F11.7°C 50.8°F10.4°C 92% 6.8 mph NE10.9 kmh NE 7.8 mph12.6 kmh 29.83 in1010.2 mb 0.00 in0.0 mm 0.00 in0.0 mm 0.56 in14.2 mm
12:28 PM 53.1°F11.7°C 50.8°F10.4°C 92% 7.3 mph ESE11.7 kmh ESE 7.8 mph12.6 kmh 29.83 in1010.2 mb 0.00 in0.0 mm 0.00 in0.0 mm 0.56 in14.2 mm
12:27 PM 53.1°F11.7°C 50.8°F10.4°C 92% 7.8 mph SE12.6 kmh SE 8.3 mph13.4 kmh 29.83 in1010.2 mb 0.00 in0.0 mm 0.00 in0.0 mm 0.56 in14.2 mm
12:26 PM 53.1°F11.7°C 50.8°F10.4°C 92% 4.2 mph NE6.8 kmh NE 8.3 mph13.4 kmh 29.83 in1010.2 mb 0.00 in0.0 mm 0.00 in0.0 mm 0.56 in14.2 mm
12:25 PM 53.1°F11.7°C 50.8°F10.4°C 92% 3.2 mph NE5.1 kmh NE 8.3 mph13.4 kmh 29.83 in1010.2 mb 0.00 in0.0 mm 0.00 in0.0 mm 0.56 in14.2 mm
12:24 PM 53.1°F11.7°C 50.8°F10.4°C 92% 3.7 mph S6.0 kmh S 8.3 mph13.4 kmh 29.83 in1010.2 mb 0.00 in0.0 mm 0.00 in0.0 mm 0.56 in14.2 mm
12:23 PM 52.9°F11.6°C 50.6°F10.3°C 92% 3.7 mph ESE6.0 kmh ESE 8.3 mph13.4 kmh 29.83 in1010.2 mb 0.00 in0.0 mm 0.00 in0.0 mm 0.56 in14.2 mm
12:22 PM 52.9°F11.6°C 50.6°F10.3°C 92% 3.2 mph E5.1 kmh E 8.9 mph14.3 kmh 29.83 in1010.2 mb 0.00 in0.0 mm 0.00 in0.0 mm 0.56 in14.2 mm
12:21 PM 52.9°F11.6°C 50.6°F10.3°C 92% 3.7 mph ESE6.0 kmh ESE 9.4 mph15.1 kmh 29.83 in1010.2 mb 0.00 in0.0 mm 0.00 in0.0 mm 0.56 in14.2 mm
12:20 PM 52.9°F11.6°C 50.6°F10.3°C 92% 3.7 mph E6.0 kmh E 9.4 mph15.1 kmh 29.83 in1010.2 mb 0.00 in0.0 mm 0.00 in0.0 mm 0.56 in14.2 mm
12:19 PM 52.9°F11.6°C 50.6°F10.3°C 92% 3.2 mph NE5.1 kmh NE 9.4 mph15.1 kmh 29.83 in1010.2 mb 0.00 in0.0 mm 0.00 in0.0 mm 0.56 in14.2 mm
12:18 PM 52.9°F11.6°C 50.6°F10.3°C 92% 5.8 mph NE9.3 kmh NE 9.4 mph15.1 kmh 29.83 in1010.2 mb 0.00 in0.0 mm 0.00 in0.0 mm 0.56 in14.2 mm
12:17 PM 52.9°F11.6°C 50.6°F10.3°C 92% 5.3 mph NE8.5 kmh NE 9.4 mph15.1 kmh 29.83 in1010.2 mb 0.00 in0.0 mm 0.00 in0.0 mm 0.56 in14.2 mm
12:16 PM 52.9°F11.6°C 50.6°F10.3°C 92% 3.7 mph E6.0 kmh E 9.4 mph15.1 kmh 29.83 in1010.2 mb 0.00 in0.0 mm 0.00 in0.0 mm 0.56 in14.2 mm
12:15 PM 52.7°F11.5°C 50.4°F10.2°C 92% 3.7 mph ESE6.0 kmh ESE 9.4 mph15.1 kmh 29.83 in1010.2 mb 0.00 in0.0 mm 0.00 in0.0 mm 0.56 in14.2 mm
12:14 PM 52.7°F11.5°C 50.4°F10.2°C 92% 2.7 mph ESE4.3 kmh ESE 9.4 mph15.1 kmh 29.83 in1010.2 mb 0.00 in0.0 mm 0.00 in0.0 mm 0.56 in14.2 mm
12:13 PM 52.7°F11.5°C 50.4°F10.2°C 92% 5.8 mph NNE9.3 kmh NNE 9.4 mph15.1 kmh 29.83 in1010.2 mb 0.00 in0.0 mm 0.00 in0.0 mm 0.56 in14.2 mm
12:12 PM 52.7°F11.5°C 50.4°F10.2°C 92% 5.3 mph NNE8.5 kmh NNE 9.4 mph15.1 kmh 29.83 in1010.2 mb 0.00 in0.0 mm 0.00 in0.0 mm 0.56 in14.2 mm
12:11 PM 52.9°F11.6°C 50.6°F10.3°C 92% 9.4 mph NNE15.1 kmh NNE 9.4 mph15.1 kmh 29.83 in1010.2 mb 0.00 in0.0 mm 0.00 in0.0 mm 0.56 in14.2 mm
12:10 PM 52.9°F11.6°C 50.6°F10.3°C 92% 6.8 mph ESE10.9 kmh ESE 8.9 mph14.3 kmh 29.83 in1010.2 mb 0.00 in0.0 mm 0.00 in0.0 mm 0.56 in14.2 mm
12:09 PM 52.9°F11.6°C 50.6°F10.3°C 92% 5.8 mph NE9.3 kmh NE 8.9 mph14.3 kmh 29.83 in1010.2 mb 0.00 in0.0 mm 0.00 in0.0 mm 0.56 in14.2 mm
12:08 PM 52.7°F11.5°C 50.4°F10.2°C 92% 3.2 mph ESE5.1 kmh ESE 8.9 mph14.3 kmh 29.83 in1010.2 mb 0.00 in0.0 mm 0.00 in0.0 mm 0.56 in14.2 mm
12:07 PM 52.7°F11.5°C 50.4°F10.2°C 92% 5.3 mph NNE8.5 kmh NNE 8.9 mph14.3 kmh 29.83 in1010.2 mb 0.00 in0.0 mm 0.00 in0.0 mm 0.56 in14.2 mm
12:06 PM 52.7°F11.5°C 50.4°F10.2°C 92% 6.3 mph NNE10.1 kmh NNE 8.9 mph14.3 kmh 29.83 in1010.2 mb 0.00 in0.0 mm 0.00 in0.0 mm 0.56 in14.2 mm
12:05 PM 52.9°F11.6°C 50.6°F10.3°C 92% 8.3 mph NE13.4 kmh NE 8.9 mph14.3 kmh 29.83 in1010.2 mb 0.00 in0.0 mm 0.00 in0.0 mm 0.56 in14.2 mm
12:04 PM 52.9°F11.6°C 50.6°F10.3°C 92% 7.8 mph NE12.6 kmh NE 8.9 mph14.3 kmh 29.83 in1010.2 mb 0.00 in0.0 mm 0.00 in0.0 mm 0.56 in14.2 mm
12:03 PM 52.9°F11.6°C 50.6°F10.3°C 92% 6.8 mph NE10.9 kmh NE 8.9 mph14.3 kmh 29.83 in1010.2 mb 0.00 in0.0 mm 0.00 in0.0 mm 0.56 in14.2 mm
12:02 PM 52.9°F11.6°C 50.6°F10.3°C 92% 5.3 mph E8.5 kmh E 8.9 mph14.3 kmh 29.83 in1010.2 mb 0.00 in0.0 mm 0.00 in0.0 mm 0.56 in14.2 mm
12:01 PM 53.1°F11.7°C 50.8°F10.4°C 92% 6.3 mph NE10.1 kmh NE 8.9 mph14.3 kmh 29.84 in1010.5 mb 0.00 in0.0 mm 0.00 in0.0 mm 0.56 in14.2 mm
12:00 PM 53.1°F11.7°C 50.8°F10.4°C 92% 7.8 mph E12.6 kmh E 8.9 mph14.3 kmh 29.84 in1010.5 mb 0.00 in0.0 mm 0.00 in0.0 mm 0.56 in14.2 mm
11:59 AM 52.9°F11.6°C 50.6°F10.3°C 92% 3.2 mph NE5.1 kmh NE 8.9 mph14.3 kmh 29.84 in1010.5 mb 0.00 in0.0 mm 0.00 in0.0 mm 0.56 in14.2 mm
11:58 AM 52.9°F11.6°C 50.6°F10.3°C 92% 8.3 mph NE13.4 kmh NE 9.9 mph15.9 kmh 29.84 in1010.5 mb 0.00 in0.0 mm 0.00 in0.0 mm 0.56 in14.2 mm
11:57 AM 52.9°F11.6°C 50.6°F10.3°C 92% 4.2 mph E6.8 kmh E 9.9 mph15.9 kmh 29.84 in1010.5 mb 0.00 in0.0 mm 0.00 in0.0 mm 0.56 in14.2 mm
11:56 AM 52.9°F11.6°C 50.6°F10.3°C 92% 6.3 mph S10.1 kmh S 9.9 mph15.9 kmh 29.84 in1010.5 mb 0.00 in0.0 mm 0.00 in0.0 mm 0.56 in14.2 mm
11:55 AM 52.9°F11.6°C 50.6°F10.3°C 92% 3.2 mph ESE5.1 kmh ESE 9.9 mph15.9 kmh 29.84 in1010.5 mb 0.00 in0.0 mm 0.00 in0.0 mm 0.56 in14.2 mm
11:54 AM 52.9°F11.6°C 50.6°F10.3°C 92% 2.7 mph E4.3 kmh E 9.9 mph15.9 kmh 29.84 in1010.5 mb 0.00 in0.0 mm 0.00 in0.0 mm 0.56 in14.2 mm
11:53 AM 52.9°F11.6°C 50.6°F10.3°C 92% 6.3 mph E10.1 kmh E 9.9 mph15.9 kmh 29.84 in1010.5 mb 0.00 in0.0 mm 0.00 in0.0 mm 0.56 in14.2 mm
11:52 AM 52.9°F11.6°C 50.6°F10.3°C 92% 7.3 mph NE11.7 kmh NE 9.9 mph15.9 kmh 29.84 in1010.5 mb 0.00 in0.0 mm 0.00 in0.0 mm 0.56 in14.2 mm
11:51 AM 52.9°F11.6°C 50.6°F10.3°C 92% 8.9 mph ESE14.3 kmh ESE 9.9 mph15.9 kmh 29.84 in1010.5 mb 0.00 in0.0 mm 0.00 in0.0 mm 0.56 in14.2 mm
11:50 AM 52.9°F11.6°C 50.6°F10.3°C 92% 4.2 mph ESE6.8 kmh ESE 9.9 mph15.9 kmh 29.84 in1010.5 mb 0.00 in0.0 mm 0.00 in0.0 mm 0.56 in14.2 mm
11:49 AM 53.1°F11.7°C 50.8°F10.4°C 92% 8.3 mph NE13.4 kmh NE 9.9 mph15.9 kmh 29.84 in1010.5 mb 0.00 in0.0 mm 0.00 in0.0 mm 0.56 in14.2 mm
11:48 AM 53.1°F11.7°C 51.1°F10.6°C 93% 6.8 mph NNE10.9 kmh NNE 8.3 mph13.4 kmh 29.84 in1010.5 mb 0.00 in0.0 mm 0.00 in0.0 mm 0.56 in14.2 mm
11:47 AM 58.9°F14.9°C 56.9°F13.8°C 93% 4.2 mph NE6.8 kmh NE 8.3 mph13.4 kmh 29.84 in1010.5 mb 0.00 in0.0 mm 0.00 in0.0 mm 0.56 in14.2 mm
11:46 AM 53.1°F11.7°C 51.1°F10.6°C 93% 3.2 mph NE5.1 kmh NE 8.3 mph13.4 kmh 29.84 in1010.5 mb 0.00 in0.0 mm 0.00 in0.0 mm 0.56 in14.2 mm
11:45 AM 53.1°F11.7°C 50.8°F10.4°C 92% 1.7 mph E2.7 kmh E 8.3 mph13.4 kmh 29.84 in1010.5 mb 0.00 in0.0 mm 0.00 in0.0 mm 0.56 in14.2 mm
11:44 AM 53.1°F11.7°C 50.8°F10.4°C 92% 4.7 mph SSE7.6 kmh SSE 8.3 mph13.4 kmh 29.84 in1010.5 mb 0.00 in0.0 mm 0.00 in0.0 mm 0.56 in14.2 mm
11:43 AM 53.1°F11.7°C 50.8°F10.4°C 92% 6.8 mph NE10.9 kmh NE 9.9 mph15.9 kmh 29.84 in1010.5 mb 0.00 in0.0 mm 0.00 in0.0 mm 0.56 in14.2 mm
11:42 AM 53.1°F11.7°C 50.8°F10.4°C 92% 3.7 mph SE6.0 kmh SE 9.9 mph15.9 kmh 29.84 in1010.5 mb 0.00 in0.0 mm 0.00 in0.0 mm 0.56 in14.2 mm
11:41 AM 53.1°F11.7°C 51.1°F10.6°C 93% 4.2 mph ENE6.8 kmh ENE 9.9 mph15.9 kmh 29.84 in1010.5 mb 0.00 in0.0 mm 0.00 in0.0 mm 0.56 in14.2 mm
11:40 AM 53.1°F11.7°C 51.1°F10.6°C 93% 6.3 mph NNE10.1 kmh NNE 9.9 mph15.9 kmh 29.84 in1010.5 mb 0.00 in0.0 mm 0.00 in0.0 mm 0.56 in14.2 mm
11:39 AM 53.1°F11.7°C 51.1°F10.6°C 93% 3.2 mph SE5.1 kmh SE 9.9 mph15.9 kmh 29.84 in1010.5 mb 0.00 in0.0 mm 0.00 in0.0 mm 0.56 in14.2 mm
11:38 AM 53.1°F11.7°C 51.1°F10.6°C 93% 4.7 mph ESE7.6 kmh ESE 9.9 mph15.9 kmh 29.84 in1010.5 mb 0.00 in0.0 mm 0.00 in0.0 mm 0.56 in14.2 mm
11:37 AM 53.1°F11.7°C 51.1°F10.6°C 93% 3.2 mph ESE5.1 kmh ESE 9.9 mph15.9 kmh 29.83 in1010.2 mb 0.00 in0.0 mm 0.00 in0.0 mm 0.56 in14.2 mm
11:36 AM 53.1°F11.7°C 51.1°F10.6°C 93% 6.3 mph ESE10.1 kmh ESE 10.4 mph16.7 kmh 29.83 in1010.2 mb 0.00 in0.0 mm 0.00 in0.0 mm 0.56 in14.2 mm
11:35 AM 52.9°F11.6°C 50.9°F10.5°C 93% 5.8 mph ESE9.3 kmh ESE 10.4 mph16.7 kmh 29.83 in1010.2 mb 0.00 in0.0 mm 0.00 in0.0 mm 0.56 in14.2 mm
11:34 AM 52.9°F11.6°C 50.9°F10.5°C 93% 5.3 mph NE8.5 kmh NE 10.4 mph16.7 kmh 29.83 in1010.2 mb 0.00 in0.0 mm 0.00 in0.0 mm 0.56 in14.2 mm
11:33 AM 52.9°F11.6°C 50.9°F10.5°C 93% 4.7 mph ESE7.6 kmh ESE 10.4 mph16.7 kmh 29.83 in1010.2 mb 0.00 in0.0 mm 0.00 in0.0 mm 0.56 in14.2 mm
11:32 AM 52.9°F11.6°C 50.9°F10.5°C 93% 5.3 mph ESE8.5 kmh ESE 10.4 mph16.7 kmh 29.83 in1010.2 mb 0.00 in0.0 mm 0.00 in0.0 mm 0.56 in14.2 mm
11:31 AM 52.9°F11.6°C 50.9°F10.5°C 93% 4.7 mph ESE7.6 kmh ESE 10.4 mph16.7 kmh 29.83 in1010.2 mb 0.00 in0.0 mm 0.00 in0.0 mm 0.56 in14.2 mm
11:30 AM 52.7°F11.5°C 50.7°F10.4°C 93% 5.8 mph ESE9.3 kmh ESE 10.4 mph16.7 kmh 29.83 in1010.2 mb 0.00 in0.0 mm 0.00 in0.0 mm 0.56 in14.2 mm
11:29 AM 52.7°F11.5°C 50.7°F10.4°C 93% 7.8 mph ESE12.6 kmh ESE 10.4 mph16.7 kmh 29.83 in1010.2 mb 0.00 in0.0 mm 0.00 in0.0 mm 0.56 in14.2 mm
11:28 AM 52.7°F11.5°C 50.7°F10.4°C 93% 9.4 mph E15.1 kmh E 10.4 mph16.7 kmh 29.83 in1010.2 mb 0.00 in0.0 mm 0.00 in0.0 mm 0.56 in14.2 mm
11:27 AM 52.7°F11.5°C 50.7°F10.4°C 93% 9.9 mph ENE15.9 kmh ENE 10.4 mph16.7 kmh 29.83 in1010.2 mb 0.00 in0.0 mm 0.00 in0.0 mm 0.56 in14.2 mm
11:26 AM 52.7°F11.5°C 51.0°F10.6°C 94% 10.4 mph NE16.7 kmh NE 10.4 mph16.7 kmh 29.84 in1010.5 mb 0.00 in0.0 mm 0.00 in0.0 mm 0.56 in14.2 mm
11:25 AM 52.7°F11.5°C 51.0°F10.6°C 94% 6.8 mph E10.9 kmh E 8.9 mph14.3 kmh 29.84 in1010.5 mb 0.00 in0.0 mm 0.00 in0.0 mm 0.56 in14.2 mm
11:24 AM 52.7°F11.5°C 51.0°F10.6°C 94% 7.8 mph E12.6 kmh E 8.9 mph14.3 kmh 29.84 in1010.5 mb 0.00 in0.0 mm 0.00 in0.0 mm 0.56 in14.2 mm
11:23 AM 52.5°F11.4°C 50.8°F10.4°C 94% 5.8 mph SW9.3 kmh SW 8.9 mph14.3 kmh 29.84 in1010.5 mb 0.00 in0.0 mm 0.00 in0.0 mm 0.56 in14.2 mm
11:22 AM 52.5°F11.4°C 50.8°F10.4°C 94% 6.3 mph ESE10.1 kmh ESE 8.9 mph14.3 kmh 29.84 in1010.5 mb 0.00 in0.0 mm 0.00 in0.0 mm 0.56 in14.2 mm
11:21 AM 52.5°F11.4°C 50.8°F10.4°C 94% 5.8 mph NNE9.3 kmh NNE 8.9 mph14.3 kmh 29.84 in1010.5 mb 0.00 in0.0 mm 0.00 in0.0 mm 0.56 in14.2 mm
11:20 AM 52.5°F11.4°C 50.8°F10.4°C 94% 5.8 mph ESE9.3 kmh ESE 8.9 mph14.3 kmh 29.84 in1010.5 mb 0.00 in0.0 mm 0.00 in0.0 mm 0.56 in14.2 mm
11:19 AM 52.5°F11.4°C 50.8°F10.4°C 94% 7.8 mph NE12.6 kmh NE 8.9 mph14.3 kmh 29.84 in1010.5 mb 0.00 in0.0 mm 0.00 in0.0 mm 0.56 in14.2 mm
11:18 AM 52.5°F11.4°C 50.8°F10.4°C 94% 4.7 mph E7.6 kmh E 8.9 mph14.3 kmh 29.84 in1010.5 mb 0.00 in0.0 mm 0.00 in0.0 mm 0.56 in14.2 mm
11:17 AM 52.5°F11.4°C 50.8°F10.4°C 94% 6.3 mph E10.1 kmh E 8.9 mph14.3 kmh 29.84 in1010.5 mb 0.00 in0.0 mm 0.00 in0.0 mm 0.56 in14.2 mm
11:16 AM 52.5°F11.4°C 51.1°F10.6°C 95% 4.7 mph ESE7.6 kmh ESE 7.3 mph11.7 kmh 29.84 in1010.5 mb 0.00 in0.0 mm 0.00 in0.0 mm 0.56 in14.2 mm
11:15 AM 52.5°F11.4°C 51.1°F10.6°C 95% 4.2 mph ESE6.8 kmh ESE 7.3 mph11.7 kmh 29.84 in1010.5 mb 0.00 in0.0 mm 0.00 in0.0 mm 0.56 in14.2 mm
11:14 AM 52.5°F11.4°C 51.1°F10.6°C 95% 5.3 mph ESE8.5 kmh ESE 9.9 mph15.9 kmh 29.84 in1010.5 mb 0.00 in0.0 mm 0.00 in0.0 mm 0.56 in14.2 mm
11:13 AM 52.5°F11.4°C 51.1°F10.6°C 95% 3.2 mph ESE5.1 kmh ESE 9.9 mph15.9 kmh 29.84 in1010.5 mb 0.00 in0.0 mm 0.00 in0.0 mm 0.56 in14.2 mm
11:12 AM 52.5°F11.4°C 51.1°F10.6°C 95% 6.3 mph E10.1 kmh E 9.9 mph15.9 kmh 29.84 in1010.5 mb 0.00 in0.0 mm 0.00 in0.0 mm 0.56 in14.2 mm
11:11 AM 52.5°F11.4°C 51.4°F10.8°C 96% 5.3 mph E8.5 kmh E 9.9 mph15.9 kmh 29.84 in1010.5 mb 0.00 in0.0 mm 0.00 in0.0 mm 0.56 in14.2 mm
11:10 AM 52.5°F11.4°C 51.4°F10.8°C 96% 7.3 mph ESE11.7 kmh ESE 9.9 mph15.9 kmh 29.84 in1010.5 mb 0.00 in0.0 mm 0.00 in0.0 mm 0.56 in14.2 mm
11:09 AM 52.5°F11.4°C 51.4°F10.8°C 96% 2.7 mph E4.3 kmh E 9.9 mph15.9 kmh 29.84 in1010.5 mb 0.00 in0.0 mm 0.00 in0.0 mm 0.56 in14.2 mm
11:08 AM 52.3°F11.3°C 51.2°F10.7°C 96% 2.7 mph E4.3 kmh E 9.9 mph15.9 kmh 29.84 in1010.5 mb 0.00 in0.0 mm 0.00 in0.0 mm 0.56 in14.2 mm
11:07 AM 52.3°F11.3°C 51.2°F10.7°C 96% 4.2 mph NNE6.8 kmh NNE 9.9 mph15.9 kmh 29.84 in1010.5 mb 0.00 in0.0 mm 0.00 in0.0 mm 0.56 in14.2 mm
11:06 AM 52.3°F11.3°C 51.2°F10.7°C 96% 4.7 mph E7.6 kmh E 9.9 mph15.9 kmh 29.84 in1010.5 mb 0.00 in0.0 mm 0.00 in0.0 mm 0.56 in14.2 mm
11:05 AM 52.3°F11.3°C 51.2°F10.7°C 96% 6.8 mph E10.9 kmh E 9.9 mph15.9 kmh 29.84 in1010.5 mb 0.00 in0.0 mm 0.00 in0.0 mm 0.56 in14.2 mm
11:04 AM 52.3°F11.3°C 51.2°F10.7°C 96% 5.3 mph NE8.5 kmh NE 9.9 mph15.9 kmh 29.84 in1010.5 mb 0.00 in0.0 mm 0.00 in0.0 mm 0.56 in14.2 mm
11:03 AM 52.2°F11.2°C 51.1°F10.6°C 96% 4.7 mph NE7.6 kmh NE 9.9 mph15.9 kmh 29.84 in1010.5 mb 0.00 in0.0 mm 0.00 in0.0 mm 0.56 in14.2 mm
11:02 AM 52.2°F11.2°C 51.1°F10.6°C 96% 5.3 mph NE8.5 kmh NE 9.9 mph15.9 kmh 29.84 in1010.5 mb 0.00 in0.0 mm 0.00 in0.0 mm 0.56 in14.2 mm
11:01 AM 52.2°F11.2°C 51.1°F10.6°C 96% 6.3 mph NE10.1 kmh NE 9.9 mph15.9 kmh 29.84 in1010.5 mb 0.00 in0.0 mm 0.00 in0.0 mm 0.56 in14.2 mm
11:00 AM 52.2°F11.2°C 51.1°F10.6°C 96% 8.3 mph NNE13.4 kmh NNE 9.9 mph15.9 kmh 29.84 in1010.5 mb 0.00 in0.0 mm 0.00 in0.0 mm 0.56 in14.2 mm
10:59 AM 52.2°F11.2°C 51.1°F10.6°C 96% 7.8 mph NNE12.6 kmh NNE 9.9 mph15.9 kmh 29.84 in1010.5 mb 0.00 in0.0 mm 0.00 in0.0 mm 0.56 in14.2 mm
10:58 AM 52.2°F11.2°C 51.1°F10.6°C 96% 7.3 mph NE11.7 kmh NE 9.4 mph15.1 kmh 29.84 in1010.5 mb 0.00 in0.0 mm 0.00 in0.0 mm 0.56 in14.2 mm
10:57 AM 52.2°F11.2°C 51.1°F10.6°C 96% 6.3 mph NE10.1 kmh NE 9.4 mph15.1 kmh 29.84 in1010.5 mb 0.00 in0.0 mm 0.00 in0.0 mm 0.56 in14.2 mm
10:56 AM 52.2°F11.2°C 51.1°F10.6°C 96% 7.8 mph E12.6 kmh E 9.4 mph15.1 kmh 29.84 in1010.5 mb 0.00 in0.0 mm 0.00 in0.0 mm 0.56 in14.2 mm
10:55 AM 52.2°F11.2°C 51.1°F10.6°C 96% 8.9 mph NE14.3 kmh NE 9.4 mph15.1 kmh 29.84 in1010.5 mb 0.00 in0.0 mm 0.00 in0.0 mm 0.56 in14.2 mm
10:54 AM 52.2°F11.2°C 51.1°F10.6°C 96% 6.3 mph ESE10.1 kmh ESE 13.0 mph20.9 kmh 29.84 in1010.5 mb 0.00 in0.0 mm 0.00 in0.0 mm 0.56 in14.2 mm
10:53 AM 52.2°F11.2°C 51.1°F10.6°C 96% 6.3 mph NNE10.1 kmh NNE 13.0 mph20.9 kmh 29.84 in1010.5 mb 0.00 in0.0 mm 0.00 in0.0 mm 0.56 in14.2 mm
10:52 AM 52.2°F11.2°C 51.1°F10.6°C 96% 5.8 mph E9.3 kmh E 13.0 mph20.9 kmh 29.84 in1010.5 mb 0.00 in0.0 mm 0.00 in0.0 mm 0.56 in14.2 mm
10:51 AM 52.2°F11.2°C 51.1°F10.6°C 96% 6.3 mph E10.1 kmh E 13.0 mph20.9 kmh 29.84 in1010.5 mb 0.00 in0.0 mm 0.00 in0.0 mm 0.56 in14.2 mm
10:50 AM 52.2°F11.2°C 51.1°F10.6°C 96% 7.3 mph NNE11.7 kmh NNE 13.0 mph20.9 kmh 29.84 in1010.5 mb 0.00 in0.0 mm 0.00 in0.0 mm 0.56 in14.2 mm
10:49 AM 52.2°F11.2°C 51.1°F10.6°C 96% 8.9 mph E14.3 kmh E 13.0 mph20.9 kmh 29.84 in1010.5 mb 0.00 in0.0 mm 0.00 in0.0 mm 0.56 in14.2 mm
10:48 AM 52.3°F11.3°C 51.2°F10.7°C 96% 8.3 mph ESE13.4 kmh ESE 13.0 mph20.9 kmh 29.84 in1010.5 mb 0.00 in0.0 mm 0.00 in0.0 mm 0.56 in14.2 mm
10:47 AM 52.3°F11.3°C 51.5°F10.8°C 97% 9.4 mph ESE15.1 kmh ESE 13.0 mph20.9 kmh 29.84 in1010.5 mb 0.00 in0.0 mm 0.00 in0.0 mm 0.56 in14.2 mm
10:46 AM 52.3°F11.3°C 51.5°F10.8°C 97% 4.2 mph ESE6.8 kmh ESE 13.0 mph20.9 kmh 29.84 in1010.5 mb 0.00 in0.0 mm 0.00 in0.0 mm 0.56 in14.2 mm
10:45 AM 52.3°F11.3°C 51.5°F10.8°C 97% 6.3 mph E10.1 kmh E 13.0 mph20.9 kmh 29.84 in1010.5 mb 0.00 in0.0 mm 0.00 in0.0 mm 0.56 in14.2 mm
10:44 AM 52.3°F11.3°C 51.5°F10.8°C 97% 6.3 mph N10.1 kmh N 13.0 mph20.9 kmh 29.84 in1010.5 mb 0.00 in0.0 mm 0.00 in0.0 mm 0.56 in14.2 mm
10:43 AM 52.3°F11.3°C 51.5°F10.8°C 97% 3.2 mph ENE5.1 kmh ENE 13.0 mph20.9 kmh 29.84 in1010.5 mb 0.00 in0.0 mm 0.00 in0.0 mm 0.56 in14.2 mm
10:42 AM 52.2°F11.2°C 51.4°F10.8°C 97% 5.3 mph ENE8.5 kmh ENE 13.0 mph20.9 kmh 29.84 in1010.5 mb 0.00 in0.0 mm 0.00 in0.0 mm 0.56 in14.2 mm
10:41 AM 52.2°F11.2°C 51.4°F10.8°C 97% 7.3 mph NE11.7 kmh NE 13.0 mph20.9 kmh 29.84 in1010.5 mb 0.00 in0.0 mm 0.00 in0.0 mm 0.56 in14.2 mm
10:40 AM 52.2°F11.2°C 51.4°F10.8°C 97% 4.7 mph E7.6 kmh E 13.0 mph20.9 kmh 29.84 in1010.5 mb 0.00 in0.0 mm 0.00 in0.0 mm 0.56 in14.2 mm
10:39 AM 52.2°F11.2°C 51.4°F10.8°C 97% 6.3 mph NE10.1 kmh NE 13.0 mph20.9 kmh 29.84 in1010.5 mb 0.00 in0.0 mm 0.00 in0.0 mm 0.56 in14.2 mm
10:38 AM 52.2°F11.2°C 51.4°F10.8°C 97% 8.9 mph ENE14.3 kmh ENE 13.0 mph20.9 kmh 29.84 in1010.5 mb 0.00 in0.0 mm 0.00 in0.0 mm 0.56 in14.2 mm
10:37 AM 52.3°F11.3°C 51.5°F10.8°C 97% 8.9 mph ESE14.3 kmh ESE 10.9 mph17.5 kmh 29.84 in1010.5 mb 0.00 in0.0 mm 0.00 in0.0 mm 0.56 in14.2 mm
10:36 AM 52.3°F11.3°C 51.5°F10.8°C 97% 8.9 mph S14.3 kmh S 13.5 mph21.7 kmh 29.84 in1010.5 mb 0.00 in0.0 mm 0.00 in0.0 mm 0.56 in14.2 mm
10:35 AM 52.3°F11.3°C 51.5°F10.8°C 97% 4.2 mph NW6.8 kmh NW 13.5 mph21.7 kmh 29.84 in1010.5 mb 0.00 in0.0 mm 0.00 in0.0 mm 0.56 in14.2 mm
10:34 AM 52.2°F11.2°C 51.4°F10.8°C 97% 5.3 mph E8.5 kmh E 13.5 mph21.7 kmh 29.84 in1010.5 mb 0.00 in0.0 mm 0.00 in0.0 mm 0.56 in14.2 mm
10:33 AM 52.2°F11.2°C 51.4°F10.8°C 97% 5.3 mph E8.5 kmh E 13.5 mph21.7 kmh 29.84 in1010.5 mb 0.00 in0.0 mm 0.00 in0.0 mm 0.56 in14.2 mm
10:32 AM 52.2°F11.2°C 51.7°F10.9°C 98% 7.3 mph ESE11.7 kmh ESE 13.5 mph21.7 kmh 29.84 in1010.5 mb 0.00 in0.0 mm 0.00 in0.0 mm 0.56 in14.2 mm
10:31 AM 52.2°F11.2°C 51.7°F10.9°C 98% 3.7 mph ESE6.0 kmh ESE 13.5 mph21.7 kmh 29.84 in1010.5 mb 0.00 in0.0 mm 0.00 in0.0 mm 0.56 in14.2 mm
10:30 AM 52.2°F11.2°C 51.7°F10.9°C 98% 5.3 mph ENE8.5 kmh ENE 13.5 mph21.7 kmh 29.84 in1010.5 mb 0.00 in0.0 mm 0.00 in0.0 mm 0.56 in14.2 mm
10:29 AM 52.2°F11.2°C 51.7°F10.9°C 98% 6.8 mph ENE10.9 kmh ENE 13.5 mph21.7 kmh 29.84 in1010.5 mb 0.00 in0.0 mm 0.00 in0.0 mm 0.56 in14.2 mm
10:28 AM 52.2°F11.2°C 51.7°F10.9°C 98% 5.8 mph ESE9.3 kmh ESE 13.5 mph21.7 kmh 29.84 in1010.5 mb 0.00 in0.0 mm 0.00 in0.0 mm 0.56 in14.2 mm
10:27 AM 52.2°F11.2°C 51.7°F10.9°C 98% 5.8 mph ENE9.3 kmh ENE 13.5 mph21.7 kmh 29.84 in1010.5 mb 0.00 in0.0 mm 0.00 in0.0 mm 0.56 in14.2 mm
10:26 AM 52.2°F11.2°C 51.7°F10.9°C 98% 10.9 mph NE17.5 kmh NE 13.5 mph21.7 kmh 29.84 in1010.5 mb 0.00 in0.0 mm 0.00 in0.0 mm 0.56 in14.2 mm
10:25 AM 52.3°F11.3°C 51.8°F11.0°C 98% 5.8 mph ESE9.3 kmh ESE 11.9 mph19.2 kmh 29.84 in1010.5 mb 0.00 in0.0 mm 0.00 in0.0 mm 0.56 in14.2 mm
10:24 AM 52.3°F11.3°C 51.8°F11.0°C 98% 4.7 mph E7.6 kmh E 11.9 mph19.2 kmh 29.84 in1010.5 mb 0.00 in0.0 mm 0.00 in0.0 mm 0.56 in14.2 mm
10:23 AM 52.3°F11.3°C 51.8°F11.0°C 98% 8.9 mph NE14.3 kmh NE 11.9 mph19.2 kmh 29.84 in1010.5 mb 0.00 in0.0 mm 0.00 in0.0 mm 0.56 in14.2 mm
10:22 AM 52.3°F11.3°C 51.8°F11.0°C 98% 9.4 mph E15.1 kmh E 11.9 mph19.2 kmh 29.84 in1010.5 mb 0.00 in0.0 mm 0.00 in0.0 mm 0.56 in14.2 mm
10:21 AM 52.3°F11.3°C 51.8°F11.0°C 98% 6.8 mph NE10.9 kmh NE 11.9 mph19.2 kmh 29.84 in1010.5 mb 0.00 in0.0 mm 0.00 in0.0 mm 0.56 in14.2 mm
10:20 AM 52.3°F11.3°C 51.8°F11.0°C 98% 3.7 mph ENE6.0 kmh ENE 11.9 mph19.2 kmh 29.84 in1010.5 mb 0.00 in0.0 mm 0.00 in0.0 mm 0.56 in14.2 mm
10:19 AM 52.3°F11.3°C 51.8°F11.0°C 98% 2.7 mph E4.3 kmh E 11.9 mph19.2 kmh 29.84 in1010.5 mb 0.00 in0.0 mm 0.00 in0.0 mm 0.56 in14.2 mm
10:18 AM 52.3°F11.3°C 51.8°F11.0°C 98% 3.2 mph ESE5.1 kmh ESE 11.9 mph19.2 kmh 29.84 in1010.5 mb 0.00 in0.0 mm 0.00 in0.0 mm 0.56 in14.2 mm
10:17 AM 52.3°F11.3°C 51.8°F11.0°C 98% 5.8 mph E9.3 kmh E 11.9 mph19.2 kmh 29.84 in1010.5 mb 0.00 in0.0 mm 0.00 in0.0 mm 0.56 in14.2 mm
10:16 AM 52.3°F11.3°C 51.8°F11.0°C 98% 7.3 mph NE11.7 kmh NE 11.4 mph18.3 kmh 29.84 in1010.5 mb 0.00 in0.0 mm 0.00 in0.0 mm 0.56 in14.2 mm
10:15 AM 52.3°F11.3°C 51.8°F11.0°C 98% 7.3 mph NE11.7 kmh NE 11.4 mph18.3 kmh 29.84 in1010.5 mb 0.00 in0.0 mm 0.00 in0.0 mm 0.56 in14.2 mm
10:14 AM 52.3°F11.3°C 51.8°F11.0°C 98% 3.7 mph E6.0 kmh E 10.9 mph17.5 kmh 29.83 in1010.2 mb 0.00 in0.0 mm 0.00 in0.0 mm 0.56 in14.2 mm
10:13 AM 52.3°F11.3°C 51.8°F11.0°C 98% 3.2 mph SE5.1 kmh SE 10.9 mph17.5 kmh 29.83 in1010.2 mb 0.00 in0.0 mm 0.00 in0.0 mm 0.56 in14.2 mm
10:12 AM 52.3°F11.3°C 51.8°F11.0°C 98% 7.8 mph ENE12.6 kmh ENE 10.9 mph17.5 kmh 29.83 in1010.2 mb 0.00 in0.0 mm 0.00 in0.0 mm 0.56 in14.2 mm
10:11 AM 52.3°F11.3°C 51.8°F11.0°C 98% 10.9 mph NE17.5 kmh NE 13.5 mph21.7 kmh 29.83 in1010.2 mb 0.00 in0.0 mm 0.00 in0.0 mm 0.56 in14.2 mm
10:10 AM 52.3°F11.3°C 51.8°F11.0°C 98% 4.7 mph E7.6 kmh E 13.5 mph21.7 kmh 29.83 in1010.2 mb 0.00 in0.0 mm 0.00 in0.0 mm 0.56 in14.2 mm
10:09 AM 52.3°F11.3°C 51.8°F11.0°C 98% 4.2 mph NNE6.8 kmh NNE 13.5 mph21.7 kmh 29.83 in1010.2 mb 0.01 in0.3 mm 0.00 in0.0 mm 0.56 in14.2 mm
10:08 AM 52.3°F11.3°C 51.8°F11.0°C 98% 6.8 mph E10.9 kmh E 13.5 mph21.7 kmh 29.83 in1010.2 mb 0.01 in0.3 mm 0.00 in0.0 mm 0.56 in14.2 mm
10:07 AM 52.3°F11.3°C 51.8°F11.0°C 98% 6.3 mph E10.1 kmh E 13.5 mph21.7 kmh 29.83 in1010.2 mb 0.01 in0.3 mm 0.00 in0.0 mm 0.56 in14.2 mm
10:06 AM 52.3°F11.3°C 51.8°F11.0°C 98% 4.2 mph ENE6.8 kmh ENE 13.5 mph21.7 kmh 29.83 in1010.2 mb 0.01 in0.3 mm 0.00 in0.0 mm 0.56 in14.2 mm
10:05 AM 52.3°F11.3°C 51.8°F11.0°C 98% 7.3 mph ENE11.7 kmh ENE 13.5 mph21.7 kmh 29.83 in1010.2 mb 0.01 in0.3 mm 0.00 in0.0 mm 0.56 in14.2 mm
10:04 AM 52.3°F11.3°C 51.8°F11.0°C 98% 7.8 mph ENE12.6 kmh ENE 13.5 mph21.7 kmh 29.83 in1010.2 mb 0.01 in0.3 mm 0.00 in0.0 mm 0.56 in14.2 mm
10:03 AM 52.3°F11.3°C 51.8°F11.0°C 98% 6.3 mph ENE10.1 kmh ENE 13.5 mph21.7 kmh 29.83 in1010.2 mb 0.01 in0.3 mm 0.00 in0.0 mm 0.56 in14.2 mm
10:02 AM 52.3°F11.3°C 51.8°F11.0°C 98% 8.3 mph E13.4 kmh E 13.5 mph21.7 kmh 29.83 in1010.2 mb 0.01 in0.3 mm 0.00 in0.0 mm 0.56 in14.2 mm
10:01 AM 52.3°F11.3°C 51.8°F11.0°C 98% 13.5 mph E21.7 kmh E 13.5 mph21.7 kmh 29.83 in1010.2 mb 0.01 in0.3 mm 0.00 in0.0 mm 0.56 in14.2 mm
10:00 AM 52.3°F11.3°C 51.8°F11.0°C 98% 10.4 mph S16.7 kmh S 11.4 mph18.3 kmh 29.83 in1010.2 mb 0.01 in0.3 mm 0.00 in0.0 mm 0.56 in14.2 mm
09:59 AM 52.3°F11.3°C 51.8°F11.0°C 98% 4.7 mph NNE7.6 kmh NNE 11.4 mph18.3 kmh 29.83 in1010.2 mb 0.01 in0.3 mm 0.00 in0.0 mm 0.56 in14.2 mm
09:58 AM 52.3°F11.3°C 51.8°F11.0°C 98% 6.8 mph ESE10.9 kmh ESE 11.4 mph18.3 kmh 29.83 in1010.2 mb 0.01 in0.3 mm 0.00 in0.0 mm 0.56 in14.2 mm
09:57 AM 52.3°F11.3°C 51.8°F11.0°C 98% 6.3 mph E10.1 kmh E 11.4 mph18.3 kmh 29.83 in1010.2 mb 0.01 in0.3 mm 0.00 in0.0 mm 0.56 in14.2 mm
09:56 AM 52.3°F11.3°C 51.8°F11.0°C 98% 7.8 mph E12.6 kmh E 11.4 mph18.3 kmh 29.83 in1010.2 mb 0.01 in0.3 mm 0.00 in0.0 mm 0.56 in14.2 mm
09:55 AM 52.3°F11.3°C 51.8°F11.0°C 98% 5.8 mph E9.3 kmh E 11.4 mph18.3 kmh 29.83 in1010.2 mb 0.02 in0.5 mm 0.00 in0.0 mm 0.56 in14.2 mm
09:54 AM 52.3°F11.3°C 51.8°F11.0°C 98% 6.8 mph E10.9 kmh E 11.4 mph18.3 kmh 29.83 in1010.2 mb 0.02 in0.5 mm 0.00 in0.0 mm 0.56 in14.2 mm
09:53 AM 52.3°F11.3°C 51.8°F11.0°C 98% 7.8 mph ENE12.6 kmh ENE 10.4 mph16.7 kmh 29.83 in1010.2 mb 0.02 in0.5 mm 0.00 in0.0 mm 0.56 in14.2 mm
09:52 AM 52.3°F11.3°C 51.8°F11.0°C 98% 7.3 mph NE11.7 kmh NE 10.4 mph16.7 kmh 29.83 in1010.2 mb 0.02 in0.5 mm 0.00 in0.0 mm 0.56 in14.2 mm
09:51 AM 52.3°F11.3°C 51.8°F11.0°C 98% 7.8 mph ENE12.6 kmh ENE 10.4 mph16.7 kmh 29.83 in1010.2 mb 0.02 in0.5 mm 0.00 in0.0 mm 0.56 in14.2 mm
09:50 AM 52.3°F11.3°C 51.8°F11.0°C 98% 5.3 mph NNE8.5 kmh NNE 10.4 mph16.7 kmh 29.83 in1010.2 mb 0.02 in0.5 mm 0.00 in0.0 mm 0.56 in14.2 mm
09:49 AM 52.3°F11.3°C 51.8°F11.0°C 98% 10.4 mph S16.7 kmh S 10.9 mph17.5 kmh 29.83 in1010.2 mb 0.02 in0.5 mm 0.00 in0.0 mm 0.56 in14.2 mm
09:48 AM 52.3°F11.3°C 51.8°F11.0°C 98% 7.3 mph ESE11.7 kmh ESE 10.9 mph17.5 kmh 29.83 in1010.2 mb 0.02 in0.5 mm 0.00 in0.0 mm 0.56 in14.2 mm
09:47 AM 52.3°F11.3°C 51.8°F11.0°C 98% 8.3 mph NE13.4 kmh NE 10.9 mph17.5 kmh 29.83 in1010.2 mb 0.02 in0.5 mm 0.00 in0.0 mm 0.56 in14.2 mm
09:46 AM 52.3°F11.3°C 51.8°F11.0°C 98% 6.8 mph ESE10.9 kmh ESE 11.9 mph19.2 kmh 29.83 in1010.2 mb 0.02 in0.5 mm 0.00 in0.0 mm 0.56 in14.2 mm
09:45 AM 52.3°F11.3°C 51.8°F11.0°C 98% 5.3 mph ESE8.5 kmh ESE 18.6 mph29.9 kmh 29.83 in1010.2 mb 0.02 in0.5 mm 0.00 in0.0 mm 0.56 in14.2 mm
09:44 AM 52.3°F11.3°C 51.8°F11.0°C 98% 4.7 mph NE7.6 kmh NE 18.6 mph29.9 kmh 29.83 in1010.2 mb 0.02 in0.5 mm 0.00 in0.0 mm 0.56 in14.2 mm
09:43 AM 52.3°F11.3°C 51.8°F11.0°C 98% 3.7 mph NE6.0 kmh NE 18.6 mph29.9 kmh 29.83 in1010.2 mb 0.02 in0.5 mm 0.00 in0.0 mm 0.56 in14.2 mm
09:42 AM 52.3°F11.3°C 51.8°F11.0°C 98% 5.3 mph E8.5 kmh E 18.6 mph29.9 kmh 29.83 in1010.2 mb 0.02 in0.5 mm 0.00 in0.0 mm 0.56 in14.2 mm
09:41 AM 52.3°F11.3°C 51.8°F11.0°C 98% 6.3 mph ESE10.1 kmh ESE 18.6 mph29.9 kmh 29.83 in1010.2 mb 0.02 in0.5 mm 0.00 in0.0 mm 0.56 in14.2 mm
09:40 AM 52.3°F11.3°C 51.8°F11.0°C 98% 9.9 mph ENE15.9 kmh ENE 18.6 mph29.9 kmh 29.83 in1010.2 mb 0.02 in0.5 mm 0.00 in0.0 mm 0.56 in14.2 mm
09:39 AM 52.3°F11.3°C 51.8°F11.0°C 98% 10.9 mph NNW17.5 kmh NNW 18.6 mph29.9 kmh 29.83 in1010.2 mb 0.02 in0.5 mm 0.00 in0.0 mm 0.56 in14.2 mm
09:38 AM 52.3°F11.3°C 51.8°F11.0°C 98% 8.3 mph NNE13.4 kmh NNE 18.6 mph29.9 kmh 29.84 in1010.5 mb 0.02 in0.5 mm 0.00 in0.0 mm 0.56 in14.2 mm
09:37 AM 52.3°F11.3°C 51.8°F11.0°C 98% 6.8 mph NNE10.9 kmh NNE 18.6 mph29.9 kmh 29.84 in1010.5 mb 0.02 in0.5 mm 0.00 in0.0 mm 0.56 in14.2 mm
09:36 AM 52.3°F11.3°C 51.8°F11.0°C 98% 13.0 mph ENE20.9 kmh ENE 18.6 mph29.9 kmh 29.84 in1010.5 mb 0.02 in0.5 mm 0.00 in0.0 mm 0.56 in14.2 mm
09:35 AM 52.3°F11.3°C 51.8°F11.0°C 98% 18.6 mph ENE29.9 kmh ENE 18.6 mph29.9 kmh 29.84 in1010.5 mb 0.02 in0.5 mm 0.00 in0.0 mm 0.56 in14.2 mm
09:34 AM 52.3°F11.3°C 51.8°F11.0°C 98% 8.3 mph NE13.4 kmh NE 13.0 mph20.9 kmh 29.84 in1010.5 mb 0.02 in0.5 mm 0.00 in0.0 mm 0.56 in14.2 mm
09:33 AM 52.3°F11.3°C 51.8°F11.0°C 98% 5.3 mph ESE8.5 kmh ESE 13.0 mph20.9 kmh 29.84 in1010.5 mb 0.02 in0.5 mm 0.00 in0.0 mm 0.56 in14.2 mm
09:32 AM 52.5°F11.4°C 52.0°F11.1°C 98% 7.8 mph E12.6 kmh E 13.0 mph20.9 kmh 29.84 in1010.5 mb 0.02 in0.5 mm 0.00 in0.0 mm 0.56 in14.2 mm
09:31 AM 52.5°F11.4°C 52.0°F11.1°C 98% 7.3 mph NE11.7 kmh NE 13.0 mph20.9 kmh 29.84 in1010.5 mb 0.02 in0.5 mm 0.00 in0.0 mm 0.56 in14.2 mm
09:30 AM 52.5°F11.4°C 52.0°F11.1°C 98% 13.0 mph ESE20.9 kmh ESE 13.0 mph20.9 kmh 29.84 in1010.5 mb 0.02 in0.5 mm 0.00 in0.0 mm 0.56 in14.2 mm
09:29 AM 52.5°F11.4°C 52.0°F11.1°C 98% 5.8 mph NE9.3 kmh NE 12.5 mph20.1 kmh 29.84 in1010.5 mb 0.02 in0.5 mm 0.00 in0.0 mm 0.56 in14.2 mm
09:28 AM 52.5°F11.4°C 52.0°F11.1°C 98% 5.3 mph ESE8.5 kmh ESE 12.5 mph20.1 kmh 29.84 in1010.5 mb 0.02 in0.5 mm 0.00 in0.0 mm 0.56 in14.2 mm
09:27 AM 52.5°F11.4°C 52.0°F11.1°C 98% 8.9 mph E14.3 kmh E 12.5 mph20.1 kmh 29.84 in1010.5 mb 0.02 in0.5 mm 0.00 in0.0 mm 0.56 in14.2 mm
09:26 AM 52.7°F11.5°C 52.2°F11.2°C 98% 10.9 mph E17.5 kmh E 10.9 mph17.5 kmh 29.83 in1010.2 mb 0.02 in0.5 mm 0.00 in0.0 mm 0.56 in14.2 mm
09:25 AM 52.7°F11.5°C 52.2°F11.2°C 98% 7.3 mph ESE11.7 kmh ESE 11.4 mph18.3 kmh 29.83 in1010.2 mb 0.02 in0.5 mm 0.00 in0.0 mm 0.56 in14.2 mm
09:24 AM 52.7°F11.5°C 52.2°F11.2°C 98% 7.8 mph S12.6 kmh S 13.0 mph20.9 kmh 29.83 in1010.2 mb 0.02 in0.5 mm 0.00 in0.0 mm 0.56 in14.2 mm
09:23 AM 52.7°F11.5°C 52.2°F11.2°C 98% 4.7 mph E7.6 kmh E 13.0 mph20.9 kmh 29.83 in1010.2 mb 0.02 in0.5 mm 0.00 in0.0 mm 0.56 in14.2 mm
09:22 AM 52.7°F11.5°C 52.2°F11.2°C 98% 8.3 mph E13.4 kmh E 13.0 mph20.9 kmh 29.83 in1010.2 mb 0.02 in0.5 mm 0.00 in0.0 mm 0.56 in14.2 mm
09:21 AM 52.7°F11.5°C 52.2°F11.2°C 98% 5.8 mph ENE9.3 kmh ENE 13.0 mph20.9 kmh 29.83 in1010.2 mb 0.02 in0.5 mm 0.00 in0.0 mm 0.56 in14.2 mm
09:20 AM 52.7°F11.5°C 52.2°F11.2°C 98% 4.2 mph ENE6.8 kmh ENE 13.0 mph20.9 kmh 29.83 in1010.2 mb 0.02 in0.5 mm 0.00 in0.0 mm 0.56 in14.2 mm
09:19 AM 52.7°F11.5°C 52.2°F11.2°C 98% 6.8 mph NE10.9 kmh NE 13.0 mph20.9 kmh 29.83 in1010.2 mb 0.02 in0.5 mm 0.00 in0.0 mm 0.56 in14.2 mm
09:18 AM 52.7°F11.5°C 52.2°F11.2°C 98% 9.4 mph ENE15.1 kmh ENE 13.0 mph20.9 kmh 29.83 in1010.2 mb 0.02 in0.5 mm 0.00 in0.0 mm 0.56 in14.2 mm
09:17 AM 52.7°F11.5°C 52.2°F11.2°C 98% 5.8 mph NE9.3 kmh NE 13.0 mph20.9 kmh 29.83 in1010.2 mb 0.03 in0.8 mm 0.00 in0.0 mm 0.56 in14.2 mm
09:16 AM 52.7°F11.5°C 52.2°F11.2°C 98% 9.4 mph E15.1 kmh E 13.0 mph20.9 kmh 29.83 in1010.2 mb 0.03 in0.8 mm 0.00 in0.0 mm 0.56 in14.2 mm
09:15 AM 52.7°F11.5°C 52.2°F11.2°C 98% 11.4 mph ESE18.3 kmh ESE 13.0 mph20.9 kmh 29.83 in1010.2 mb 0.03 in0.8 mm 0.00 in0.0 mm 0.56 in14.2 mm
09:14 AM 52.7°F11.5°C 52.2°F11.2°C 98% 13.0 mph ENE20.9 kmh ENE 13.0 mph20.9 kmh 29.83 in1010.2 mb 0.03 in0.8 mm 0.00 in0.0 mm 0.56 in14.2 mm
09:13 AM 52.7°F11.5°C 52.2°F11.2°C 98% 6.8 mph NNE10.9 kmh NNE 8.9 mph14.3 kmh 29.83 in1010.2 mb 0.03 in0.8 mm 0.00 in0.0 mm 0.56 in14.2 mm
09:12 AM 52.7°F11.5°C 52.2°F11.2°C 98% 3.7 mph E6.0 kmh E 8.9 mph14.3 kmh 29.83 in1010.2 mb 0.03 in0.8 mm 0.00 in0.0 mm 0.56 in14.2 mm
09:11 AM 52.7°F11.5°C 52.2°F11.2°C 98% 5.8 mph ENE9.3 kmh ENE 9.9 mph15.9 kmh 29.83 in1010.2 mb 0.03 in0.8 mm 0.00 in0.0 mm 0.56 in14.2 mm
09:10 AM 52.5°F11.4°C 52.0°F11.1°C 98% 4.2 mph ENE6.8 kmh ENE 11.9 mph19.2 kmh 29.83 in1010.2 mb 0.03 in0.8 mm 0.60 in15.2 mm 0.56 in14.2 mm
09:09 AM 52.5°F11.4°C 52.0°F11.1°C 98% 5.3 mph E8.5 kmh E 11.9 mph19.2 kmh 29.83 in1010.2 mb 0.02 in0.5 mm 0.00 in0.0 mm 0.55 in14.0 mm
09:08 AM 52.5°F11.4°C 52.0°F11.1°C 98% 5.8 mph ESE9.3 kmh ESE 11.9 mph19.2 kmh 29.83 in1010.2 mb 0.02 in0.5 mm 0.00 in0.0 mm 0.55 in14.0 mm
09:07 AM 52.5°F11.4°C 52.0°F11.1°C 98% 7.3 mph NE11.7 kmh NE 11.9 mph19.2 kmh 29.83 in1010.2 mb 0.03 in0.8 mm 0.00 in0.0 mm 0.55 in14.0 mm
09:06 AM 52.5°F11.4°C 52.0°F11.1°C 98% 4.2 mph NE6.8 kmh NE 11.9 mph19.2 kmh 29.83 in1010.2 mb 0.03 in0.8 mm 0.00 in0.0 mm 0.55 in14.0 mm
09:05 AM 52.5°F11.4°C 52.0°F11.1°C 98% 5.8 mph ESE9.3 kmh ESE 11.9 mph19.2 kmh 29.83 in1010.2 mb 0.03 in0.8 mm 0.00 in0.0 mm 0.55 in14.0 mm
09:04 AM 52.5°F11.4°C 52.0°F11.1°C 98% 5.8 mph ESE9.3 kmh ESE 11.9 mph19.2 kmh 29.83 in1010.2 mb 0.03 in0.8 mm 0.00 in0.0 mm 0.55 in14.0 mm
09:03 AM 52.5°F11.4°C 52.0°F11.1°C 98% 6.8 mph ENE10.9 kmh ENE 11.9 mph19.2 kmh 29.83 in1010.2 mb 0.03 in0.8 mm 0.00 in0.0 mm 0.55 in14.0 mm
09:02 AM 52.5°F11.4°C 52.0°F11.1°C 98% 9.9 mph NE15.9 kmh NE 15.0 mph24.1 kmh 29.83 in1010.2 mb 0.03 in0.8 mm 0.00 in0.0 mm 0.55 in14.0 mm
09:01 AM 52.5°F11.4°C 52.0°F11.1°C 98% 6.3 mph NE10.1 kmh NE 15.0 mph24.1 kmh 29.84 in1010.5 mb 0.03 in0.8 mm 0.00 in0.0 mm 0.55 in14.0 mm
09:00 AM 52.5°F11.4°C 52.0°F11.1°C 98% 8.9 mph NE14.3 kmh NE 15.0 mph24.1 kmh 29.84 in1010.5 mb 0.03 in0.8 mm 0.00 in0.0 mm 0.55 in14.0 mm
08:59 AM 52.7°F11.5°C 52.2°F11.2°C 98% 11.9 mph ESE19.2 kmh ESE 15.0 mph24.1 kmh 29.84 in1010.5 mb 0.03 in0.8 mm 0.00 in0.0 mm 0.55 in14.0 mm
08:58 AM 52.7°F11.5°C 52.2°F11.2°C 98% 4.7 mph ENE7.6 kmh ENE 15.0 mph24.1 kmh 29.84 in1010.5 mb 0.03 in0.8 mm 0.00 in0.0 mm 0.55 in14.0 mm
08:57 AM 52.7°F11.5°C 52.2°F11.2°C 98% 8.3 mph NE13.4 kmh NE 15.0 mph24.1 kmh 29.84 in1010.5 mb 0.03 in0.8 mm 0.00 in0.0 mm 0.55 in14.0 mm
08:56 AM 52.7°F11.5°C 52.2°F11.2°C 98% 5.3 mph ESE8.5 kmh ESE 15.0 mph24.1 kmh 29.84 in1010.5 mb 0.03 in0.8 mm 0.60 in15.2 mm 0.55 in14.0 mm
08:55 AM 52.7°F11.5°C 52.2°F11.2°C 98% 6.3 mph E10.1 kmh E 15.0 mph24.1 kmh 29.84 in1010.5 mb 0.02 in0.5 mm 0.00 in0.0 mm 0.54 in13.7 mm
08:54 AM 52.7°F11.5°C 52.2°F11.2°C 98% 4.2 mph NNE6.8 kmh NNE 15.0 mph24.1 kmh 29.84 in1010.5 mb 0.02 in0.5 mm 0.00 in0.0 mm 0.54 in13.7 mm
08:53 AM 52.7°F11.5°C 52.2°F11.2°C 98% 6.8 mph NE10.9 kmh NE 15.0 mph24.1 kmh 29.84 in1010.5 mb 0.02 in0.5 mm 0.00 in0.0 mm 0.54 in13.7 mm
08:52 AM 52.7°F11.5°C 52.2°F11.2°C 98% 4.7 mph ESE7.6 kmh ESE 11.4 mph18.3 kmh 29.84 in1010.5 mb 0.02 in0.5 mm 0.00 in0.0 mm 0.54 in13.7 mm
08:51 AM 52.5°F11.4°C 52.0°F11.1°C 98% 3.2 mph NE5.1 kmh NE 11.4 mph18.3 kmh 29.84 in1010.5 mb 0.02 in0.5 mm 0.00 in0.0 mm 0.54 in13.7 mm
08:50 AM 52.5°F11.4°C 52.0°F11.1°C 98% 4.7 mph E7.6 kmh E 11.4 mph18.3 kmh 29.84 in1010.5 mb 0.03 in0.8 mm 0.00 in0.0 mm 0.54 in13.7 mm
08:49 AM 52.5°F11.4°C 52.0°F11.1°C 98% 7.3 mph ENE11.7 kmh ENE 11.4 mph18.3 kmh 29.84 in1010.5 mb 0.03 in0.8 mm 0.00 in0.0 mm 0.54 in13.7 mm
08:48 AM 52.5°F11.4°C 52.0°F11.1°C 98% 4.7 mph ESE7.6 kmh ESE 11.4 mph18.3 kmh 29.84 in1010.5 mb 0.03 in0.8 mm 0.00 in0.0 mm 0.54 in13.7 mm
08:47 AM 52.5°F11.4°C 52.0°F11.1°C 98% 11.4 mph NE18.3 kmh NE 11.4 mph18.3 kmh 29.84 in1010.5 mb 0.03 in0.8 mm 0.00 in0.0 mm 0.54 in13.7 mm
08:46 AM 52.5°F11.4°C 52.0°F11.1°C 98% 6.8 mph ENE10.9 kmh ENE 9.9 mph15.9 kmh 29.84 in1010.5 mb 0.03 in0.8 mm 0.00 in0.0 mm 0.54 in13.7 mm
08:45 AM 52.5°F11.4°C 52.0°F11.1°C 98% 7.8 mph E12.6 kmh E 10.9 mph17.5 kmh 29.84 in1010.5 mb 0.03 in0.8 mm 0.00 in0.0 mm 0.54 in13.7 mm
08:44 AM 52.5°F11.4°C 52.0°F11.1°C 98% 7.3 mph ESE11.7 kmh ESE 10.9 mph17.5 kmh 29.84 in1010.5 mb 0.03 in0.8 mm 0.00 in0.0 mm 0.54 in13.7 mm
08:43 AM 52.5°F11.4°C 52.0°F11.1°C 98% 6.3 mph ESE10.1 kmh ESE 10.9 mph17.5 kmh 29.84 in1010.5 mb 0.04 in1.0 mm 0.00 in0.0 mm 0.54 in13.7 mm
08:42 AM 52.5°F11.4°C 52.0°F11.1°C 98% 4.7 mph NE7.6 kmh NE 10.9 mph17.5 kmh 29.84 in1010.5 mb 0.04 in1.0 mm 0.00 in0.0 mm 0.54 in13.7 mm
08:41 AM 52.5°F11.4°C 52.0°F11.1°C 98% 6.8 mph E10.9 kmh E 10.9 mph17.5 kmh 29.84 in1010.5 mb 0.04 in1.0 mm 0.00 in0.0 mm 0.54 in13.7 mm
08:40 AM 52.5°F11.4°C 52.0°F11.1°C 98% 6.8 mph ESE10.9 kmh ESE 10.9 mph17.5 kmh 29.84 in1010.5 mb 0.04 in1.0 mm 0.00 in0.0 mm 0.54 in13.7 mm
08:39 AM 52.5°F11.4°C 52.0°F11.1°C 98% 5.3 mph E8.5 kmh E 10.9 mph17.5 kmh 29.84 in1010.5 mb 0.04 in1.0 mm 0.00 in0.0 mm 0.54 in13.7 mm
08:38 AM 52.5°F11.4°C 52.0°F11.1°C 98% 9.4 mph ENE15.1 kmh ENE 10.9 mph17.5 kmh 29.84 in1010.5 mb 0.04 in1.0 mm 0.00 in0.0 mm 0.54 in13.7 mm
08:37 AM 52.5°F11.4°C 52.0°F11.1°C 98% 5.8 mph ENE9.3 kmh ENE 10.9 mph17.5 kmh 29.84 in1010.5 mb 0.04 in1.0 mm 0.00 in0.0 mm 0.54 in13.7 mm
08:36 AM 52.5°F11.4°C 52.0°F11.1°C 98% 10.9 mph NE17.5 kmh NE 10.9 mph17.5 kmh 29.84 in1010.5 mb 0.04 in1.0 mm 0.00 in0.0 mm 0.54 in13.7 mm
08:35 AM 52.5°F11.4°C 52.0°F11.1°C 98% 9.9 mph ESE15.9 kmh ESE 10.4 mph16.7 kmh 29.84 in1010.5 mb 0.04 in1.0 mm 0.00 in0.0 mm 0.54 in13.7 mm
08:34 AM 52.5°F11.4°C 52.0°F11.1°C 98% 10.4 mph ESE16.7 kmh ESE 13.0 mph20.9 kmh 29.84 in1010.5 mb 0.04 in1.0 mm 0.00 in0.0 mm 0.54 in13.7 mm
08:33 AM 52.5°F11.4°C 52.0°F11.1°C 98% 3.7 mph SE6.0 kmh SE 13.0 mph20.9 kmh 29.84 in1010.5 mb 0.04 in1.0 mm 0.00 in0.0 mm 0.54 in13.7 mm
08:32 AM 52.5°F11.4°C 52.0°F11.1°C 98% 4.7 mph S7.6 kmh S 13.0 mph20.9 kmh 29.84 in1010.5 mb 0.04 in1.0 mm 0.00 in0.0 mm 0.54 in13.7 mm
08:31 AM 52.5°F11.4°C 52.0°F11.1°C 98% 5.8 mph E9.3 kmh E 13.0 mph20.9 kmh 29.84 in1010.5 mb 0.04 in1.0 mm 0.00 in0.0 mm 0.54 in13.7 mm
08:30 AM 52.5°F11.4°C 52.0°F11.1°C 98% 6.8 mph ENE10.9 kmh ENE 13.0 mph20.9 kmh 29.84 in1010.5 mb 0.04 in1.0 mm 0.00 in0.0 mm 0.54 in13.7 mm
08:29 AM 52.3°F11.3°C 51.8°F11.0°C 98% 3.7 mph E6.0 kmh E 13.0 mph20.9 kmh 29.84 in1010.5 mb 0.04 in1.0 mm 0.00 in0.0 mm 0.54 in13.7 mm
08:28 AM 52.3°F11.3°C 51.8°F11.0°C 98% 3.7 mph ESE6.0 kmh ESE 13.0 mph20.9 kmh 29.84 in1010.5 mb 0.05 in1.3 mm 0.00 in0.0 mm 0.54 in13.7 mm
08:27 AM 52.3°F11.3°C 51.8°F11.0°C 98% 8.9 mph NE14.3 kmh NE 13.0 mph20.9 kmh 29.84 in1010.5 mb 0.05 in1.3 mm 0.00 in0.0 mm 0.54 in13.7 mm
08:26 AM 52.3°F11.3°C 51.8°F11.0°C 98% 2.7 mph E4.3 kmh E 13.0 mph20.9 kmh 29.84 in1010.5 mb 0.05 in1.3 mm 0.00 in0.0 mm 0.54 in13.7 mm
08:25 AM 52.3°F11.3°C 51.8°F11.0°C 98% 8.3 mph E13.4 kmh E 13.0 mph20.9 kmh 29.84 in1010.5 mb 0.05 in1.3 mm 0.00 in0.0 mm 0.54 in13.7 mm
08:24 AM 52.3°F11.3°C 51.8°F11.0°C 98% 8.3 mph ENE13.4 kmh ENE 11.9 mph19.2 kmh 29.84 in1010.5 mb 0.05 in1.3 mm 0.00 in0.0 mm 0.54 in13.7 mm
08:23 AM 52.2°F11.2°C 51.7°F10.9°C 98% 6.3 mph NE10.1 kmh NE 11.9 mph19.2 kmh 29.84 in1010.5 mb 0.05 in1.3 mm 0.00 in0.0 mm 0.54 in13.7 mm
08:22 AM 52.2°F11.2°C 51.7°F10.9°C 98% 4.7 mph ESE7.6 kmh ESE 11.9 mph19.2 kmh 29.84 in1010.5 mb 0.06 in1.5 mm 0.00 in0.0 mm 0.54 in13.7 mm
08:21 AM 52.2°F11.2°C 51.7°F10.9°C 98% 6.3 mph ESE10.1 kmh ESE 11.9 mph19.2 kmh 29.84 in1010.5 mb 0.06 in1.5 mm 0.00 in0.0 mm 0.54 in13.7 mm
08:20 AM 52.2°F11.2°C 51.7°F10.9°C 98% 6.8 mph ENE10.9 kmh ENE 11.9 mph19.2 kmh 29.84 in1010.5 mb 0.06 in1.5 mm 0.00 in0.0 mm 0.54 in13.7 mm
08:19 AM 52.2°F11.2°C 51.7°F10.9°C 98% 3.7 mph SE6.0 kmh SE 11.9 mph19.2 kmh 29.84 in1010.5 mb 0.06 in1.5 mm 0.00 in0.0 mm 0.54 in13.7 mm
08:18 AM 52.2°F11.2°C 51.7°F10.9°C 98% 4.7 mph ESE7.6 kmh ESE 11.9 mph19.2 kmh 29.84 in1010.5 mb 0.06 in1.5 mm 0.60 in15.2 mm 0.54 in13.7 mm
08:17 AM 52.2°F11.2°C 51.7°F10.9°C 98% 4.7 mph E7.6 kmh E 11.9 mph19.2 kmh 29.84 in1010.5 mb 0.05 in1.3 mm 0.00 in0.0 mm 0.53 in13.5 mm
08:16 AM 52.2°F11.2°C 51.7°F10.9°C 98% 9.9 mph NE15.9 kmh NE 11.9 mph19.2 kmh 29.84 in1010.5 mb 0.05 in1.3 mm 0.00 in0.0 mm 0.53 in13.5 mm
08:15 AM 52.2°F11.2°C 51.7°F10.9°C 98% 11.9 mph NE19.2 kmh NE 11.9 mph19.2 kmh 29.84 in1010.5 mb 0.05 in1.3 mm 0.00 in0.0 mm 0.53 in13.5 mm
08:14 AM 52.2°F11.2°C 51.7°F10.9°C 98% 8.3 mph NNE13.4 kmh NNE 8.9 mph14.3 kmh 29.84 in1010.5 mb 0.05 in1.3 mm 0.00 in0.0 mm 0.53 in13.5 mm
08:13 AM 52.2°F11.2°C 51.7°F10.9°C 98% 3.2 mph NE5.1 kmh NE 8.9 mph14.3 kmh 29.84 in1010.5 mb 0.05 in1.3 mm 0.00 in0.0 mm 0.53 in13.5 mm
08:12 AM 52.2°F11.2°C 51.7°F10.9°C 98% 4.7 mph ESE7.6 kmh ESE 8.9 mph14.3 kmh 29.84 in1010.5 mb 0.05 in1.3 mm 0.00 in0.0 mm 0.53 in13.5 mm
08:11 AM 52.2°F11.2°C 51.7°F10.9°C 98% 5.3 mph ENE8.5 kmh ENE 8.9 mph14.3 kmh 29.84 in1010.5 mb 0.05 in1.3 mm 0.00 in0.0 mm 0.53 in13.5 mm
08:10 AM 52.2°F11.2°C 51.9°F11.1°C 99% 5.8 mph ESE9.3 kmh ESE 11.4 mph18.3 kmh 29.84 in1010.5 mb 0.06 in1.5 mm 0.00 in0.0 mm 0.53 in13.5 mm
08:09 AM 52.2°F11.2°C 51.9°F11.1°C 99% 6.8 mph ESE10.9 kmh ESE 11.4 mph18.3 kmh 29.84 in1010.5 mb 0.06 in1.5 mm 0.00 in0.0 mm 0.53 in13.5 mm
08:08 AM 52.2°F11.2°C 51.9°F11.1°C 99% 3.2 mph NNE5.1 kmh NNE 11.4 mph18.3 kmh 29.84 in1010.5 mb 0.06 in1.5 mm 0.60 in15.2 mm 0.53 in13.5 mm
08:07 AM 52.2°F11.2°C 51.9°F11.1°C 99% 8.9 mph ESE14.3 kmh ESE 11.4 mph18.3 kmh 29.84 in1010.5 mb 0.05 in1.3 mm 0.00 in0.0 mm 0.52 in13.2 mm
08:06 AM 52.2°F11.2°C 51.9°F11.1°C 99% 7.3 mph E11.7 kmh E 11.4 mph18.3 kmh 29.84 in1010.5 mb 0.06 in1.5 mm 0.00 in0.0 mm 0.52 in13.2 mm
08:05 AM 52.2°F11.2°C 51.9°F11.1°C 99% 6.3 mph ESE10.1 kmh ESE 11.4 mph18.3 kmh 29.84 in1010.5 mb 0.06 in1.5 mm 0.00 in0.0 mm 0.52 in13.2 mm
08:04 AM 52.2°F11.2°C 51.9°F11.1°C 99% 7.8 mph NNE12.6 kmh NNE 11.4 mph18.3 kmh 29.84 in1010.5 mb 0.06 in1.5 mm 0.00 in0.0 mm 0.52 in13.2 mm
08:03 AM 52.2°F11.2°C 51.9°F11.1°C 99% 4.7 mph ESE7.6 kmh ESE 11.4 mph18.3 kmh 29.84 in1010.5 mb 0.06 in1.5 mm 0.00 in0.0 mm 0.52 in13.2 mm
08:02 AM 52.2°F11.2°C 51.9°F11.1°C 99% 6.3 mph SSE10.1 kmh SSE 11.4 mph18.3 kmh 29.84 in1010.5 mb 0.07 in1.8 mm 0.00 in0.0 mm 0.52 in13.2 mm
08:01 AM 52.2°F11.2°C 51.9°F11.1°C 99% 7.3 mph NE11.7 kmh NE 11.4 mph18.3 kmh 29.85 in1010.8 mb 0.07 in1.8 mm 0.00 in0.0 mm 0.52 in13.2 mm
08:00 AM 52.2°F11.2°C 51.9°F11.1°C 99% 8.3 mph NNE13.4 kmh NNE 10.4 mph16.7 kmh 29.85 in1010.8 mb 0.08 in2.0 mm 0.00 in0.0 mm 0.52 in13.2 mm
07:59 AM 52.2°F11.2°C 51.9°F11.1°C 99% 4.7 mph ESE7.6 kmh ESE 10.4 mph16.7 kmh 29.85 in1010.8 mb 0.08 in2.0 mm 0.00 in0.0 mm 0.52 in13.2 mm
07:58 AM 52.2°F11.2°C 51.9°F11.1°C 99% 8.3 mph E13.4 kmh E 9.9 mph15.9 kmh 29.85 in1010.8 mb 0.08 in2.0 mm 0.00 in0.0 mm 0.52 in13.2 mm
07:57 AM 52.2°F11.2°C 51.9°F11.1°C 99% 5.3 mph E8.5 kmh E 9.9 mph15.9 kmh 29.85 in1010.8 mb 0.09 in2.3 mm 0.00 in0.0 mm 0.52 in13.2 mm
07:56 AM 52.2°F11.2°C 51.9°F11.1°C 99% 2.2 mph NNE3.5 kmh NNE 9.9 mph15.9 kmh 29.85 in1010.8 mb 0.09 in2.3 mm 0.00 in0.0 mm 0.52 in13.2 mm
07:55 AM 52.0°F11.1°C 51.7°F10.9°C 99% 4.2 mph ESE6.8 kmh ESE 9.9 mph15.9 kmh 29.85 in1010.8 mb 0.10 in2.5 mm 0.00 in0.0 mm 0.52 in13.2 mm
07:54 AM 52.0°F11.1°C 51.7°F10.9°C 99% 6.8 mph E10.9 kmh E 9.9 mph15.9 kmh 29.85 in1010.8 mb 0.10 in2.5 mm 0.00 in0.0 mm 0.52 in13.2 mm
07:53 AM 52.0°F11.1°C 51.7°F10.9°C 99% 5.3 mph ENE8.5 kmh ENE 9.9 mph15.9 kmh 29.85 in1010.8 mb 0.10 in2.5 mm 0.00 in0.0 mm 0.52 in13.2 mm
07:52 AM 52.0°F11.1°C 51.7°F10.9°C 99% 8.3 mph E13.4 kmh E 11.4 mph18.3 kmh 29.85 in1010.8 mb 0.10 in2.5 mm 0.00 in0.0 mm 0.52 in13.2 mm
07:51 AM 52.0°F11.1°C 51.7°F10.9°C 99% 4.7 mph ENE7.6 kmh ENE 11.4 mph18.3 kmh 29.85 in1010.8 mb 0.11 in2.8 mm 0.60 in15.2 mm 0.52 in13.2 mm
07:50 AM 52.0°F11.1°C 51.7°F10.9°C 99% 3.2 mph ESE5.1 kmh ESE 11.4 mph18.3 kmh 29.85 in1010.8 mb 0.10 in2.5 mm 0.00 in0.0 mm 0.51 in13.0 mm
07:49 AM 52.0°F11.1°C 51.7°F10.9°C 99% 1.7 mph NNE2.7 kmh NNE 11.4 mph18.3 kmh 29.85 in1010.8 mb 0.11 in2.8 mm 0.00 in0.0 mm 0.51 in13.0 mm
07:48 AM 52.0°F11.1°C 51.7°F10.9°C 99% 6.8 mph ESE10.9 kmh ESE 11.4 mph18.3 kmh 29.85 in1010.8 mb 0.11 in2.8 mm 0.00 in0.0 mm 0.51 in13.0 mm
07:47 AM 52.0°F11.1°C 51.7°F10.9°C 99% 6.8 mph ESE10.9 kmh ESE 11.4 mph18.3 kmh 29.85 in1010.8 mb 0.11 in2.8 mm 0.00 in0.0 mm 0.51 in13.0 mm
07:46 AM 52.0°F11.1°C 51.7°F10.9°C 99% 5.3 mph NE8.5 kmh NE 11.4 mph18.3 kmh 29.85 in1010.8 mb 0.11 in2.8 mm 0.00 in0.0 mm 0.51 in13.0 mm
07:45 AM 52.0°F11.1°C 51.7°F10.9°C 99% 6.8 mph N10.9 kmh N 11.4 mph18.3 kmh 29.85 in1010.8 mb 0.12 in3.0 mm 0.00 in0.0 mm 0.51 in13.0 mm
07:44 AM 52.0°F11.1°C 51.7°F10.9°C 99% 6.8 mph ESE10.9 kmh ESE 11.4 mph18.3 kmh 29.85 in1010.8 mb 0.12 in3.0 mm 0.60 in15.2 mm 0.51 in13.0 mm
07:43 AM 52.0°F11.1°C 51.7°F10.9°C 99% 11.4 mph NE18.3 kmh NE 11.4 mph18.3 kmh 29.85 in1010.8 mb 0.11 in2.8 mm 0.00 in0.0 mm 0.50 in12.7 mm
07:42 AM 52.0°F11.1°C 51.7°F10.9°C 99% 6.3 mph ESE10.1 kmh ESE 10.4 mph16.7 kmh 29.85 in1010.8 mb 0.11 in2.8 mm 0.00 in0.0 mm 0.50 in12.7 mm
07:41 AM 52.0°F11.1°C 51.7°F10.9°C 99% 7.8 mph E12.6 kmh E 10.4 mph16.7 kmh 29.85 in1010.8 mb 0.12 in3.0 mm 0.00 in0.0 mm 0.50 in12.7 mm
07:40 AM 52.0°F11.1°C 51.7°F10.9°C 99% 7.3 mph NE11.7 kmh NE 10.4 mph16.7 kmh 29.85 in1010.8 mb 0.12 in3.0 mm 0.00 in0.0 mm 0.50 in12.7 mm
07:39 AM 52.0°F11.1°C 51.7°F10.9°C 99% 5.8 mph ESE9.3 kmh ESE 10.4 mph16.7 kmh 29.85 in1010.8 mb 0.12 in3.0 mm 0.00 in0.0 mm 0.50 in12.7 mm
07:38 AM 52.0°F11.1°C 51.7°F10.9°C 99% 5.8 mph ESE9.3 kmh ESE 10.4 mph16.7 kmh 29.86 in1011.2 mb 0.12 in3.0 mm 0.00 in0.0 mm 0.50 in12.7 mm
07:37 AM 52.0°F11.1°C 51.7°F10.9°C 99% 9.9 mph NE15.9 kmh NE 9.9 mph15.9 kmh 29.86 in1011.2 mb 0.13 in3.3 mm 0.00 in0.0 mm 0.50 in12.7 mm
07:36 AM 52.0°F11.1°C 51.7°F10.9°C 99% 4.7 mph E7.6 kmh E 8.9 mph14.3 kmh 29.86 in1011.2 mb 0.14 in3.6 mm 0.00 in0.0 mm 0.50 in12.7 mm
07:35 AM 52.0°F11.1°C 51.7°F10.9°C 99% 7.3 mph ESE11.7 kmh ESE 9.4 mph15.1 kmh 29.86 in1011.2 mb 0.14 in3.6 mm 0.00 in0.0 mm 0.50 in12.7 mm
07:34 AM 52.0°F11.1°C 51.7°F10.9°C 99% 7.3 mph NNE11.7 kmh NNE 9.4 mph15.1 kmh 29.86 in1011.2 mb 0.15 in3.8 mm 0.00 in0.0 mm 0.50 in12.7 mm
07:33 AM 52.0°F11.1°C 51.7°F10.9°C 99% 5.3 mph E8.5 kmh E 9.4 mph15.1 kmh 29.86 in1011.2 mb 0.16 in4.1 mm 0.00 in0.0 mm 0.50 in12.7 mm
07:32 AM 52.0°F11.1°C 51.7°F10.9°C 99% 8.3 mph ENE13.4 kmh ENE 10.4 mph16.7 kmh 29.86 in1011.2 mb 0.16 in4.1 mm 0.00 in0.0 mm 0.50 in12.7 mm
07:31 AM 52.0°F11.1°C 51.7°F10.9°C 99% 2.2 mph S3.5 kmh S 10.4 mph16.7 kmh 29.86 in1011.2 mb 0.16 in4.1 mm 0.00 in0.0 mm 0.50 in12.7 mm
07:30 AM 52.0°F11.1°C 51.7°F10.9°C 99% 2.7 mph E4.3 kmh E 10.4 mph16.7 kmh 29.86 in1011.2 mb 0.17 in4.3 mm 0.00 in0.0 mm 0.50 in12.7 mm
07:29 AM 52.0°F11.1°C 51.7°F10.9°C 99% 4.7 mph ENE7.6 kmh ENE 10.4 mph16.7 kmh 29.86 in1011.2 mb 0.18 in4.6 mm 0.60 in15.2 mm 0.50 in12.7 mm
07:28 AM 52.0°F11.1°C 51.7°F10.9°C 99% 5.3 mph NNE8.5 kmh NNE 10.4 mph16.7 kmh 29.86 in1011.2 mb 0.17 in4.3 mm 0.00 in0.0 mm 0.49 in12.4 mm
07:27 AM 52.0°F11.1°C 51.7°F10.9°C 99% 4.2 mph NNE6.8 kmh NNE 10.4 mph16.7 kmh 29.86 in1011.2 mb 0.18 in4.6 mm 0.00 in0.0 mm 0.49 in12.4 mm
07:26 AM 52.0°F11.1°C 51.7°F10.9°C 99% 5.8 mph NNE9.3 kmh NNE 10.4 mph16.7 kmh 29.86 in1011.2 mb 0.18 in4.6 mm 0.00 in0.0 mm 0.49 in12.4 mm
07:25 AM 52.0°F11.1°C 51.7°F10.9°C 99% 5.3 mph E8.5 kmh E 10.4 mph16.7 kmh 29.86 in1011.2 mb 0.19 in4.8 mm 0.00 in0.0 mm 0.49 in12.4 mm
07:24 AM 52.0°F11.1°C 51.7°F10.9°C 99% 5.3 mph NNE8.5 kmh NNE 10.4 mph16.7 kmh 29.86 in1011.2 mb 0.19 in4.8 mm 0.00 in0.0 mm 0.49 in12.4 mm
07:23 AM 52.0°F11.1°C 51.7°F10.9°C 99% 5.8 mph NE9.3 kmh NE 10.4 mph16.7 kmh 29.86 in1011.2 mb 0.19 in4.8 mm 0.00 in0.0 mm 0.49 in12.4 mm
07:22 AM 52.2°F11.2°C 51.9°F11.1°C 99% 3.2 mph NE5.1 kmh NE 7.3 mph11.7 kmh 29.86 in1011.2 mb 0.19 in4.8 mm 0.60 in15.2 mm 0.49 in12.4 mm
07:21 AM 52.2°F11.2°C 51.9°F11.1°C 99% 3.2 mph E5.1 kmh E 7.3 mph11.7 kmh 29.86 in1011.2 mb 0.18 in4.6 mm 0.00 in0.0 mm 0.48 in12.2 mm
07:20 AM 52.2°F11.2°C 51.9°F11.1°C 99% 3.7 mph NE6.0 kmh NE 7.3 mph11.7 kmh 29.86 in1011.2 mb 0.19 in4.8 mm 0.00 in0.0 mm 0.48 in12.2 mm
07:19 AM 52.2°F11.2°C 51.9°F11.1°C 99% 3.7 mph E6.0 kmh E 7.3 mph11.7 kmh 29.86 in1011.2 mb 0.19 in4.8 mm 0.00 in0.0 mm 0.48 in12.2 mm
07:18 AM 52.2°F11.2°C 51.9°F11.1°C 99% 3.2 mph NE5.1 kmh NE 6.8 mph10.9 kmh 29.86 in1011.2 mb 0.20 in5.1 mm 0.00 in0.0 mm 0.48 in12.2 mm
07:17 AM 52.2°F11.2°C 51.9°F11.1°C 99% 6.8 mph NE10.9 kmh NE 6.8 mph10.9 kmh 29.86 in1011.2 mb 0.20 in5.1 mm 0.00 in0.0 mm 0.48 in12.2 mm
07:16 AM 52.2°F11.2°C 51.9°F11.1°C 99% 4.2 mph NE6.8 kmh NE 6.8 mph10.9 kmh 29.86 in1011.2 mb 0.20 in5.1 mm 0.00 in0.0 mm 0.48 in12.2 mm
07:15 AM 52.2°F11.2°C 51.9°F11.1°C 99% 4.7 mph E7.6 kmh E 6.8 mph10.9 kmh 29.86 in1011.2 mb 0.21 in5.3 mm 0.00 in0.0 mm 0.48 in12.2 mm
07:14 AM 52.2°F11.2°C 51.9°F11.1°C 99% 4.2 mph E6.8 kmh E 6.8 mph10.9 kmh 29.87 in1011.5 mb 0.21 in5.3 mm 0.00 in0.0 mm 0.48 in12.2 mm
07:13 AM 52.2°F11.2°C 51.9°F11.1°C 99% 4.7 mph ESE7.6 kmh ESE 7.8 mph12.6 kmh 29.87 in1011.5 mb 0.22 in5.6 mm 0.00 in0.0 mm 0.48 in12.2 mm
07:12 AM 52.2°F11.2°C 51.9°F11.1°C 99% 4.2 mph NE6.8 kmh NE 7.8 mph12.6 kmh 29.87 in1011.5 mb 0.22 in5.6 mm 0.00 in0.0 mm 0.48 in12.2 mm
07:11 AM 52.2°F11.2°C 51.9°F11.1°C 99% 3.2 mph NE5.1 kmh NE 7.8 mph12.6 kmh 29.87 in1011.5 mb 0.22 in5.6 mm 0.00 in0.0 mm 0.48 in12.2 mm
07:10 AM 52.2°F11.2°C 51.9°F11.1°C 99% 3.7 mph ENE6.0 kmh ENE 7.8 mph12.6 kmh 29.87 in1011.5 mb 0.22 in5.6 mm 0.00 in0.0 mm 0.47 in11.9 mm
07:09 AM 52.2°F11.2°C 51.9°F11.1°C 99% 6.3 mph ENE10.1 kmh ENE 7.8 mph12.6 kmh 29.87 in1011.5 mb 0.22 in5.6 mm 0.00 in0.0 mm 0.47 in11.9 mm
07:08 AM 52.2°F11.2°C 51.9°F11.1°C 99% 4.2 mph ESE6.8 kmh ESE 7.8 mph12.6 kmh 29.87 in1011.5 mb 0.22 in5.6 mm 0.00 in0.0 mm 0.47 in11.9 mm
07:07 AM 52.2°F11.2°C 51.9°F11.1°C 99% 2.7 mph E4.3 kmh E 7.8 mph12.6 kmh 29.87 in1011.5 mb 0.22 in5.6 mm 0.00 in0.0 mm 0.47 in11.9 mm
07:06 AM 52.2°F11.2°C 51.9°F11.1°C 99% 2.2 mph NE3.5 kmh NE 7.8 mph12.6 kmh 29.87 in1011.5 mb 0.22 in5.6 mm 0.00 in0.0 mm 0.47 in11.9 mm
07:05 AM 52.2°F11.2°C 51.9°F11.1°C 99% 4.7 mph ENE7.6 kmh ENE 7.8 mph12.6 kmh 29.87 in1011.5 mb 0.22 in5.6 mm 0.00 in0.0 mm 0.46 in11.7 mm
07:04 AM 52.2°F11.2°C 51.9°F11.1°C 99% 3.7 mph S6.0 kmh S 7.8 mph12.6 kmh 29.87 in1011.5 mb 0.22 in5.6 mm 0.00 in0.0 mm 0.46 in11.7 mm
07:03 AM 52.2°F11.2°C 51.9°F11.1°C 99% 2.7 mph NE4.3 kmh NE 7.8 mph12.6 kmh 29.87 in1011.5 mb 0.22 in5.6 mm 0.60 in15.2 mm 0.46 in11.7 mm
07:02 AM 52.2°F11.2°C 51.9°F11.1°C 99% 7.8 mph NE12.6 kmh NE 7.8 mph12.6 kmh 29.87 in1011.5 mb 0.21 in5.3 mm 0.00 in0.0 mm 0.45 in11.4 mm
07:01 AM 52.2°F11.2°C 51.9°F11.1°C 99% 2.7 mph NE4.3 kmh NE 6.8 mph10.9 kmh 29.87 in1011.5 mb 0.21 in5.3 mm 0.60 in15.2 mm 0.45 in11.4 mm
07:00 AM 52.2°F11.2°C 51.9°F11.1°C 99% 6.8 mph NE10.9 kmh NE 6.8 mph10.9 kmh 29.87 in1011.5 mb 0.20 in5.1 mm 0.00 in0.0 mm 0.44 in11.2 mm
06:59 AM 52.2°F11.2°C 51.9°F11.1°C 99% 3.2 mph ENE5.1 kmh ENE 6.8 mph10.9 kmh 29.87 in1011.5 mb 0.20 in5.1 mm 0.00 in0.0 mm 0.44 in11.2 mm
06:58 AM 52.2°F11.2°C 51.9°F11.1°C 99% 2.7 mph NNE4.3 kmh NNE 6.8 mph10.9 kmh 29.87 in1011.5 mb 0.21 in5.3 mm 0.60 in15.2 mm 0.44 in11.2 mm
06:57 AM 52.2°F11.2°C 51.9°F11.1°C 99% 4.7 mph E7.6 kmh E 6.8 mph10.9 kmh 29.87 in1011.5 mb 0.20 in5.1 mm 0.00 in0.0 mm 0.43 in10.9 mm
06:56 AM 52.2°F11.2°C 51.9°F11.1°C 99% 3.7 mph E6.0 kmh E 6.8 mph10.9 kmh 29.87 in1011.5 mb 0.20 in5.1 mm 0.60 in15.2 mm 0.43 in10.9 mm
06:55 AM 52.2°F11.2°C 51.9°F11.1°C 99% 4.2 mph NE6.8 kmh NE 6.8 mph10.9 kmh 29.87 in1011.5 mb 0.19 in4.8 mm 0.00 in0.0 mm 0.42 in10.7 mm
06:54 AM 52.2°F11.2°C 51.9°F11.1°C 99% 3.2 mph NE5.1 kmh NE 6.8 mph10.9 kmh 29.87 in1011.5 mb 0.19 in4.8 mm 0.00 in0.0 mm 0.42 in10.7 mm
06:53 AM 52.2°F11.2°C 51.9°F11.1°C 99% 1.1 mph E1.8 kmh E 6.8 mph10.9 kmh 29.87 in1011.5 mb 0.20 in5.1 mm 0.00 in0.0 mm 0.42 in10.7 mm
06:52 AM 52.2°F11.2°C 51.9°F11.1°C 99% 2.7 mph NE4.3 kmh NE 8.3 mph13.4 kmh 29.87 in1011.5 mb 0.20 in5.1 mm 0.60 in15.2 mm 0.42 in10.7 mm
06:51 AM 52.2°F11.2°C 51.9°F11.1°C 99% 3.7 mph ESE6.0 kmh ESE 8.3 mph13.4 kmh 29.87 in1011.5 mb 0.19 in4.8 mm 0.00 in0.0 mm 0.41 in10.4 mm
06:50 AM 52.2°F11.2°C 51.9°F11.1°C 99% 5.3 mph ENE8.5 kmh ENE 8.3 mph13.4 kmh 29.87 in1011.5 mb 0.19 in4.8 mm 0.60 in15.2 mm 0.41 in10.4 mm
06:49 AM 52.2°F11.2°C 51.9°F11.1°C 99% 1.1 mph NNW1.8 kmh NNW 8.3 mph13.4 kmh 29.87 in1011.5 mb 0.18 in4.6 mm 0.00 in0.0 mm 0.40 in10.2 mm
06:48 AM 52.2°F11.2°C 51.9°F11.1°C 99% 3.7 mph NNW6.0 kmh NNW 8.3 mph13.4 kmh 29.87 in1011.5 mb 0.18 in4.6 mm 0.00 in0.0 mm 0.40 in10.2 mm
06:47 AM 52.2°F11.2°C 51.9°F11.1°C 99% 3.2 mph NE5.1 kmh NE 8.3 mph13.4 kmh 29.87 in1011.5 mb 0.18 in4.6 mm 0.00 in0.0 mm 0.40 in10.2 mm
06:46 AM 52.2°F11.2°C 51.9°F11.1°C 99% 4.2 mph ENE6.8 kmh ENE 8.3 mph13.4 kmh 29.87 in1011.5 mb 0.19 in4.8 mm 0.60 in15.2 mm 0.40 in10.2 mm
06:45 AM 52.2°F11.2°C 51.9°F11.1°C 99% 4.7 mph NNE7.6 kmh NNE 8.3 mph13.4 kmh 29.87 in1011.5 mb 0.18 in4.6 mm 0.00 in0.0 mm 0.39 in9.9 mm
06:44 AM 52.2°F11.2°C 51.9°F11.1°C 99% 6.3 mph ESE10.1 kmh ESE 8.3 mph13.4 kmh 29.87 in1011.5 mb 0.18 in4.6 mm 0.00 in0.0 mm 0.39 in9.9 mm
06:43 AM 52.2°F11.2°C 51.9°F11.1°C 99% 4.2 mph ENE6.8 kmh ENE 8.3 mph13.4 kmh 29.87 in1011.5 mb 0.18 in4.6 mm 0.00 in0.0 mm 0.39 in9.9 mm
06:42 AM 52.2°F11.2°C 51.9°F11.1°C 99% 4.7 mph NE7.6 kmh NE 6.3 mph10.1 kmh 29.87 in1011.5 mb 0.18 in4.6 mm 0.60 in15.2 mm 0.39 in9.9 mm
06:41 AM 52.3°F11.3°C 52.0°F11.1°C 99% 4.7 mph NE7.6 kmh NE 6.3 mph10.1 kmh 29.87 in1011.5 mb 0.17 in4.3 mm 0.00 in0.0 mm 0.38 in9.7 mm
06:40 AM 52.3°F11.3°C 52.0°F11.1°C 99% 2.7 mph ENE4.3 kmh ENE 6.3 mph10.1 kmh 29.87 in1011.5 mb 0.17 in4.3 mm 0.00 in0.0 mm 0.38 in9.7 mm
06:39 AM 52.3°F11.3°C 52.0°F11.1°C 99% 6.3 mph E10.1 kmh E 6.3 mph10.1 kmh 29.87 in1011.5 mb 0.18 in4.6 mm 0.00 in0.0 mm 0.38 in9.7 mm
06:38 AM 52.3°F11.3°C 52.0°F11.1°C 99% Calm Calm 5.3 mph8.5 kmh 29.87 in1011.5 mb 0.18 in4.6 mm 0.60 in15.2 mm 0.38 in9.7 mm
06:37 AM 52.3°F11.3°C 52.0°F11.1°C 99% 2.2 mph NE3.5 kmh NE 5.3 mph8.5 kmh 29.87 in1011.5 mb 0.17 in4.3 mm 0.60 in15.2 mm 0.37 in9.4 mm
06:36 AM 52.3°F11.3°C 52.0°F11.1°C 99% 4.7 mph E7.6 kmh E 6.3 mph10.1 kmh 29.87 in1011.5 mb 0.16 in4.1 mm 0.00 in0.0 mm 0.36 in9.1 mm
06:35 AM 52.3°F11.3°C 52.0°F11.1°C 99% 4.7 mph E7.6 kmh E 6.3 mph10.1 kmh 29.87 in1011.5 mb 0.16 in4.1 mm 0.60 in15.2 mm 0.36 in9.1 mm
06:34 AM 52.3°F11.3°C 52.0°F11.1°C 99% 4.2 mph NE6.8 kmh NE 6.3 mph10.1 kmh 29.87 in1011.5 mb 0.15 in3.8 mm 0.60 in15.2 mm 0.35 in8.9 mm
06:33 AM 52.3°F11.3°C 52.0°F11.1°C 99% 2.7 mph NE4.3 kmh NE 6.3 mph10.1 kmh 29.87 in1011.5 mb 0.14 in3.6 mm 0.00 in0.0 mm 0.34 in8.6 mm
06:32 AM 52.3°F11.3°C 52.0°F11.1°C 99% 2.2 mph NNE3.5 kmh NNE 6.3 mph10.1 kmh 29.87 in1011.5 mb 0.14 in3.6 mm 0.00 in0.0 mm 0.34 in8.6 mm
06:31 AM 52.3°F11.3°C 52.0°F11.1°C 99% 3.2 mph ESE5.1 kmh ESE 6.3 mph10.1 kmh 29.87 in1011.5 mb 0.14 in3.6 mm 0.60 in15.2 mm 0.34 in8.6 mm
06:30 AM 52.3°F11.3°C 52.0°F11.1°C 99% 3.7 mph ENE6.0 kmh ENE 6.3 mph10.1 kmh 29.87 in1011.5 mb 0.13 in3.3 mm 0.60 in15.2 mm 0.33 in8.4 mm
06:29 AM 52.3°F11.3°C 52.0°F11.1°C 99% 3.2 mph NE5.1 kmh NE 6.3 mph10.1 kmh 29.87 in1011.5 mb 0.12 in3.0 mm 0.00 in0.0 mm 0.32 in8.1 mm
06:28 AM 52.3°F11.3°C 52.0°F11.1°C 99% 4.2 mph NNE6.8 kmh NNE 6.3 mph10.1 kmh 29.87 in1011.5 mb 0.12 in3.0 mm 0.60 in15.2 mm 0.32 in8.1 mm
06:27 AM 52.3°F11.3°C 52.0°F11.1°C 99% 6.3 mph E10.1 kmh E 6.3 mph10.1 kmh 29.87 in1011.5 mb 0.11 in2.8 mm 0.00 in0.0 mm 0.31 in7.9 mm
06:26 AM 52.3°F11.3°C 52.0°F11.1°C 99% 2.7 mph ESE4.3 kmh ESE 4.7 mph7.6 kmh 29.86 in1011.2 mb 0.11 in2.8 mm 0.60 in15.2 mm 0.31 in7.9 mm
06:25 AM 52.3°F11.3°C 52.0°F11.1°C 99% 3.7 mph NE6.0 kmh NE 4.7 mph7.6 kmh 29.86 in1011.2 mb 0.10 in2.5 mm 0.00 in0.0 mm 0.30 in7.6 mm
06:24 AM 52.3°F11.3°C 52.0°F11.1°C 99% 2.7 mph ENE4.3 kmh ENE 4.7 mph7.6 kmh 29.86 in1011.2 mb 0.10 in2.5 mm 0.00 in0.0 mm 0.30 in7.6 mm
06:23 AM 52.3°F11.3°C 52.0°F11.1°C 99% 3.2 mph ESE5.1 kmh ESE 4.7 mph7.6 kmh 29.86 in1011.2 mb 0.10 in2.5 mm 0.00 in0.0 mm 0.30 in7.6 mm
06:22 AM 52.3°F11.3°C 52.0°F11.1°C 99% 2.7 mph E4.3 kmh E 6.3 mph10.1 kmh 29.86 in1011.2 mb 0.10 in2.5 mm 0.00 in0.0 mm 0.30 in7.6 mm
06:21 AM 52.3°F11.3°C 52.0°F11.1°C 99% 3.2 mph NE5.1 kmh NE 6.3 mph10.1 kmh 29.86 in1011.2 mb 0.10 in2.5 mm 0.60 in15.2 mm 0.30 in7.6 mm
06:20 AM 52.3°F11.3°C 52.0°F11.1°C 99% 4.7 mph NE7.6 kmh NE 6.3 mph10.1 kmh 29.86 in1011.2 mb 0.09 in2.3 mm 0.00 in0.0 mm 0.29 in7.4 mm
06:19 AM 52.3°F11.3°C 52.0°F11.1°C 99% 3.7 mph ENE6.0 kmh ENE 6.3 mph10.1 kmh 29.86 in1011.2 mb 0.09 in2.3 mm 0.60 in15.2 mm 0.29 in7.4 mm
06:18 AM 52.3°F11.3°C 52.0°F11.1°C 99% 2.7 mph NE4.3 kmh NE 6.3 mph10.1 kmh 29.86 in1011.2 mb 0.08 in2.0 mm 0.00 in0.0 mm 0.28 in7.1 mm
06:17 AM 52.3°F11.3°C 52.0°F11.1°C 99% 2.7 mph NE4.3 kmh NE 6.3 mph10.1 kmh 29.86 in1011.2 mb 0.08 in2.0 mm 0.00 in0.0 mm 0.28 in7.1 mm
06:16 AM 52.3°F11.3°C 52.0°F11.1°C 99% 4.2 mph ENE6.8 kmh ENE 6.3 mph10.1 kmh 29.86 in1011.2 mb 0.08 in2.0 mm 0.60 in15.2 mm 0.28 in7.1 mm
06:15 AM 52.3°F11.3°C 52.0°F11.1°C 99% 2.7 mph NE4.3 kmh NE 6.3 mph10.1 kmh 29.86 in1011.2 mb 0.07 in1.8 mm 0.00 in0.0 mm 0.27 in6.9 mm
06:14 AM 52.3°F11.3°C 52.0°F11.1°C 99% 2.7 mph E4.3 kmh E 6.3 mph10.1 kmh 29.86 in1011.2 mb 0.07 in1.8 mm 0.60 in15.2 mm 0.27 in6.9 mm
06:13 AM 52.3°F11.3°C 52.0°F11.1°C 99% 2.2 mph NNE3.5 kmh NNE 6.3 mph10.1 kmh 29.87 in1011.5 mb 0.06 in1.5 mm 0.00 in0.0 mm 0.26 in6.6 mm
06:12 AM 52.3°F11.3°C 52.0°F11.1°C 99% 2.7 mph ESE4.3 kmh ESE 5.3 mph8.5 kmh 29.87 in1011.5 mb 0.06 in1.5 mm 0.00 in0.0 mm 0.26 in6.6 mm
06:11 AM 52.3°F11.3°C 52.0°F11.1°C 99% 2.7 mph ESE4.3 kmh ESE 5.3 mph8.5 kmh 29.87 in1011.5 mb 0.06 in1.5 mm 0.60 in15.2 mm 0.26 in6.6 mm
06:10 AM 52.3°F11.3°C 52.0°F11.1°C 99% 2.7 mph ESE4.3 kmh ESE 5.3 mph8.5 kmh 29.87 in1011.5 mb 0.05 in1.3 mm 0.00 in0.0 mm 0.25 in6.4 mm
06:09 AM 52.3°F11.3°C 52.0°F11.1°C 99% 3.7 mph ENE6.0 kmh ENE 5.3 mph8.5 kmh 29.87 in1011.5 mb 0.05 in1.3 mm 0.00 in0.0 mm 0.25 in6.4 mm
06:08 AM 52.3°F11.3°C 52.0°F11.1°C 99% 4.2 mph E6.8 kmh E 5.3 mph8.5 kmh 29.87 in1011.5 mb 0.05 in1.3 mm 0.00 in0.0 mm 0.25 in6.4 mm
06:07 AM 52.3°F11.3°C 52.0°F11.1°C 99% 3.2 mph ESE5.1 kmh ESE 5.3 mph8.5 kmh 29.87 in1011.5 mb 0.05 in1.3 mm 0.60 in15.2 mm 0.25 in6.4 mm
06:06 AM 52.3°F11.3°C 52.0°F11.1°C 99% 2.7 mph ENE4.3 kmh ENE 5.3 mph8.5 kmh 29.87 in1011.5 mb 0.04 in1.0 mm 0.00 in0.0 mm 0.24 in6.1 mm
06:05 AM 52.3°F11.3°C 52.0°F11.1°C 99% 3.2 mph NNE5.1 kmh NNE 5.3 mph8.5 kmh 29.87 in1011.5 mb 0.04 in1.0 mm 0.00 in0.0 mm 0.24 in6.1 mm
06:04 AM 52.3°F11.3°C 52.0°F11.1°C 99% Calm Calm 5.3 mph8.5 kmh 29.87 in1011.5 mb 0.04 in1.0 mm 0.00 in0.0 mm 0.24 in6.1 mm
06:03 AM 52.3°F11.3°C 52.0°F11.1°C 99% Calm Calm 5.3 mph8.5 kmh 29.87 in1011.5 mb 0.04 in1.0 mm 0.00 in0.0 mm 0.24 in6.1 mm
06:02 AM 52.3°F11.3°C 52.0°F11.1°C 99% Calm Calm 5.3 mph8.5 kmh 29.87 in1011.5 mb 0.04 in1.0 mm 0.00 in0.0 mm 0.24 in6.1 mm
06:01 AM 52.3°F11.3°C 52.0°F11.1°C 99% Calm Calm 5.3 mph8.5 kmh 29.86 in1011.2 mb 0.04 in1.0 mm 0.00 in0.0 mm 0.24 in6.1 mm
06:00 AM 52.3°F11.3°C 52.0°F11.1°C 99% Calm Calm 5.3 mph8.5 kmh 29.86 in1011.2 mb 0.04 in1.0 mm 0.00 in0.0 mm 0.24 in6.1 mm
05:59 AM 52.3°F11.3°C 52.0°F11.1°C 99% 2.7 mph NE4.3 kmh NE 6.8 mph10.9 kmh 29.86 in1011.2 mb 0.04 in1.0 mm 0.60 in15.2 mm 0.24 in6.1 mm
05:58 AM 52.3°F11.3°C 52.0°F11.1°C 99% 2.7 mph ESE4.3 kmh ESE 6.8 mph10.9 kmh 29.86 in1011.2 mb 0.03 in0.8 mm 0.00 in0.0 mm 0.23 in5.8 mm
05:57 AM 52.3°F11.3°C 52.0°F11.1°C 99% 3.7 mph ESE6.0 kmh ESE 6.8 mph10.9 kmh 29.86 in1011.2 mb 0.03 in0.8 mm 0.00 in0.0 mm 0.23 in5.8 mm
05:56 AM 52.3°F11.3°C 52.0°F11.1°C 99% Calm Calm 6.8 mph10.9 kmh 29.86 in1011.2 mb 0.03 in0.8 mm 0.00 in0.0 mm 0.23 in5.8 mm
05:55 AM 52.3°F11.3°C 52.0°F11.1°C 99% 2.2 mph NE3.5 kmh NE 6.8 mph10.9 kmh 29.86 in1011.2 mb 0.03 in0.8 mm 0.00 in0.0 mm 0.23 in5.8 mm
05:54 AM 52.3°F11.3°C 52.0°F11.1°C 99% 2.2 mph NE3.5 kmh NE 6.8 mph10.9 kmh 29.86 in1011.2 mb 0.03 in0.8 mm 0.00 in0.0 mm 0.23 in5.8 mm
05:53 AM 52.3°F11.3°C 52.0°F11.1°C 99% 2.7 mph ENE4.3 kmh ENE 6.8 mph10.9 kmh 29.86 in1011.2 mb 0.03 in0.8 mm 0.60 in15.2 mm 0.23 in5.8 mm
05:52 AM 52.5°F11.4°C 52.2°F11.2°C 99% 2.2 mph NNE3.5 kmh NNE 6.8 mph10.9 kmh 29.86 in1011.2 mb 0.02 in0.5 mm 0.00 in0.0 mm 0.22 in5.6 mm
05:51 AM 52.5°F11.4°C 52.2°F11.2°C 99% 2.7 mph NE4.3 kmh NE 6.8 mph10.9 kmh 29.86 in1011.2 mb 0.02 in0.5 mm 0.00 in0.0 mm 0.22 in5.6 mm
05:50 AM 52.5°F11.4°C 52.2°F11.2°C 99% 2.2 mph NNW3.5 kmh NNW 6.8 mph10.9 kmh 29.86 in1011.2 mb 0.02 in0.5 mm 0.00 in0.0 mm 0.22 in5.6 mm
05:49 AM 52.5°F11.4°C 52.2°F11.2°C 99% 6.8 mph NNE10.9 kmh NNE 6.8 mph10.9 kmh 29.85 in1010.8 mb 0.02 in0.5 mm 0.00 in0.0 mm 0.22 in5.6 mm
05:48 AM 52.5°F11.4°C 52.2°F11.2°C 99% 3.2 mph NE5.1 kmh NE 5.3 mph8.5 kmh 29.85 in1010.8 mb 0.02 in0.5 mm 0.00 in0.0 mm 0.22 in5.6 mm
05:47 AM 52.5°F11.4°C 52.2°F11.2°C 99% 2.7 mph ESE4.3 kmh ESE 5.3 mph8.5 kmh 29.85 in1010.8 mb 0.02 in0.5 mm 0.60 in15.2 mm 0.22 in5.6 mm
05:46 AM 52.5°F11.4°C 52.2°F11.2°C 99% Calm Calm 5.3 mph8.5 kmh 29.85 in1010.8 mb 0.01 in0.3 mm 0.00 in0.0 mm 0.21 in5.3 mm
05:45 AM 52.5°F11.4°C 52.2°F11.2°C 99% 5.3 mph ENE8.5 kmh ENE 5.3 mph8.5 kmh 29.85 in1010.8 mb 0.01 in0.3 mm 0.00 in0.0 mm 0.21 in5.3 mm
05:44 AM 52.5°F11.4°C 52.2°F11.2°C 99% Calm Calm 3.2 mph5.1 kmh 29.85 in1010.8 mb 0.01 in0.3 mm 0.00 in0.0 mm 0.21 in5.3 mm
05:43 AM 52.5°F11.4°C 52.2°F11.2°C 99% Calm Calm 3.7 mph6.0 kmh 29.85 in1010.8 mb 0.01 in0.3 mm 0.00 in0.0 mm 0.21 in5.3 mm
05:42 AM 52.5°F11.4°C 52.2°F11.2°C 99% Calm Calm 3.7 mph6.0 kmh 29.85 in1010.8 mb 0.01 in0.3 mm 0.00 in0.0 mm 0.21 in5.3 mm
05:41 AM 52.5°F11.4°C 52.2°F11.2°C 99% Calm Calm 4.7 mph7.6 kmh 29.85 in1010.8 mb 0.01 in0.3 mm 0.00 in0.0 mm 0.21 in5.3 mm
05:40 AM 52.5°F11.4°C 52.2°F11.2°C 99% 1.1 mph ENE1.8 kmh ENE 4.7 mph7.6 kmh 29.85 in1010.8 mb 0.01 in0.3 mm 0.60 in15.2 mm 0.21 in5.3 mm
05:39 AM 52.5°F11.4°C 52.2°F11.2°C 99% 1.7 mph ENE2.7 kmh ENE 4.7 mph7.6 kmh 29.85 in1010.8 mb 0.00 in0.0 mm 0.00 in0.0 mm 0.20 in5.1 mm
05:38 AM 52.5°F11.4°C 52.2°F11.2°C 99% 2.2 mph N3.5 kmh N 4.7 mph7.6 kmh 29.84 in1010.5 mb 0.00 in0.0 mm 0.00 in0.0 mm 0.20 in5.1 mm
05:37 AM 52.5°F11.4°C 52.2°F11.2°C 99% 3.2 mph NNE5.1 kmh NNE 4.7 mph7.6 kmh 29.84 in1010.5 mb 0.00 in0.0 mm 0.00 in0.0 mm 0.20 in5.1 mm
05:36 AM 52.5°F11.4°C 52.2°F11.2°C 99% 2.7 mph NNW4.3 kmh NNW 4.7 mph7.6 kmh 29.84 in1010.5 mb 0.00 in0.0 mm 0.00 in0.0 mm 0.20 in5.1 mm
05:35 AM 52.5°F11.4°C 52.2°F11.2°C 99% 2.2 mph NW3.5 kmh NW 4.7 mph7.6 kmh 29.84 in1010.5 mb 0.00 in0.0 mm 0.00 in0.0 mm 0.20 in5.1 mm
05:34 AM 52.5°F11.4°C 52.2°F11.2°C 99% 3.7 mph NE6.0 kmh NE 4.7 mph7.6 kmh 29.84 in1010.5 mb 0.00 in0.0 mm 0.00 in0.0 mm 0.20 in5.1 mm
05:33 AM 52.5°F11.4°C 52.2°F11.2°C 99% 3.2 mph NE5.1 kmh NE 4.7 mph7.6 kmh 29.84 in1010.5 mb 0.00 in0.0 mm 0.00 in0.0 mm 0.20 in5.1 mm
05:32 AM 52.5°F11.4°C 52.2°F11.2°C 99% 2.7 mph NE4.3 kmh NE 4.7 mph7.6 kmh 29.84 in1010.5 mb 0.00 in0.0 mm 0.00 in0.0 mm 0.20 in5.1 mm
05:31 AM 52.5°F11.4°C 52.2°F11.2°C 99% 3.2 mph ENE5.1 kmh ENE 3.7 mph6.0 kmh 29.84 in1010.5 mb 0.00 in0.0 mm 0.00 in0.0 mm 0.20 in5.1 mm
05:30 AM 52.5°F11.4°C 52.2°F11.2°C 99% 1.1 mph E1.8 kmh E 3.7 mph6.0 kmh 29.84 in1010.5 mb 0.00 in0.0 mm 0.00 in0.0 mm 0.20 in5.1 mm
05:29 AM 52.5°F11.4°C 52.2°F11.2°C 99% 3.2 mph ENE5.1 kmh ENE 5.8 mph9.3 kmh 29.84 in1010.5 mb 0.00 in0.0 mm 0.00 in0.0 mm 0.20 in5.1 mm
05:28 AM 52.5°F11.4°C 52.2°F11.2°C 99% 2.2 mph NE3.5 kmh NE 5.8 mph9.3 kmh 29.84 in1010.5 mb 0.00 in0.0 mm 0.00 in0.0 mm 0.20 in5.1 mm
05:27 AM 52.5°F11.4°C 52.2°F11.2°C 99% 2.2 mph S3.5 kmh S 5.8 mph9.3 kmh 29.84 in1010.5 mb 0.00 in0.0 mm 0.00 in0.0 mm 0.20 in5.1 mm
05:26 AM 52.5°F11.4°C 52.2°F11.2°C 99% 2.7 mph SE4.3 kmh SE 5.8 mph9.3 kmh 29.84 in1010.5 mb 0.00 in0.0 mm 0.00 in0.0 mm 0.20 in5.1 mm
05:25 AM 52.5°F11.4°C 52.2°F11.2°C 99% Calm Calm 5.8 mph9.3 kmh 29.84 in1010.5 mb 0.00 in0.0 mm 0.00 in0.0 mm 0.20 in5.1 mm
05:24 AM 52.5°F11.4°C 52.2°F11.2°C 99% 1.1 mph SE1.8 kmh SE 5.8 mph9.3 kmh 29.84 in1010.5 mb 0.00 in0.0 mm 0.00 in0.0 mm 0.20 in5.1 mm
05:23 AM 52.5°F11.4°C 52.2°F11.2°C 99% 2.2 mph NE3.5 kmh NE 5.8 mph9.3 kmh 29.84 in1010.5 mb 0.00 in0.0 mm 0.00 in0.0 mm 0.20 in5.1 mm
05:22 AM 52.5°F11.4°C 52.2°F11.2°C 99% 2.2 mph NNE3.5 kmh NNE 5.8 mph9.3 kmh 29.84 in1010.5 mb 0.00 in0.0 mm 0.00 in0.0 mm 0.20 in5.1 mm
05:21 AM 52.5°F11.4°C 52.2°F11.2°C 99% 2.7 mph ESE4.3 kmh ESE 5.8 mph9.3 kmh 29.84 in1010.5 mb 0.00 in0.0 mm 0.00 in0.0 mm 0.20 in5.1 mm
05:20 AM 52.5°F11.4°C 52.2°F11.2°C 99% 3.7 mph E6.0 kmh E 5.8 mph9.3 kmh 29.84 in1010.5 mb 0.00 in0.0 mm 0.00 in0.0 mm 0.20 in5.1 mm
05:19 AM 52.5°F11.4°C 52.2°F11.2°C 99% 3.7 mph ESE6.0 kmh ESE 5.3 mph8.5 kmh 29.84 in1010.5 mb 0.00 in0.0 mm 0.00 in0.0 mm 0.20 in5.1 mm
05:18 AM 52.5°F11.4°C 52.2°F11.2°C 99% 2.7 mph SE4.3 kmh SE 5.3 mph8.5 kmh 29.84 in1010.5 mb 0.00 in0.0 mm 0.00 in0.0 mm 0.20 in5.1 mm
05:17 AM 52.5°F11.4°C 52.2°F11.2°C 99% 2.7 mph NNE4.3 kmh NNE 5.3 mph8.5 kmh 29.84 in1010.5 mb 0.00 in0.0 mm 0.00 in0.0 mm 0.20 in5.1 mm
05:16 AM 52.5°F11.4°C 52.2°F11.2°C 99% 3.7 mph ENE6.0 kmh ENE 5.3 mph8.5 kmh 29.84 in1010.5 mb 0.00 in0.0 mm 0.00 in0.0 mm 0.20 in5.1 mm
05:15 AM 52.7°F11.5°C 52.4°F11.3°C 99% 3.2 mph ENE5.1 kmh ENE 4.7 mph7.6 kmh 29.84 in1010.5 mb 0.00 in0.0 mm 0.00 in0.0 mm 0.20 in5.1 mm
05:14 AM 52.7°F11.5°C 52.4°F11.3°C 99% 2.2 mph NE3.5 kmh NE 4.7 mph7.6 kmh 29.85 in1010.8 mb 0.00 in0.0 mm 0.00 in0.0 mm 0.20 in5.1 mm
05:13 AM 52.7°F11.5°C 52.4°F11.3°C 99% 1.1 mph E1.8 kmh E 4.7 mph7.6 kmh 29.85 in1010.8 mb 0.00 in0.0 mm 0.00 in0.0 mm 0.20 in5.1 mm
05:12 AM 52.7°F11.5°C 52.4°F11.3°C 99% 2.2 mph NE3.5 kmh NE 4.7 mph7.6 kmh 29.85 in1010.8 mb 0.00 in0.0 mm 0.00 in0.0 mm 0.20 in5.1 mm
05:11 AM 52.7°F11.5°C 52.4°F11.3°C 99% 3.2 mph E5.1 kmh E 3.2 mph5.1 kmh 29.85 in1010.8 mb 0.00 in0.0 mm 0.00 in0.0 mm 0.20 in5.1 mm
05:10 AM 52.7°F11.5°C 52.4°F11.3°C 99% 2.2 mph SE3.5 kmh SE 3.2 mph5.1 kmh 29.85 in1010.8 mb 0.00 in0.0 mm 0.00 in0.0 mm 0.20 in5.1 mm
05:09 AM 52.7°F11.5°C 52.4°F11.3°C 99% 2.7 mph E4.3 kmh E 3.2 mph5.1 kmh 29.85 in1010.8 mb 0.00 in0.0 mm 0.00 in0.0 mm 0.20 in5.1 mm
05:08 AM 52.7°F11.5°C 52.4°F11.3°C 99% Calm Calm 3.2 mph5.1 kmh 29.85 in1010.8 mb 0.00 in0.0 mm 0.00 in0.0 mm 0.20 in5.1 mm
05:07 AM 52.7°F11.5°C 52.4°F11.3°C 99% 2.2 mph SSE3.5 kmh SSE 3.2 mph5.1 kmh 29.85 in1010.8 mb 0.00 in0.0 mm 0.00 in0.0 mm 0.20 in5.1 mm
05:06 AM 52.7°F11.5°C 52.4°F11.3°C 99% 2.7 mph ESE4.3 kmh ESE 3.2 mph5.1 kmh 29.85 in1010.8 mb 0.00 in0.0 mm 0.00 in0.0 mm 0.20 in5.1 mm
05:05 AM 52.7°F11.5°C 52.4°F11.3°C 99% 2.2 mph ESE3.5 kmh ESE 3.7 mph6.0 kmh 29.85 in1010.8 mb 0.00 in0.0 mm 0.00 in0.0 mm 0.20 in5.1 mm
05:04 AM 52.7°F11.5°C 52.4°F11.3°C 99% 1.7 mph NNE2.7 kmh NNE 3.7 mph6.0 kmh 29.85 in1010.8 mb 0.00 in0.0 mm 0.00 in0.0 mm 0.20 in5.1 mm
05:03 AM 52.7°F11.5°C 52.4°F11.3°C 99% 1.7 mph S2.7 kmh S 5.8 mph9.3 kmh 29.85 in1010.8 mb 0.00 in0.0 mm 0.00 in0.0 mm 0.20 in5.1 mm
05:02 AM 52.7°F11.5°C 52.4°F11.3°C 99% 1.1 mph NNE1.8 kmh NNE 7.8 mph12.6 kmh 29.84 in1010.5 mb 0.00 in0.0 mm 0.00 in0.0 mm 0.20 in5.1 mm
05:01 AM 52.7°F11.5°C 52.4°F11.3°C 99% 2.2 mph N3.5 kmh N 7.8 mph12.6 kmh 29.84 in1010.5 mb 0.00 in0.0 mm 0.00 in0.0 mm 0.20 in5.1 mm
05:00 AM 52.7°F11.5°C 52.4°F11.3°C 99% Calm Calm 7.8 mph12.6 kmh 29.84 in1010.5 mb 0.00 in0.0 mm 0.00 in0.0 mm 0.20 in5.1 mm
04:59 AM 52.7°F11.5°C 52.4°F11.3°C 99% 2.2 mph NW3.5 kmh NW 7.8 mph12.6 kmh 29.84 in1010.5 mb 0.00 in0.0 mm 0.00 in0.0 mm 0.20 in5.1 mm
04:58 AM 52.7°F11.5°C 52.4°F11.3°C 99% 1.1 mph NNE1.8 kmh NNE 7.8 mph12.6 kmh 29.84 in1010.5 mb 0.00 in0.0 mm 0.00 in0.0 mm 0.20 in5.1 mm
04:57 AM 52.7°F11.5°C 52.4°F11.3°C 99% Calm Calm 7.8 mph12.6 kmh 29.84 in1010.5 mb 0.00 in0.0 mm 0.00 in0.0 mm 0.20 in5.1 mm
04:56 AM 52.7°F11.5°C 52.4°F11.3°C 99% 2.2 mph NNW3.5 kmh NNW 7.8 mph12.6 kmh 29.84 in1010.5 mb 0.00 in0.0 mm 0.00 in0.0 mm 0.20 in5.1 mm
04:55 AM 52.7°F11.5°C 52.4°F11.3°C 99% 1.1 mph E1.8 kmh E 7.8 mph12.6 kmh 29.84 in1010.5 mb 0.00 in0.0 mm 0.00 in0.0 mm 0.20 in5.1 mm
04:54 AM 52.7°F11.5°C 52.4°F11.3°C 99% 5.8 mph SE9.3 kmh SE 7.8 mph12.6 kmh 29.84 in1010.5 mb 0.00 in0.0 mm 0.00 in0.0 mm 0.20 in5.1 mm
04:53 AM 52.7°F11.5°C 52.4°F11.3°C 99% 5.3 mph SE8.5 kmh SE 7.8 mph12.6 kmh 29.84 in1010.5 mb 0.00 in0.0 mm 0.00 in0.0 mm 0.20 in5.1 mm
04:52 AM 52.7°F11.5°C 52.4°F11.3°C 99% 7.8 mph ENE12.6 kmh ENE 7.8 mph12.6 kmh 29.84 in1010.5 mb 0.00 in0.0 mm 0.00 in0.0 mm 0.20 in5.1 mm
04:51 AM 52.7°F11.5°C 52.4°F11.3°C 99% 2.7 mph ESE4.3 kmh ESE 5.3 mph8.5 kmh 29.84 in1010.5 mb 0.00 in0.0 mm 0.00 in0.0 mm 0.20 in5.1 mm
04:50 AM 52.7°F11.5°C 52.4°F11.3°C 99% 3.7 mph ESE6.0 kmh ESE 5.3 mph8.5 kmh 29.84 in1010.5 mb 0.00 in0.0 mm 0.00 in0.0 mm 0.20 in5.1 mm
04:49 AM 52.5°F11.4°C 52.2°F11.2°C 99% 4.2 mph ESE6.8 kmh ESE 5.3 mph8.5 kmh 29.84 in1010.5 mb 0.00 in0.0 mm 0.00 in0.0 mm 0.20 in5.1 mm
04:48 AM 52.5°F11.4°C 52.2°F11.2°C 99% 4.2 mph ESE6.8 kmh ESE 5.3 mph8.5 kmh 29.84 in1010.5 mb 0.00 in0.0 mm 0.00 in0.0 mm 0.20 in5.1 mm
04:47 AM 52.5°F11.4°C 52.2°F11.2°C 99% 4.2 mph ESE6.8 kmh ESE 5.8 mph9.3 kmh 29.84 in1010.5 mb 0.00 in0.0 mm 0.00 in0.0 mm 0.20 in5.1 mm
04:46 AM 52.5°F11.4°C 52.2°F11.2°C 99% Calm Calm 6.3 mph10.1 kmh 29.84 in1010.5 mb 0.00 in0.0 mm 0.00 in0.0 mm 0.20 in5.1 mm
04:45 AM 52.5°F11.4°C 52.2°F11.2°C 99% Calm Calm 6.3 mph10.1 kmh 29.84 in1010.5 mb 0.00 in0.0 mm 0.00 in0.0 mm 0.20 in5.1 mm
04:44 AM 52.5°F11.4°C 52.2°F11.2°C 99% 1.1 mph SW1.8 kmh SW 6.3 mph10.1 kmh 29.84 in1010.5 mb 0.00 in0.0 mm 0.00 in0.0 mm 0.20 in5.1 mm
04:43 AM 52.5°F11.4°C 52.2°F11.2°C 99% 1.7 mph W2.7 kmh W 6.3 mph10.1 kmh 29.84 in1010.5 mb 0.01 in0.3 mm 0.00 in0.0 mm 0.20 in5.1 mm
04:42 AM 52.5°F11.4°C 52.2°F11.2°C 99% 2.7 mph W4.3 kmh W 6.3 mph10.1 kmh 29.84 in1010.5 mb 0.01 in0.3 mm 0.00 in0.0 mm 0.20 in5.1 mm
04:41 AM 52.5°F11.4°C 52.2°F11.2°C 99% 3.7 mph WSW6.0 kmh WSW 6.3 mph10.1 kmh 29.84 in1010.5 mb 0.01 in0.3 mm 0.00 in0.0 mm 0.20 in5.1 mm
04:40 AM 52.5°F11.4°C 52.2°F11.2°C 99% 2.7 mph W4.3 kmh W 6.3 mph10.1 kmh 29.84 in1010.5 mb 0.01 in0.3 mm 0.00 in0.0 mm 0.20 in5.1 mm
04:39 AM 52.5°F11.4°C 52.2°F11.2°C 99% 4.2 mph ESE6.8 kmh ESE 6.3 mph10.1 kmh 29.84 in1010.5 mb 0.01 in0.3 mm 0.00 in0.0 mm 0.20 in5.1 mm
04:38 AM 52.5°F11.4°C 52.2°F11.2°C 99% 5.8 mph E9.3 kmh E 6.3 mph10.1 kmh 29.85 in1010.8 mb 0.01 in0.3 mm 0.00 in0.0 mm 0.20 in5.1 mm
04:37 AM 52.5°F11.4°C 52.2°F11.2°C 99% 5.8 mph E9.3 kmh E 6.3 mph10.1 kmh 29.85 in1010.8 mb 0.01 in0.3 mm 0.00 in0.0 mm 0.20 in5.1 mm
04:36 AM 52.5°F11.4°C 52.2°F11.2°C 99% Calm Calm 3.7 mph6.0 kmh 29.85 in1010.8 mb 0.01 in0.3 mm 0.00 in0.0 mm 0.20 in5.1 mm
04:35 AM 52.5°F11.4°C 52.2°F11.2°C 99% Calm Calm 3.7 mph6.0 kmh 29.85 in1010.8 mb 0.01 in0.3 mm 0.00 in0.0 mm 0.20 in5.1 mm
04:34 AM 52.5°F11.4°C 52.2°F11.2°C 99% 1.1 mph WNW1.8 kmh WNW 3.7 mph6.0 kmh 29.85 in1010.8 mb 0.01 in0.3 mm 0.00 in0.0 mm 0.20 in5.1 mm
04:33 AM 52.5°F11.4°C 52.2°F11.2°C 99% Calm Calm 3.7 mph6.0 kmh 29.85 in1010.8 mb 0.01 in0.3 mm 0.00 in0.0 mm 0.20 in5.1 mm
04:32 AM 52.5°F11.4°C 52.2°F11.2°C 99% Calm Calm 3.7 mph6.0 kmh 29.85 in1010.8 mb 0.01 in0.3 mm 0.00 in0.0 mm 0.20 in5.1 mm
04:31 AM 52.5°F11.4°C 52.2°F11.2°C 99% Calm Calm 3.7 mph6.0 kmh 29.85 in1010.8 mb 0.01 in0.3 mm 0.00 in0.0 mm 0.20 in5.1 mm
04:30 AM 52.5°F11.4°C 52.2°F11.2°C 99% Calm Calm 3.7 mph6.0 kmh 29.85 in1010.8 mb 0.01 in0.3 mm 0.00 in0.0 mm 0.20 in5.1 mm
04:29 AM 52.5°F11.4°C 52.2°F11.2°C 99% 2.2 mph SW3.5 kmh SW 3.7 mph6.0 kmh 29.85 in1010.8 mb 0.01 in0.3 mm 0.00 in0.0 mm 0.20 in5.1 mm
04:28 AM 52.5°F11.4°C 52.2°F11.2°C 99% 3.2 mph SE5.1 kmh SE 3.7 mph6.0 kmh 29.85 in1010.8 mb 0.01 in0.3 mm 0.00 in0.0 mm 0.20 in5.1 mm
04:27 AM 52.5°F11.4°C 52.2°F11.2°C 99% 3.7 mph ESE6.0 kmh ESE 4.2 mph6.8 kmh 29.85 in1010.8 mb 0.01 in0.3 mm 0.00 in0.0 mm 0.20 in5.1 mm
04:26 AM 52.5°F11.4°C 52.2°F11.2°C 99% 3.2 mph E5.1 kmh E 6.3 mph10.1 kmh 29.85 in1010.8 mb 0.01 in0.3 mm 0.00 in0.0 mm 0.20 in5.1 mm
04:25 AM 52.5°F11.4°C 52.2°F11.2°C 99% 3.2 mph ESE5.1 kmh ESE 6.3 mph10.1 kmh 29.84 in1010.5 mb 0.01 in0.3 mm 0.00 in0.0 mm 0.20 in5.1 mm
04:24 AM 52.5°F11.4°C 52.2°F11.2°C 99% 2.7 mph WSW4.3 kmh WSW 6.3 mph10.1 kmh 29.84 in1010.5 mb 0.01 in0.3 mm 0.00 in0.0 mm 0.20 in5.1 mm
04:23 AM 52.5°F11.4°C 52.2°F11.2°C 99% Calm Calm 6.3 mph10.1 kmh 29.84 in1010.5 mb 0.01 in0.3 mm 0.00 in0.0 mm 0.20 in5.1 mm
04:22 AM 52.5°F11.4°C 52.2°F11.2°C 99% 2.7 mph SSE4.3 kmh SSE 6.3 mph10.1 kmh 29.84 in1010.5 mb 0.01 in0.3 mm 0.00 in0.0 mm 0.20 in5.1 mm
04:21 AM 52.5°F11.4°C 52.2°F11.2°C 99% Calm Calm 6.3 mph10.1 kmh 29.84 in1010.5 mb 0.01 in0.3 mm 0.00 in0.0 mm 0.20 in5.1 mm
04:20 AM 52.5°F11.4°C 52.2°F11.2°C 99% 2.7 mph S4.3 kmh S 6.3 mph10.1 kmh 29.84 in1010.5 mb 0.01 in0.3 mm 0.00 in0.0 mm 0.20 in5.1 mm
04:19 AM 52.5°F11.4°C 52.2°F11.2°C 99% 2.2 mph SW3.5 kmh SW 6.3 mph10.1 kmh 29.84 in1010.5 mb 0.01 in0.3 mm 0.00 in0.0 mm 0.20 in5.1 mm
04:18 AM 52.5°F11.4°C 52.2°F11.2°C 99% 4.2 mph NE6.8 kmh NE 6.3 mph10.1 kmh 29.84 in1010.5 mb 0.01 in0.3 mm 0.00 in0.0 mm 0.20 in5.1 mm
04:17 AM 52.5°F11.4°C 52.2°F11.2°C 99% 2.7 mph SE4.3 kmh SE 6.3 mph10.1 kmh 29.84 in1010.5 mb 0.01 in0.3 mm 0.00 in0.0 mm 0.20 in5.1 mm
04:16 AM 52.5°F11.4°C 52.2°F11.2°C 99% 6.3 mph ESE10.1 kmh ESE 6.3 mph10.1 kmh 29.84 in1010.5 mb 0.01 in0.3 mm 0.00 in0.0 mm 0.20 in5.1 mm
04:15 AM 52.5°F11.4°C 52.2°F11.2°C 99% Calm Calm 4.7 mph7.6 kmh 29.84 in1010.5 mb 0.01 in0.3 mm 0.00 in0.0 mm 0.20 in5.1 mm
04:14 AM 52.5°F11.4°C 52.2°F11.2°C 99% Calm Calm 4.7 mph7.6 kmh 29.84 in1010.5 mb 0.01 in0.3 mm 0.00 in0.0 mm 0.20 in5.1 mm
04:13 AM 52.5°F11.4°C 52.2°F11.2°C 99% Calm Calm 4.7 mph7.6 kmh 29.84 in1010.5 mb 0.01 in0.3 mm 0.00 in0.0 mm 0.20 in5.1 mm
04:12 AM 52.5°F11.4°C 52.2°F11.2°C 99% 1.7 mph SSW2.7 kmh SSW 4.7 mph7.6 kmh 29.84 in1010.5 mb 0.01 in0.3 mm 0.00 in0.0 mm 0.20 in5.1 mm
04:11 AM 52.5°F11.4°C 52.2°F11.2°C 99% 1.7 mph N2.7 kmh N 4.7 mph7.6 kmh 29.84 in1010.5 mb 0.01 in0.3 mm 0.00 in0.0 mm 0.20 in5.1 mm
04:10 AM 52.5°F11.4°C 52.2°F11.2°C 99% Calm Calm 4.7 mph7.6 kmh 29.84 in1010.5 mb 0.01 in0.3 mm 0.00 in0.0 mm 0.20 in5.1 mm
04:09 AM 52.5°F11.4°C 52.2°F11.2°C 99% 3.2 mph ESE5.1 kmh ESE 4.7 mph7.6 kmh 29.84 in1010.5 mb 0.01 in0.3 mm 0.00 in0.0 mm 0.20 in5.1 mm
04:08 AM 52.5°F11.4°C 52.2°F11.2°C 99% 3.2 mph ESE5.1 kmh ESE 5.3 mph8.5 kmh 29.84 in1010.5 mb 0.01 in0.3 mm 0.00 in0.0 mm 0.20 in5.1 mm
04:07 AM 52.5°F11.4°C 52.2°F11.2°C 99% 2.7 mph SSE4.3 kmh SSE 5.3 mph8.5 kmh 29.84 in1010.5 mb 0.01 in0.3 mm 0.00 in0.0 mm 0.20 in5.1 mm
04:06 AM 52.5°F11.4°C 52.2°F11.2°C 99% 2.7 mph ENE4.3 kmh ENE 5.3 mph8.5 kmh 29.84 in1010.5 mb 0.01 in0.3 mm 0.00 in0.0 mm 0.20 in5.1 mm
04:05 AM 52.5°F11.4°C 52.2°F11.2°C 99% 2.2 mph ENE3.5 kmh ENE 5.3 mph8.5 kmh 29.84 in1010.5 mb 0.01 in0.3 mm 0.00 in0.0 mm 0.20 in5.1 mm
04:04 AM 52.5°F11.4°C 52.2°F11.2°C 99% 2.2 mph SSE3.5 kmh SSE 5.3 mph8.5 kmh 29.84 in1010.5 mb 0.01 in0.3 mm 0.00 in0.0 mm 0.20 in5.1 mm
04:03 AM 52.5°F11.4°C 52.2°F11.2°C 99% 1.1 mph SSE1.8 kmh SSE 5.3 mph8.5 kmh 29.84 in1010.5 mb 0.01 in0.3 mm 0.00 in0.0 mm 0.20 in5.1 mm
04:02 AM 52.5°F11.4°C 52.2°F11.2°C 99% 2.7 mph SSE4.3 kmh SSE 5.3 mph8.5 kmh 29.84 in1010.5 mb 0.01 in0.3 mm 0.00 in0.0 mm 0.20 in5.1 mm
04:01 AM 52.5°F11.4°C 52.2°F11.2°C 99% 3.7 mph SE6.0 kmh SE 5.3 mph8.5 kmh 29.84 in1010.5 mb 0.01 in0.3 mm 0.00 in0.0 mm 0.20 in5.1 mm
04:00 AM 52.5°F11.4°C 52.2°F11.2°C 99% 3.7 mph SE6.0 kmh SE 5.3 mph8.5 kmh 29.84 in1010.5 mb 0.01 in0.3 mm 0.00 in0.0 mm 0.20 in5.1 mm
03:59 AM 52.5°F11.4°C 52.2°F11.2°C 99% 3.7 mph E6.0 kmh E 5.3 mph8.5 kmh 29.84 in1010.5 mb 0.01 in0.3 mm 0.00 in0.0 mm 0.20 in5.1 mm
03:58 AM 52.5°F11.4°C 52.2°F11.2°C 99% 4.2 mph ENE6.8 kmh ENE 4.2 mph6.8 kmh 29.84 in1010.5 mb 0.01 in0.3 mm 0.00 in0.0 mm 0.20 in5.1 mm
03:57 AM 52.5°F11.4°C 52.2°F11.2°C 99% 2.7 mph ESE4.3 kmh ESE 4.2 mph6.8 kmh 29.84 in1010.5 mb 0.01 in0.3 mm 0.00 in0.0 mm 0.20 in5.1 mm
03:56 AM 52.5°F11.4°C 52.2°F11.2°C 99% 4.2 mph NE6.8 kmh NE 4.2 mph6.8 kmh 29.84 in1010.5 mb 0.01 in0.3 mm 0.00 in0.0 mm 0.20 in5.1 mm
03:55 AM 52.5°F11.4°C 52.2°F11.2°C 99% Calm Calm 2.2 mph3.5 kmh 29.84 in1010.5 mb 0.01 in0.3 mm 0.00 in0.0 mm 0.20 in5.1 mm
03:54 AM 52.5°F11.4°C 52.2°F11.2°C 99% Calm Calm 2.2 mph3.5 kmh 29.84 in1010.5 mb 0.01 in0.3 mm 0.00 in0.0 mm 0.20 in5.1 mm
03:53 AM 52.5°F11.4°C 52.2°F11.2°C 99% Calm Calm 2.2 mph3.5 kmh 29.84 in1010.5 mb 0.01 in0.3 mm 0.00 in0.0 mm 0.20 in5.1 mm
03:52 AM 52.5°F11.4°C 52.2°F11.2°C 99% Calm Calm 2.2 mph3.5 kmh 29.84 in1010.5 mb 0.01 in0.3 mm 0.00 in0.0 mm 0.20 in5.1 mm
03:51 AM 52.5°F11.4°C 52.2°F11.2°C 99% Calm Calm 2.2 mph3.5 kmh 29.84 in1010.5 mb 0.01 in0.3 mm 0.00 in0.0 mm 0.20 in5.1 mm
03:50 AM 52.5°F11.4°C 52.2°F11.2°C 99% Calm Calm 2.2 mph3.5 kmh 29.86 in1011.2 mb 0.01 in0.3 mm 0.00 in0.0 mm 0.20 in5.1 mm
03:49 AM 52.5°F11.4°C 52.2°F11.2°C 99% Calm Calm 2.2 mph3.5 kmh 29.86 in1011.2 mb 0.01 in0.3 mm 0.00 in0.0 mm 0.20 in5.1 mm
03:48 AM 52.5°F11.4°C 52.2°F11.2°C 99% Calm Calm 2.2 mph3.5 kmh 29.86 in1011.2 mb 0.01 in0.3 mm 0.00 in0.0 mm 0.20 in5.1 mm
03:47 AM 52.5°F11.4°C 52.2°F11.2°C 99% Calm Calm 2.2 mph3.5 kmh 29.86 in1011.2 mb 0.01 in0.3 mm 0.00 in0.0 mm 0.20 in5.1 mm
03:46 AM 52.5°F11.4°C 52.2°F11.2°C 99% Calm Calm 2.2 mph3.5 kmh 29.86 in1011.2 mb 0.01 in0.3 mm 0.00 in0.0 mm 0.20 in5.1 mm
03:45 AM 52.5°F11.4°C 52.2°F11.2°C 99% Calm Calm 2.2 mph3.5 kmh 29.86 in1011.2 mb 0.01 in0.3 mm 0.00 in0.0 mm 0.20 in5.1 mm
03:44 AM 52.5°F11.4°C 52.2°F11.2°C 99% Calm Calm 2.2 mph3.5 kmh 29.86 in1011.2 mb 0.01 in0.3 mm 0.60 in15.2 mm 0.20 in5.1 mm
03:43 AM 52.5°F11.4°C 52.2°F11.2°C 99% Calm Calm 2.2 mph3.5 kmh 29.86 in1011.2 mb 0.00 in0.0 mm 0.00 in0.0 mm 0.19 in4.8 mm
03:42 AM 52.5°F11.4°C 52.2°F11.2°C 99% Calm Calm 2.2 mph3.5 kmh 29.86 in1011.2 mb 0.00 in0.0 mm 0.00 in0.0 mm 0.19 in4.8 mm
03:41 AM 52.5°F11.4°C 52.2°F11.2°C 99% Calm Calm 2.2 mph3.5 kmh 29.86 in1011.2 mb 0.00 in0.0 mm 0.00 in0.0 mm 0.19 in4.8 mm
03:40 AM 52.5°F11.4°C 52.2°F11.2°C 99% Calm Calm 1.1 mph1.8 kmh 29.86 in1011.2 mb 0.00 in0.0 mm 0.00 in0.0 mm 0.19 in4.8 mm
03:39 AM 52.5°F11.4°C 52.2°F11.2°C 99% Calm Calm 2.2 mph3.5 kmh 29.86 in1011.2 mb 0.00 in0.0 mm 0.00 in0.0 mm 0.19 in4.8 mm
03:38 AM 52.5°F11.4°C 52.2°F11.2°C 99% Calm Calm 2.2 mph3.5 kmh 29.86 in1011.2 mb 0.00 in0.0 mm 0.00 in0.0 mm 0.19 in4.8 mm
03:37 AM 52.5°F11.4°C 52.2°F11.2°C 99% Calm Calm 2.2 mph3.5 kmh 29.86 in1011.2 mb 0.00 in0.0 mm 0.00 in0.0 mm 0.19 in4.8 mm
03:36 AM 52.5°F11.4°C 52.2°F11.2°C 99% Calm Calm 2.2 mph3.5 kmh 29.86 in1011.2 mb 0.00 in0.0 mm 0.00 in0.0 mm 0.19 in4.8 mm
03:35 AM 52.5°F11.4°C 52.2°F11.2°C 99% Calm Calm 2.2 mph3.5 kmh 29.86 in1011.2 mb 0.00 in0.0 mm 0.00 in0.0 mm 0.19 in4.8 mm
03:34 AM 52.5°F11.4°C 52.2°F11.2°C 99% Calm Calm 2.2 mph3.5 kmh 29.86 in1011.2 mb 0.00 in0.0 mm 0.00 in0.0 mm 0.19 in4.8 mm
03:33 AM 52.5°F11.4°C 52.2°F11.2°C 99% Calm Calm 2.2 mph3.5 kmh 29.86 in1011.2 mb 0.00 in0.0 mm 0.00 in0.0 mm 0.19 in4.8 mm
03:32 AM 52.5°F11.4°C 52.2°F11.2°C 99% Calm Calm 2.2 mph3.5 kmh 29.86 in1011.2 mb 0.00 in0.0 mm 0.00 in0.0 mm 0.19 in4.8 mm
03:31 AM 52.5°F11.4°C 52.2°F11.2°C 99% Calm Calm 2.2 mph3.5 kmh 29.86 in1011.2 mb 0.00 in0.0 mm 0.00 in0.0 mm 0.19 in4.8 mm
03:30 AM 52.5°F11.4°C 52.2°F11.2°C 99% Calm Calm 2.2 mph3.5 kmh 29.86 in1011.2 mb 0.00 in0.0 mm 0.00 in0.0 mm 0.19 in4.8 mm
03:29 AM 52.5°F11.4°C 52.2°F11.2°C 99% 2.2 mph S3.5 kmh S 2.2 mph3.5 kmh 29.86 in1011.2 mb 0.00 in0.0 mm 0.00 in0.0 mm 0.19 in4.8 mm
03:28 AM 52.5°F11.4°C 52.2°F11.2°C 99% Calm Calm 2.2 mph3.5 kmh 29.86 in1011.2 mb 0.00 in0.0 mm 0.00 in0.0 mm 0.19 in4.8 mm
03:27 AM 52.5°F11.4°C 52.2°F11.2°C 99% Calm Calm 2.2 mph3.5 kmh 29.86 in1011.2 mb 0.00 in0.0 mm 0.00 in0.0 mm 0.19 in4.8 mm
03:26 AM 52.5°F11.4°C 52.2°F11.2°C 99% Calm Calm 2.2 mph3.5 kmh 29.85 in1010.8 mb 0.00 in0.0 mm 0.00 in0.0 mm 0.19 in4.8 mm
03:25 AM 52.5°F11.4°C 52.2°F11.2°C 99% Calm Calm 2.2 mph3.5 kmh 29.85 in1010.8 mb 0.00 in0.0 mm 0.00 in0.0 mm 0.19 in4.8 mm
03:24 AM 52.5°F11.4°C 52.2°F11.2°C 99% Calm Calm 2.2 mph3.5 kmh 29.85 in1010.8 mb 0.00 in0.0 mm 0.00 in0.0 mm 0.19 in4.8 mm
03:23 AM 52.5°F11.4°C 52.2°F11.2°C 99% Calm Calm 2.2 mph3.5 kmh 29.85 in1010.8 mb 0.00 in0.0 mm 0.00 in0.0 mm 0.19 in4.8 mm
03:22 AM 52.5°F11.4°C 52.2°F11.2°C 99% Calm Calm 2.2 mph3.5 kmh 29.85 in1010.8 mb 0.00 in0.0 mm 0.00 in0.0 mm 0.19 in4.8 mm
03:21 AM 52.5°F11.4°C 52.2°F11.2°C 99% Calm Calm 2.2 mph3.5 kmh 29.85 in1010.8 mb 0.00 in0.0 mm 0.00 in0.0 mm 0.19 in4.8 mm
03:20 AM 52.5°F11.4°C 52.2°F11.2°C 99% Calm Calm -- 29.85 in1010.8 mb 0.00 in0.0 mm 0.00 in0.0 mm 0.19 in4.8 mm
03:19 AM 52.5°F11.4°C 52.2°F11.2°C 99% Calm Calm -- 29.85 in1010.8 mb 0.00 in0.0 mm 0.00 in0.0 mm 0.19 in4.8 mm
03:18 AM 52.5°F11.4°C 52.2°F11.2°C 99% Calm Calm -- 29.85 in1010.8 mb 0.00 in0.0 mm 0.00 in0.0 mm 0.19 in4.8 mm
03:17 AM 52.5°F11.4°C 52.2°F11.2°C 99% Calm Calm -- 29.85 in1010.8 mb 0.00 in0.0 mm 0.00 in0.0 mm 0.19 in4.8 mm
03:16 AM 52.5°F11.4°C 52.2°F11.2°C 99% Calm Calm -- 29.85 in1010.8 mb 0.00 in0.0 mm 0.00 in0.0 mm 0.19 in4.8 mm
03:15 AM 52.5°F11.4°C 52.2°F11.2°C 99% Calm Calm -- 29.85 in1010.8 mb 0.00 in0.0 mm 0.00 in0.0 mm 0.19 in4.8 mm
03:14 AM 52.5°F11.4°C 52.2°F11.2°C 99% Calm Calm -- 29.85 in1010.8 mb 0.00 in0.0 mm 0.00 in0.0 mm 0.19 in4.8 mm
03:13 AM 52.5°F11.4°C 52.2°F11.2°C 99% Calm Calm -- 29.85 in1010.8 mb 0.00 in0.0 mm 0.00 in0.0 mm 0.19 in4.8 mm
03:12 AM 52.7°F11.5°C 52.4°F11.3°C 99% Calm Calm -- 29.85 in1010.8 mb 0.00 in0.0 mm 0.00 in0.0 mm 0.19 in4.8 mm
03:11 AM 52.7°F11.5°C 52.4°F11.3°C 99% Calm Calm -- 29.85 in1010.8 mb 0.00 in0.0 mm 0.00 in0.0 mm 0.19 in4.8 mm
03:10 AM 52.7°F11.5°C 52.4°F11.3°C 99% Calm Calm -- 29.85 in1010.8 mb 0.00 in0.0 mm 0.00 in0.0 mm 0.19 in4.8 mm
03:09 AM 52.7°F11.5°C 52.4°F11.3°C 99% Calm Calm -- 29.85 in1010.8 mb 0.00 in0.0 mm 0.00 in0.0 mm 0.19 in4.8 mm
03:08 AM 52.7°F11.5°C 52.4°F11.3°C 99% Calm Calm -- 29.85 in1010.8 mb 0.00 in0.0 mm 0.00 in0.0 mm 0.19 in4.8 mm
03:07 AM 52.7°F11.5°C 52.4°F11.3°C 99% Calm Calm -- 29.85 in1010.8 mb 0.00 in0.0 mm 0.00 in0.0 mm 0.19 in4.8 mm
03:06 AM 52.7°F11.5°C 52.4°F11.3°C 99% Calm Calm -- 29.85 in1010.8 mb 0.00 in0.0 mm 0.00 in0.0 mm 0.19 in4.8 mm
03:05 AM 52.7°F11.5°C 52.4°F11.3°C 99% Calm Calm -- 29.85 in1010.8 mb 0.00 in0.0 mm 0.00 in0.0 mm 0.19 in4.8 mm
03:04 AM 52.7°F11.5°C 52.4°F11.3°C 99% Calm Calm -- 29.85 in1010.8 mb 0.00 in0.0 mm 0.00 in0.0 mm 0.19 in4.8 mm
03:03 AM 52.7°F11.5°C 52.4°F11.3°C 99% Calm Calm -- 29.85 in1010.8 mb 0.00 in0.0 mm 0.00 in0.0 mm 0.19 in4.8 mm
03:02 AM 52.7°F11.5°C 52.4°F11.3°C 99% Calm Calm -- 29.85 in1010.8 mb 0.00 in0.0 mm 0.00 in0.0 mm 0.19 in4.8 mm
03:01 AM 52.7°F11.5°C 52.4°F11.3°C 99% Calm Calm -- 29.85 in1010.8 mb 0.00 in0.0 mm 0.00 in0.0 mm 0.19 in4.8 mm
03:00 AM 52.7°F11.5°C 52.4°F11.3°C 99% Calm Calm -- 29.85 in1010.8 mb 0.01 in0.3 mm 0.00 in0.0 mm 0.19 in4.8 mm
02:59 AM 52.7°F11.5°C 52.4°F11.3°C 99% Calm Calm -- 29.85 in1010.8 mb 0.01 in0.3 mm 0.00 in0.0 mm 0.19 in4.8 mm
02:58 AM 52.7°F11.5°C 52.4°F11.3°C 99% Calm Calm -- 29.85 in1010.8 mb 0.01 in0.3 mm 0.00 in0.0 mm 0.19 in4.8 mm
02:57 AM 52.7°F11.5°C 52.4°F11.3°C 99% Calm Calm -- 29.85 in1010.8 mb 0.01 in0.3 mm 0.00 in0.0 mm 0.19 in4.8 mm
02:56 AM 52.7°F11.5°C 52.4°F11.3°C 99% Calm Calm 1.7 mph2.7 kmh 29.85 in1010.8 mb 0.01 in0.3 mm 0.00 in0.0 mm 0.19 in4.8 mm
02:55 AM 52.7°F11.5°C 52.4°F11.3°C 99% Calm Calm 3.7 mph6.0 kmh 29.85 in1010.8 mb 0.01 in0.3 mm 0.00 in0.0 mm 0.19 in4.8 mm
02:54 AM 52.7°F11.5°C 52.4°F11.3°C 99% Calm Calm 3.7 mph6.0 kmh 29.85 in1010.8 mb 0.01 in0.3 mm 0.00 in0.0 mm 0.19 in4.8 mm
02:53 AM 52.7°F11.5°C 52.4°F11.3°C 99% Calm Calm 3.7 mph6.0 kmh 29.85 in1010.8 mb 0.01 in0.3 mm 0.00 in0.0 mm 0.19 in4.8 mm
02:52 AM 52.7°F11.5°C 52.4°F11.3°C 99% Calm Calm 3.7 mph6.0 kmh 29.85 in1010.8 mb 0.01 in0.3 mm 0.00 in0.0 mm 0.19 in4.8 mm
02:51 AM 52.7°F11.5°C 52.4°F11.3°C 99% Calm Calm 3.7 mph6.0 kmh 29.85 in1010.8 mb 0.01 in0.3 mm 0.00 in0.0 mm 0.19 in4.8 mm
02:50 AM 52.7°F11.5°C 52.4°F11.3°C 99% Calm Calm 3.7 mph6.0 kmh 29.85 in1010.8 mb 0.01 in0.3 mm 0.00 in0.0 mm 0.19 in4.8 mm
02:49 AM 52.7°F11.5°C 52.4°F11.3°C 99% Calm Calm 3.7 mph6.0 kmh 29.86 in1011.2 mb 0.01 in0.3 mm 0.00 in0.0 mm 0.19 in4.8 mm
02:48 AM 52.9°F11.6°C 52.6°F11.4°C 99% Calm Calm 3.7 mph6.0 kmh 29.86 in1011.2 mb 0.01 in0.3 mm 0.00 in0.0 mm 0.19 in4.8 mm
02:47 AM 52.9°F11.6°C 52.6°F11.4°C 99% Calm Calm 3.7 mph6.0 kmh 29.86 in1011.2 mb 0.01 in0.3 mm 0.00 in0.0 mm 0.19 in4.8 mm
02:46 AM 52.9°F11.6°C 52.6°F11.4°C 99% 2.2 mph ESE3.5 kmh ESE 3.7 mph6.0 kmh 29.86 in1011.2 mb 0.01 in0.3 mm 0.00 in0.0 mm 0.19 in4.8 mm
02:45 AM 52.9°F11.6°C 52.6°F11.4°C 99% 2.7 mph SE4.3 kmh SE 3.2 mph5.1 kmh 29.86 in1011.2 mb 0.01 in0.3 mm 0.00 in0.0 mm 0.19 in4.8 mm
02:44 AM 52.9°F11.6°C 52.6°F11.4°C 99% 3.2 mph SE5.1 kmh SE 3.2 mph5.1 kmh 29.86 in1011.2 mb 0.01 in0.3 mm 0.00 in0.0 mm 0.19 in4.8 mm
02:43 AM 52.9°F11.6°C 52.6°F11.4°C 99% Calm Calm 1.7 mph2.7 kmh 29.86 in1011.2 mb 0.02 in0.5 mm 0.00 in0.0 mm 0.19 in4.8 mm
02:42 AM 52.9°F11.6°C 52.6°F11.4°C 99% Calm Calm 3.7 mph6.0 kmh 29.86 in1011.2 mb 0.02 in0.5 mm 0.00 in0.0 mm 0.19 in4.8 mm
02:41 AM 52.9°F11.6°C 52.6°F11.4°C 99% Calm Calm 4.7 mph7.6 kmh 29.86 in1011.2 mb 0.02 in0.5 mm 0.00 in0.0 mm 0.19 in4.8 mm
02:40 AM 52.9°F11.6°C 52.6°F11.4°C 99% Calm Calm 4.7 mph7.6 kmh 29.86 in1011.2 mb 0.02 in0.5 mm 0.00 in0.0 mm 0.19 in4.8 mm
02:39 AM 52.9°F11.6°C 52.6°F11.4°C 99% Calm Calm 4.7 mph7.6 kmh 29.86 in1011.2 mb 0.02 in0.5 mm 0.00 in0.0 mm 0.19 in4.8 mm
02:38 AM 52.9°F11.6°C 52.6°F11.4°C 99% Calm Calm 4.7 mph7.6 kmh 29.87 in1011.5 mb 0.02 in0.5 mm 0.00 in0.0 mm 0.19 in4.8 mm
02:37 AM 52.9°F11.6°C 52.6°F11.4°C 99% Calm Calm 4.7 mph7.6 kmh 29.87 in1011.5 mb 0.02 in0.5 mm 0.00 in0.0 mm 0.19 in4.8 mm
02:36 AM 52.9°F11.6°C 52.6°F11.4°C 99% Calm Calm 4.7 mph7.6 kmh 29.87 in1011.5 mb 0.02 in0.5 mm 0.00 in0.0 mm 0.19 in4.8 mm
02:35 AM 52.9°F11.6°C 52.6°F11.4°C 99% 1.7 mph ESE2.7 kmh ESE 4.7 mph7.6 kmh 29.87 in1011.5 mb 0.03 in0.8 mm 0.00 in0.0 mm 0.19 in4.8 mm
02:34 AM 52.9°F11.6°C 52.6°F11.4°C 99% 1.7 mph ESE2.7 kmh ESE 4.7 mph7.6 kmh 29.87 in1011.5 mb 0.03 in0.8 mm 0.00 in0.0 mm 0.19 in4.8 mm
02:33 AM 52.9°F11.6°C 52.6°F11.4°C 99% 1.7 mph S2.7 kmh S 5.3 mph8.5 kmh 29.87 in1011.5 mb 0.03 in0.8 mm 0.00 in0.0 mm 0.19 in4.8 mm
02:32 AM 53.1°F11.7°C 52.8°F11.6°C 99% 4.7 mph SSE7.6 kmh SSE 6.3 mph10.1 kmh 29.87 in1011.5 mb 0.03 in0.8 mm 0.00 in0.0 mm 0.19 in4.8 mm
02:31 AM 53.1°F11.7°C 52.8°F11.6°C 99% 3.7 mph ESE6.0 kmh ESE 6.3 mph10.1 kmh 29.87 in1011.5 mb 0.03 in0.8 mm 0.00 in0.0 mm 0.19 in4.8 mm
02:30 AM 53.1°F11.7°C 52.8°F11.6°C 99% 3.2 mph ESE5.1 kmh ESE 6.3 mph10.1 kmh 29.87 in1011.5 mb 0.03 in0.8 mm 0.00 in0.0 mm 0.19 in4.8 mm
02:29 AM 53.1°F11.7°C 52.8°F11.6°C 99% 4.7 mph ESE7.6 kmh ESE 6.3 mph10.1 kmh 29.87 in1011.5 mb 0.03 in0.8 mm 0.00 in0.0 mm 0.19 in4.8 mm
02:28 AM 53.1°F11.7°C 52.8°F11.6°C 99% Calm Calm 6.3 mph10.1 kmh 29.87 in1011.5 mb 0.03 in0.8 mm 0.00 in0.0 mm 0.19 in4.8 mm
02:27 AM 53.1°F11.7°C 52.8°F11.6°C 99% Calm Calm 6.3 mph10.1 kmh 29.87 in1011.5 mb 0.03 in0.8 mm 0.00 in0.0 mm 0.19 in4.8 mm
02:26 AM 53.1°F11.7°C 52.8°F11.6°C 99% 1.7 mph SW2.7 kmh SW 6.3 mph10.1 kmh 29.88 in1011.9 mb 0.03 in0.8 mm 0.00 in0.0 mm 0.19 in4.8 mm
02:25 AM 53.1°F11.7°C 52.8°F11.6°C 99% 2.7 mph SE4.3 kmh SE 6.3 mph10.1 kmh 29.88 in1011.9 mb 0.03 in0.8 mm 0.00 in0.0 mm 0.19 in4.8 mm
02:24 AM 53.2°F11.8°C 52.9°F11.6°C 99% 3.2 mph SSE5.1 kmh SSE 6.3 mph10.1 kmh 29.88 in1011.9 mb 0.03 in0.8 mm 0.00 in0.0 mm 0.19 in4.8 mm
02:23 AM 53.2°F11.8°C 52.9°F11.6°C 99% 5.3 mph ESE8.5 kmh ESE 6.3 mph10.1 kmh 29.88 in1011.9 mb 0.04 in1.0 mm 0.00 in0.0 mm 0.19 in4.8 mm
02:22 AM 53.2°F11.8°C 52.9°F11.6°C 99% 3.7 mph N6.0 kmh N 4.7 mph7.6 kmh 29.88 in1011.9 mb 0.04 in1.0 mm 0.00 in0.0 mm 0.19 in4.8 mm
02:21 AM 53.4°F11.9°C 53.1°F11.7°C 99% 3.7 mph S6.0 kmh S 4.7 mph7.6 kmh 29.88 in1011.9 mb 0.04 in1.0 mm 0.00 in0.0 mm 0.19 in4.8 mm
02:20 AM 53.4°F11.9°C 53.1°F11.7°C 99% 2.7 mph SE4.3 kmh SE 4.7 mph7.6 kmh 29.88 in1011.9 mb 0.04 in1.0 mm 0.00 in0.0 mm 0.19 in4.8 mm
02:19 AM 53.4°F11.9°C 53.1°F11.7°C 99% 1.1 mph ENE1.8 kmh ENE 4.7 mph7.6 kmh 29.88 in1011.9 mb 0.04 in1.0 mm 0.00 in0.0 mm 0.19 in4.8 mm
02:18 AM 53.4°F11.9°C 53.1°F11.7°C 99% 3.7 mph E6.0 kmh E 4.7 mph7.6 kmh 29.88 in1011.9 mb 0.04 in1.0 mm 0.00 in0.0 mm 0.19 in4.8 mm
02:17 AM 53.6°F12.0°C 53.3°F11.8°C 99% 3.2 mph ESE5.1 kmh ESE 4.2 mph6.8 kmh 29.88 in1011.9 mb 0.05 in1.3 mm 0.00 in0.0 mm 0.19 in4.8 mm
02:16 AM 53.6°F12.0°C 53.3°F11.8°C 99% 3.7 mph SSE6.0 kmh SSE 4.2 mph6.8 kmh 29.88 in1011.9 mb 0.05 in1.3 mm 0.00 in0.0 mm 0.19 in4.8 mm
02:15 AM 53.6°F12.0°C 53.3°F11.8°C 99% 3.2 mph ESE5.1 kmh ESE 4.2 mph6.8 kmh 29.88 in1011.9 mb 0.05 in1.3 mm 0.00 in0.0 mm 0.19 in4.8 mm
02:14 AM 53.6°F12.0°C 53.3°F11.8°C 99% 2.7 mph ESE4.3 kmh ESE 4.2 mph6.8 kmh 29.91 in1012.9 mb 0.05 in1.3 mm 0.00 in0.0 mm 0.19 in4.8 mm
02:13 AM 53.6°F12.0°C 53.3°F11.8°C 99% 3.7 mph ESE6.0 kmh ESE 4.7 mph7.6 kmh 29.91 in1012.9 mb 0.06 in1.5 mm 0.00 in0.0 mm 0.19 in4.8 mm
02:12 AM 53.6°F12.0°C 53.3°F11.8°C 99% 1.7 mph S2.7 kmh S 4.7 mph7.6 kmh 29.91 in1012.9 mb 0.06 in1.5 mm 0.00 in0.0 mm 0.19 in4.8 mm
02:11 AM 53.8°F12.1°C 53.5°F11.9°C 99% 2.7 mph SW4.3 kmh SW 4.7 mph7.6 kmh 29.91 in1012.9 mb 0.07 in1.8 mm 0.00 in0.0 mm 0.19 in4.8 mm
02:10 AM 53.8°F12.1°C 53.5°F11.9°C 99% 3.7 mph SE6.0 kmh SE 4.7 mph7.6 kmh 29.91 in1012.9 mb 0.07 in1.8 mm 0.00 in0.0 mm 0.19 in4.8 mm
02:09 AM 53.8°F12.1°C 53.5°F11.9°C 99% 2.7 mph ESE4.3 kmh ESE 4.7 mph7.6 kmh 29.91 in1012.9 mb 0.07 in1.8 mm 0.00 in0.0 mm 0.19 in4.8 mm
02:08 AM 53.8°F12.1°C 53.5°F11.9°C 99% 2.7 mph E4.3 kmh E 4.7 mph7.6 kmh 29.91 in1012.9 mb 0.08 in2.0 mm 0.00 in0.0 mm 0.19 in4.8 mm
02:07 AM 53.8°F12.1°C 53.5°F11.9°C 99% 2.7 mph SE4.3 kmh SE 4.7 mph7.6 kmh 29.91 in1012.9 mb 0.08 in2.0 mm 0.00 in0.0 mm 0.19 in4.8 mm
02:06 AM 53.8°F12.1°C 53.5°F11.9°C 99% 2.7 mph ESE4.3 kmh ESE 4.7 mph7.6 kmh 29.91 in1012.9 mb 0.09 in2.3 mm 0.00 in0.0 mm 0.19 in4.8 mm
02:05 AM 53.8°F12.1°C 53.5°F11.9°C 99% 4.2 mph ESE6.8 kmh ESE 4.7 mph7.6 kmh 29.91 in1012.9 mb 0.10 in2.5 mm 0.00 in0.0 mm 0.19 in4.8 mm
02:04 AM 53.8°F12.1°C 53.5°F11.9°C 99% 2.7 mph E4.3 kmh E 4.7 mph7.6 kmh 29.91 in1012.9 mb 0.10 in2.5 mm 0.00 in0.0 mm 0.19 in4.8 mm
02:03 AM 53.8°F12.1°C 53.5°F11.9°C 99% 3.7 mph ESE6.0 kmh ESE 4.7 mph7.6 kmh 29.91 in1012.9 mb 0.12 in3.0 mm 0.00 in0.0 mm 0.19 in4.8 mm
02:02 AM 53.8°F12.1°C 53.5°F11.9°C 99% 4.7 mph SE7.6 kmh SE 4.7 mph7.6 kmh 29.91 in1012.9 mb 0.13 in3.3 mm 0.00 in0.0 mm 0.19 in4.8 mm
02:01 AM 53.8°F12.1°C 53.5°F11.9°C 99% 2.2 mph SSE3.5 kmh SSE 4.7 mph7.6 kmh 29.91 in1012.9 mb 0.13 in3.3 mm 0.60 in15.2 mm 0.19 in4.8 mm
02:00 AM 53.8°F12.1°C 53.5°F11.9°C 99% 2.7 mph SSE4.3 kmh SSE 4.7 mph7.6 kmh 29.91 in1012.9 mb 0.12 in3.0 mm 0.00 in0.0 mm 0.18 in4.6 mm
01:59 AM 53.8°F12.1°C 53.5°F11.9°C 99% 2.2 mph ESE3.5 kmh ESE 4.7 mph7.6 kmh 29.91 in1012.9 mb 0.13 in3.3 mm 0.00 in0.0 mm 0.18 in4.6 mm
01:58 AM 53.8°F12.1°C 53.5°F11.9°C 99% 4.2 mph SE6.8 kmh SE 4.7 mph7.6 kmh 29.91 in1012.9 mb 0.13 in3.3 mm 0.00 in0.0 mm 0.18 in4.6 mm
01:57 AM 53.8°F12.1°C 53.5°F11.9°C 99% 1.7 mph SW2.7 kmh SW 4.7 mph7.6 kmh 29.91 in1012.9 mb 0.14 in3.6 mm 0.00 in0.0 mm 0.18 in4.6 mm
01:56 AM 53.8°F12.1°C 53.5°F11.9°C 99% Calm Calm 2.7 mph4.3 kmh 29.91 in1012.9 mb 0.14 in3.6 mm 0.00 in0.0 mm 0.18 in4.6 mm
01:55 AM 53.8°F12.1°C 53.5°F11.9°C 99% Calm Calm 2.7 mph4.3 kmh 29.91 in1012.9 mb 0.14 in3.6 mm 0.00 in0.0 mm 0.18 in4.6 mm
01:54 AM 53.8°F12.1°C 53.5°F11.9°C 99% Calm Calm 2.7 mph4.3 kmh 29.91 in1012.9 mb 0.15 in3.8 mm 0.00 in0.0 mm 0.18 in4.6 mm
01:53 AM 53.8°F12.1°C 53.5°F11.9°C 99% Calm Calm 3.7 mph6.0 kmh 29.91 in1012.9 mb 0.15 in3.8 mm 0.00 in0.0 mm 0.18 in4.6 mm
01:52 AM 53.8°F12.1°C 53.5°F11.9°C 99% Calm Calm 3.7 mph6.0 kmh 29.91 in1012.9 mb 0.16 in4.1 mm 0.00 in0.0 mm 0.18 in4.6 mm
01:51 AM 53.8°F12.1°C 53.5°F11.9°C 99% Calm Calm 3.7 mph6.0 kmh 29.91 in1012.9 mb 0.16 in4.1 mm 0.00 in0.0 mm 0.18 in4.6 mm
01:50 AM 53.8°F12.1°C 53.5°F11.9°C 99% Calm Calm 3.7 mph6.0 kmh 29.91 in1012.9 mb 0.16 in4.1 mm 0.00 in0.0 mm 0.18 in4.6 mm
01:49 AM 53.8°F12.1°C 53.5°F11.9°C 99% 2.7 mph ESE4.3 kmh ESE 3.7 mph6.0 kmh 29.91 in1012.9 mb 0.16 in4.1 mm 0.00 in0.0 mm 0.18 in4.6 mm
01:48 AM 53.8°F12.1°C 53.5°F11.9°C 99% 2.7 mph ESE4.3 kmh ESE 3.7 mph6.0 kmh 29.91 in1012.9 mb 0.16 in4.1 mm 0.00 in0.0 mm 0.18 in4.6 mm
01:47 AM 53.8°F12.1°C 53.5°F11.9°C 99% Calm Calm 3.7 mph6.0 kmh 29.91 in1012.9 mb 0.17 in4.3 mm 0.00 in0.0 mm 0.18 in4.6 mm
01:46 AM 53.6°F12.0°C 53.3°F11.8°C 99% Calm Calm 3.7 mph6.0 kmh 29.91 in1012.9 mb 0.17 in4.3 mm 0.00 in0.0 mm 0.18 in4.6 mm
01:45 AM 53.6°F12.0°C 53.3°F11.8°C 99% Calm Calm 3.7 mph6.0 kmh 29.91 in1012.9 mb 0.17 in4.3 mm 0.00 in0.0 mm 0.18 in4.6 mm
01:44 AM 53.6°F12.0°C 53.3°F11.8°C 99% 2.7 mph SW4.3 kmh SW 3.7 mph6.0 kmh 29.91 in1012.9 mb 0.17 in4.3 mm 0.60 in15.2 mm 0.18 in4.6 mm
01:43 AM 53.6°F12.0°C 53.3°F11.8°C 99% 3.7 mph SW6.0 kmh SW 3.7 mph6.0 kmh 29.91 in1012.9 mb 0.16 in4.1 mm 0.00 in0.0 mm 0.17 in4.3 mm
01:42 AM 53.6°F12.0°C 53.3°F11.8°C 99% 3.2 mph SSW5.1 kmh SSW 3.7 mph6.0 kmh 29.91 in1012.9 mb 0.16 in4.1 mm 0.00 in0.0 mm 0.17 in4.3 mm
01:41 AM 53.6°F12.0°C 53.3°F11.8°C 99% 3.7 mph SW6.0 kmh SW 3.7 mph6.0 kmh 29.91 in1012.9 mb 0.16 in4.1 mm 0.00 in0.0 mm 0.17 in4.3 mm
01:40 AM 53.6°F12.0°C 53.3°F11.8°C 99% 3.2 mph SSW5.1 kmh SSW 3.7 mph6.0 kmh 29.91 in1012.9 mb 0.16 in4.1 mm 0.00 in0.0 mm 0.17 in4.3 mm
01:39 AM 53.6°F12.0°C 53.3°F11.8°C 99% 2.7 mph ESE4.3 kmh ESE 3.2 mph5.1 kmh 29.91 in1012.9 mb 0.17 in4.3 mm 0.00 in0.0 mm 0.17 in4.3 mm
01:38 AM 53.6°F12.0°C 53.3°F11.8°C 99% 1.7 mph S2.7 kmh S 3.2 mph5.1 kmh 29.91 in1012.9 mb 0.17 in4.3 mm 0.00 in0.0 mm 0.17 in4.3 mm
01:37 AM 53.6°F12.0°C 53.3°F11.8°C 99% 2.7 mph S4.3 kmh S 3.2 mph5.1 kmh 29.91 in1012.9 mb 0.17 in4.3 mm 0.00 in0.0 mm 0.17 in4.3 mm
01:36 AM 53.6°F12.0°C 53.3°F11.8°C 99% Calm Calm -- 29.91 in1012.9 mb 0.17 in4.3 mm 0.00 in0.0 mm 0.17 in4.3 mm
01:35 AM 53.6°F12.0°C 53.3°F11.8°C 99% Calm Calm -- 29.91 in1012.9 mb 0.17 in4.3 mm 0.60 in15.2 mm 0.17 in4.3 mm
01:34 AM 53.6°F12.0°C 53.3°F11.8°C 99% Calm Calm -- 29.91 in1012.9 mb 0.16 in4.1 mm 0.00 in0.0 mm 0.16 in4.1 mm
01:33 AM 53.4°F11.9°C 53.1°F11.7°C 99% Calm Calm 2.2 mph3.5 kmh 29.91 in1012.9 mb 0.16 in4.1 mm 0.00 in0.0 mm 0.16 in4.1 mm
01:32 AM 53.4°F11.9°C 53.1°F11.7°C 99% Calm Calm 2.2 mph3.5 kmh 29.91 in1012.9 mb 0.16 in4.1 mm 0.00 in0.0 mm 0.16 in4.1 mm
01:31 AM 53.4°F11.9°C 53.1°F11.7°C 99% Calm Calm 2.2 mph3.5 kmh 29.91 in1012.9 mb 0.16 in4.1 mm 0.00 in0.0 mm 0.16 in4.1 mm
01:30 AM 53.4°F11.9°C 53.1°F11.7°C 99% Calm Calm 2.2 mph3.5 kmh 29.91 in1012.9 mb 0.16 in4.1 mm 0.00 in0.0 mm 0.16 in4.1 mm
01:29 AM 53.4°F11.9°C 53.1°F11.7°C 99% Calm Calm 2.2 mph3.5 kmh 29.91 in1012.9 mb 0.16 in4.1 mm 0.00 in0.0 mm 0.16 in4.1 mm
01:28 AM 53.4°F11.9°C 53.1°F11.7°C 99% Calm Calm 2.2 mph3.5 kmh 29.91 in1012.9 mb 0.16 in4.1 mm 0.00 in0.0 mm 0.16 in4.1 mm
01:27 AM 53.4°F11.9°C 53.1°F11.7°C 99% Calm Calm 2.2 mph3.5 kmh 29.91 in1012.9 mb 0.16 in4.1 mm 0.00 in0.0 mm 0.16 in4.1 mm
01:26 AM 53.4°F11.9°C 53.1°F11.7°C 99% Calm Calm 4.2 mph6.8 kmh 29.91 in1012.9 mb 0.16 in4.1 mm 0.00 in0.0 mm 0.16 in4.1 mm
01:25 AM 53.4°F11.9°C 53.1°F11.7°C 99% Calm Calm 4.2 mph6.8 kmh 29.91 in1012.9 mb 0.16 in4.1 mm 0.00 in0.0 mm 0.16 in4.1 mm
01:24 AM 53.4°F11.9°C 53.1°F11.7°C 99% 2.2 mph S3.5 kmh S 4.2 mph6.8 kmh 29.91 in1012.9 mb 0.16 in4.1 mm 0.60 in15.2 mm 0.16 in4.1 mm
01:23 AM 53.4°F11.9°C 53.1°F11.7°C 99% Calm Calm 4.2 mph6.8 kmh 29.91 in1012.9 mb 0.15 in3.8 mm 0.00 in0.0 mm 0.15 in3.8 mm
01:22 AM 53.4°F11.9°C 52.8°F11.6°C 98% Calm Calm 4.2 mph6.8 kmh 29.91 in1012.9 mb 0.15 in3.8 mm 0.00 in0.0 mm 0.15 in3.8 mm
01:21 AM 53.4°F11.9°C 52.8°F11.6°C 98% Calm Calm 4.2 mph6.8 kmh 29.91 in1012.9 mb 0.15 in3.8 mm 0.00 in0.0 mm 0.15 in3.8 mm
01:20 AM 53.4°F11.9°C 52.8°F11.6°C 98% Calm Calm 4.2 mph6.8 kmh 29.91 in1012.9 mb 0.15 in3.8 mm 0.00 in0.0 mm 0.15 in3.8 mm
01:19 AM 53.4°F11.9°C 52.8°F11.6°C 98% Calm Calm 4.2 mph6.8 kmh 29.91 in1012.9 mb 0.15 in3.8 mm 0.00 in0.0 mm 0.15 in3.8 mm
01:18 AM 53.4°F11.9°C 52.8°F11.6°C 98% Calm Calm 4.2 mph6.8 kmh 29.91 in1012.9 mb 0.15 in3.8 mm 0.60 in15.2 mm 0.15 in3.8 mm
01:17 AM 53.4°F11.9°C 52.8°F11.6°C 98% 2.2 mph ESE3.5 kmh ESE 4.2 mph6.8 kmh 29.91 in1012.9 mb 0.14 in3.6 mm 0.00 in0.0 mm 0.14 in3.6 mm
01:16 AM 53.4°F11.9°C 52.8°F11.6°C 98% 1.7 mph ESE2.7 kmh ESE 3.7 mph6.0 kmh 29.91 in1012.9 mb 0.14 in3.6 mm 0.00 in0.0 mm 0.14 in3.6 mm
01:15 AM 53.4°F11.9°C 52.8°F11.6°C 98% 3.7 mph E6.0 kmh E 3.7 mph6.0 kmh 29.91 in1012.9 mb 0.14 in3.6 mm 0.00 in0.0 mm 0.14 in3.6 mm
01:14 AM 53.4°F11.9°C 52.8°F11.6°C 98% Calm Calm -- 29.93 in1013.5 mb 0.14 in3.6 mm 0.60 in15.2 mm 0.14 in3.6 mm
01:13 AM 53.2°F11.8°C 52.6°F11.4°C 98% Calm Calm -- 29.93 in1013.5 mb 0.13 in3.3 mm 0.00 in0.0 mm 0.13 in3.3 mm
01:12 AM 53.2°F11.8°C 52.6°F11.4°C 98% Calm Calm -- 29.93 in1013.5 mb 0.13 in3.3 mm 0.60 in15.2 mm 0.13 in3.3 mm
01:11 AM 53.2°F11.8°C 52.6°F11.4°C 98% Calm Calm -- 29.93 in1013.5 mb 0.12 in3.0 mm 0.00 in0.0 mm 0.12 in3.0 mm
01:10 AM 53.2°F11.8°C 52.6°F11.4°C 98% Calm Calm -- 29.93 in1013.5 mb 0.12 in3.0 mm 0.00 in0.0 mm 0.12 in3.0 mm
01:09 AM 53.2°F11.8°C 52.6°F11.4°C 98% Calm Calm -- 29.93 in1013.5 mb 0.12 in3.0 mm 0.00 in0.0 mm 0.12 in3.0 mm
01:08 AM 53.2°F11.8°C 52.6°F11.4°C 98% Calm Calm -- 29.93 in1013.5 mb 0.12 in3.0 mm 0.60 in15.2 mm 0.12 in3.0 mm
01:07 AM 53.2°F11.8°C 52.6°F11.4°C 98% Calm Calm -- 29.93 in1013.5 mb 0.11 in2.8 mm 0.60 in15.2 mm 0.11 in2.8 mm
01:06 AM 53.2°F11.8°C 52.6°F11.4°C 98% Calm Calm -- 29.93 in1013.5 mb 0.10 in2.5 mm 0.00 in0.0 mm 0.10 in2.5 mm
01:05 AM 53.2°F11.8°C 52.6°F11.4°C 98% Calm Calm 1.7 mph2.7 kmh 29.93 in1013.5 mb 0.10 in2.5 mm 0.60 in15.2 mm 0.10 in2.5 mm
01:04 AM 53.2°F11.8°C 52.6°F11.4°C 98% Calm Calm 1.7 mph2.7 kmh 29.93 in1013.5 mb 0.09 in2.3 mm 0.60 in15.2 mm 0.09 in2.3 mm
01:03 AM 53.2°F11.8°C 52.6°F11.4°C 98% Calm Calm 1.7 mph2.7 kmh 29.93 in1013.5 mb 0.08 in2.0 mm 1.20 in30.5 mm 0.08 in2.0 mm
01:02 AM 53.2°F11.8°C 52.6°F11.4°C 98% Calm Calm 1.7 mph2.7 kmh 29.94 in1013.9 mb 0.06 in1.5 mm 0.00 in0.0 mm 0.06 in1.5 mm
01:01 AM 53.2°F11.8°C 52.6°F11.4°C 98% Calm Calm 1.7 mph2.7 kmh 29.94 in1013.9 mb 0.06 in1.5 mm 0.00 in0.0 mm 0.06 in1.5 mm
01:00 AM 53.2°F11.8°C 52.6°F11.4°C 98% Calm Calm 1.7 mph2.7 kmh 29.94 in1013.9 mb 0.06 in1.5 mm 0.01 in0.3 mm 0.06 in1.5 mm
12:59 AM 53.1°F11.7°C 52.5°F11.4°C 98% Calm Calm 1.7 mph2.7 kmh 29.94 in1013.9 mb 0.05 in1.3 mm 0.00 in0.0 mm 0.05 in1.3 mm
12:58 AM 53.1°F11.7°C 52.5°F11.4°C 98% Calm Calm 1.7 mph2.7 kmh 29.94 in1013.9 mb 0.05 in1.3 mm 0.00 in0.0 mm 0.05 in1.3 mm
12:57 AM 53.1°F11.7°C 52.5°F11.4°C 98% Calm Calm 1.7 mph2.7 kmh 29.94 in1013.9 mb 0.05 in1.3 mm 0.60 in15.2 mm 0.05 in1.3 mm
12:56 AM 53.1°F11.7°C 52.5°F11.4°C 98% Calm Calm 1.7 mph2.7 kmh 29.94 in1013.9 mb 0.04 in1.0 mm 0.00 in0.0 mm 0.04 in1.0 mm
12:55 AM 53.1°F11.7°C 52.5°F11.4°C 98% Calm Calm 2.2 mph3.5 kmh 29.94 in1013.9 mb 0.04 in1.0 mm 0.60 in15.2 mm 0.04 in1.0 mm
12:54 AM 53.1°F11.7°C 52.5°F11.4°C 98% Calm Calm 2.2 mph3.5 kmh 29.94 in1013.9 mb 0.03 in0.8 mm 0.00 in0.0 mm 0.03 in0.8 mm
12:53 AM 53.1°F11.7°C 52.5°F11.4°C 98% Calm Calm 3.7 mph6.0 kmh 29.94 in1013.9 mb 0.03 in0.8 mm 0.60 in15.2 mm 0.03 in0.8 mm
12:52 AM 53.1°F11.7°C 52.5°F11.4°C 98% Calm Calm 3.7 mph6.0 kmh 29.94 in1013.9 mb 0.02 in0.5 mm 0.00 in0.0 mm 0.02 in0.5 mm
12:51 AM 53.1°F11.7°C 52.5°F11.4°C 98% Calm Calm 3.7 mph6.0 kmh 29.94 in1013.9 mb 0.02 in0.5 mm 0.00 in0.0 mm 0.02 in0.5 mm
12:50 AM 53.1°F11.7°C 52.5°F11.4°C 98% Calm Calm 4.2 mph6.8 kmh 29.94 in1013.9 mb 0.02 in0.5 mm 0.00 in0.0 mm 0.02 in0.5 mm
12:49 AM 53.1°F11.7°C 52.5°F11.4°C 98% Calm Calm 4.2 mph6.8 kmh 29.94 in1013.9 mb 0.02 in0.5 mm 0.00 in0.0 mm 0.02 in0.5 mm
12:48 AM 53.1°F11.7°C 52.5°F11.4°C 98% Calm Calm 4.2 mph6.8 kmh 29.94 in1013.9 mb 0.02 in0.5 mm 0.60 in15.2 mm 0.02 in0.5 mm
12:47 AM 53.1°F11.7°C 52.5°F11.4°C 98% Calm Calm 4.2 mph6.8 kmh 29.94 in1013.9 mb 0.01 in0.3 mm 0.00 in0.0 mm 0.01 in0.3 mm
12:46 AM 53.1°F11.7°C 52.5°F11.4°C 98% Calm Calm 4.2 mph6.8 kmh 29.94 in1013.9 mb 0.01 in0.3 mm 0.00 in0.0 mm 0.01 in0.3 mm
12:45 AM 53.1°F11.7°C 52.5°F11.4°C 98% Calm Calm 4.2 mph6.8 kmh 29.94 in1013.9 mb 0.01 in0.3 mm 0.00 in0.0 mm 0.01 in0.3 mm
12:44 AM 53.1°F11.7°C 52.5°F11.4°C 98% 2.7 mph NE4.3 kmh NE 4.2 mph6.8 kmh 29.94 in1013.9 mb 0.01 in0.3 mm 0.00 in0.0 mm 0.01 in0.3 mm
12:43 AM 53.1°F11.7°C 52.5°F11.4°C 98% 3.7 mph E6.0 kmh E 4.2 mph6.8 kmh 29.94 in1013.9 mb 0.01 in0.3 mm 0.00 in0.0 mm 0.01 in0.3 mm
12:42 AM 53.1°F11.7°C 52.5°F11.4°C 98% 2.7 mph E4.3 kmh E 4.2 mph6.8 kmh 29.94 in1013.9 mb 0.01 in0.3 mm 0.00 in0.0 mm 0.01 in0.3 mm
12:41 AM 53.1°F11.7°C 52.5°F11.4°C 98% 3.7 mph NE6.0 kmh NE 4.2 mph6.8 kmh 29.94 in1013.9 mb 0.01 in0.3 mm 0.00 in0.0 mm 0.01 in0.3 mm
12:40 AM 53.1°F11.7°C 52.5°F11.4°C 98% 4.2 mph NE6.8 kmh NE 4.2 mph6.8 kmh 29.94 in1013.9 mb 0.01 in0.3 mm 0.00 in0.0 mm 0.01 in0.3 mm
12:39 AM 53.1°F11.7°C 52.5°F11.4°C 98% Calm Calm -- 29.95 in1014.2 mb 0.01 in0.3 mm 0.60 in15.2 mm 0.01 in0.3 mm
12:38 AM 53.1°F11.7°C 52.5°F11.4°C 98% Calm Calm -- 29.95 in1014.2 mb 0.00 in0.0 mm 0.00 in0.0 mm 0.00 in0.0 mm
12:37 AM 53.1°F11.7°C 52.5°F11.4°C 98% Calm Calm -- 29.95 in1014.2 mb 0.00 in0.0 mm 0.00 in0.0 mm 0.00 in0.0 mm
12:36 AM 52.9°F11.6°C 52.4°F11.3°C 98% Calm Calm -- 29.95 in1014.2 mb 0.00 in0.0 mm 0.00 in0.0 mm 0.00 in0.0 mm
12:35 AM 52.9°F11.6°C 52.4°F11.3°C 98% Calm Calm -- 29.95 in1014.2 mb 0.00 in0.0 mm 0.00 in0.0 mm 0.00 in0.0 mm
12:34 AM 52.9°F11.6°C 52.4°F11.3°C 98% Calm Calm -- 29.95 in1014.2 mb 0.00 in0.0 mm 0.00 in0.0 mm 0.00 in0.0 mm
12:33 AM 52.9°F11.6°C 52.4°F11.3°C 98% Calm Calm -- 29.95 in1014.2 mb 0.00 in0.0 mm 0.00 in0.0 mm 0.00 in0.0 mm
12:32 AM 52.9°F11.6°C 52.4°F11.3°C 98% Calm Calm -- 29.95 in1014.2 mb 0.00 in0.0 mm 0.00 in0.0 mm 0.00 in0.0 mm
12:31 AM 52.9°F11.6°C 52.4°F11.3°C 98% Calm Calm -- 29.95 in1014.2 mb 0.00 in0.0 mm 0.00 in0.0 mm 0.00 in0.0 mm
12:30 AM 52.9°F11.6°C 52.4°F11.3°C 98% Calm Calm -- 29.95 in1014.2 mb 0.00 in0.0 mm 0.00 in0.0 mm 0.00 in0.0 mm
12:29 AM 52.9°F11.6°C 52.4°F11.3°C 98% Calm Calm -- 29.95 in1014.2 mb 0.00 in0.0 mm 0.00 in0.0 mm 0.00 in0.0 mm
12:28 AM 52.9°F11.6°C 52.4°F11.3°C 98% Calm Calm -- 29.95 in1014.2 mb 0.00 in0.0 mm 0.00 in0.0 mm 0.00 in0.0 mm
12:27 AM 52.9°F11.6°C 52.4°F11.3°C 98% Calm Calm -- 29.95 in1014.2 mb 0.00 in0.0 mm 0.00 in0.0 mm 0.00 in0.0 mm
12:26 AM 52.9°F11.6°C 52.4°F11.3°C 98% Calm Calm -- 29.95 in1014.2 mb 0.00 in0.0 mm 0.00 in0.0 mm 0.00 in0.0 mm
12:25 AM 52.9°F11.6°C 52.4°F11.3°C 98% Calm Calm -- 29.94 in1013.9 mb 0.00 in0.0 mm 0.00 in0.0 mm 0.00 in0.0 mm
12:24 AM 52.9°F11.6°C 52.4°F11.3°C 98% Calm Calm -- 29.94 in1013.9 mb 0.00 in0.0 mm 0.00 in0.0 mm 0.00 in0.0 mm
12:23 AM 52.7°F11.5°C 52.2°F11.2°C 98% Calm Calm -- 29.94 in1013.9 mb 0.00 in0.0 mm 0.00 in0.0 mm 0.00 in0.0 mm
12:22 AM 52.7°F11.5°C 52.2°F11.2°C 98% Calm Calm -- 29.94 in1013.9 mb 0.00 in0.0 mm 0.00 in0.0 mm 0.00 in0.0 mm
12:21 AM 52.7°F11.5°C 52.2°F11.2°C 98% Calm Calm -- 29.94 in1013.9 mb 0.00 in0.0 mm 0.00 in0.0 mm 0.00 in0.0 mm
12:20 AM 52.7°F11.5°C 52.2°F11.2°C 98% Calm Calm 2.2 mph3.5 kmh 29.94 in1013.9 mb 0.00 in0.0 mm 0.00 in0.0 mm 0.00 in0.0 mm
12:19 AM 52.7°F11.5°C 52.2°F11.2°C 98% Calm Calm 2.2 mph3.5 kmh 29.94 in1013.9 mb 0.00 in0.0 mm 0.00 in0.0 mm 0.00 in0.0 mm
12:18 AM 52.7°F11.5°C 52.2°F11.2°C 98% Calm Calm 2.2 mph3.5 kmh 29.94 in1013.9 mb 0.00 in0.0 mm 0.00 in0.0 mm 0.00 in0.0 mm
12:17 AM 52.7°F11.5°C 52.2°F11.2°C 98% Calm Calm 2.2 mph3.5 kmh 29.94 in1013.9 mb 0.00 in0.0 mm 0.00 in0.0 mm 0.00 in0.0 mm
12:16 AM 52.7°F11.5°C 52.2°F11.2°C 98% Calm Calm 2.2 mph3.5 kmh 29.94 in1013.9 mb 0.00 in0.0 mm 0.00 in0.0 mm 0.00 in0.0 mm
12:15 AM 52.7°F11.5°C 52.2°F11.2°C 98% Calm Calm 2.2 mph3.5 kmh 29.94 in1013.9 mb 0.00 in0.0 mm 0.00 in0.0 mm 0.00 in0.0 mm
12:14 AM 52.7°F11.5°C 52.2°F11.2°C 98% Calm Calm 2.2 mph3.5 kmh 29.94 in1013.9 mb 0.00 in0.0 mm 0.00 in0.0 mm 0.00 in0.0 mm
12:13 AM 52.7°F11.5°C 52.2°F11.2°C 98% Calm Calm 2.2 mph3.5 kmh 29.94 in1013.9 mb 0.00 in0.0 mm 0.00 in0.0 mm 0.00 in0.0 mm
12:12 AM 52.7°F11.5°C 52.2°F11.2°C 98% Calm Calm 2.2 mph3.5 kmh 29.94 in1013.9 mb 0.00 in0.0 mm 0.00 in0.0 mm 0.00 in0.0 mm
12:11 AM 52.7°F11.5°C 52.2°F11.2°C 98% Calm Calm 2.2 mph3.5 kmh 29.94 in1013.9 mb 0.00 in0.0 mm 0.00 in0.0 mm 0.00 in0.0 mm
12:10 AM 52.7°F11.5°C 52.2°F11.2°C 98% 1.7 mph NE2.7 kmh NE 2.7 mph4.3 kmh 29.94 in1013.9 mb 0.00 in0.0 mm 0.00 in0.0 mm 0.00 in0.0 mm
12:09 AM 52.7°F11.5°C 52.2°F11.2°C 98% 1.7 mph E2.7 kmh E 3.2 mph5.1 kmh 29.94 in1013.9 mb 0.00 in0.0 mm 0.00 in0.0 mm 0.00 in0.0 mm
12:08 AM 52.7°F11.5°C 52.2°F11.2°C 98% 1.1 mph E1.8 kmh E 3.2 mph5.1 kmh 29.94 in1013.9 mb 0.00 in0.0 mm 0.00 in0.0 mm 0.00 in0.0 mm
12:07 AM 52.7°F11.5°C 52.2°F11.2°C 98% Calm Calm 3.2 mph5.1 kmh 29.94 in1013.9 mb 0.00 in0.0 mm 0.00 in0.0 mm 0.00 in0.0 mm
12:06 AM 52.7°F11.5°C 52.2°F11.2°C 98% Calm Calm 3.2 mph5.1 kmh 29.94 in1013.9 mb 0.00 in0.0 mm 0.00 in0.0 mm 0.00 in0.0 mm
12:05 AM 52.7°F11.5°C 52.2°F11.2°C 98% Calm Calm 3.2 mph5.1 kmh 29.94 in1013.9 mb 0.00 in0.0 mm 0.00 in0.0 mm 0.00 in0.0 mm
12:04 AM 52.7°F11.5°C 51.9°F11.1°C 97% Calm Calm 3.2 mph5.1 kmh 29.94 in1013.9 mb 0.00 in0.0 mm 0.00 in0.0 mm 0.00 in0.0 mm
12:03 AM 52.7°F11.5°C 51.9°F11.1°C 97% Calm Calm 4.2 mph6.8 kmh 29.94 in1013.9 mb 0.00 in0.0 mm 0.00 in0.0 mm 0.00 in0.0 mm
12:02 AM 52.7°F11.5°C 51.9°F11.1°C 97% 1.7 mph E2.7 kmh E 4.2 mph6.8 kmh 29.95 in1014.2 mb 0.00 in0.0 mm 0.00 in0.0 mm 0.00 in0.0 mm
12:01 AM 52.7°F11.5°C 51.9°F11.1°C 97% 2.2 mph NE3.5 kmh NE 4.2 mph6.8 kmh 29.95 in1014.2 mb 0.00 in0.0 mm 0.00 in0.0 mm 0.00 in0.0 mm
12:00 AM 52.7°F11.5°C 51.9°F11.1°C 97% 2.7 mph ENE4.3 kmh ENE 4.2 mph6.8 kmh 29.95 in1014.2 mb 0.00 in0.0 mm 0.00 in0.0 mm 0.00 in0.0 mm